<?xml version="1.0" encoding="UTF-8" standalone="no" ?>
<gpx xmlns="http://www.topografix.com/GPX/1/1" xmlns:xsi="http://www.w3.org/2001/XMLSchema-instance" xsi:schemaLocation="http://www.topografix.com/GPX/1/1 http://www.topografix.com/GPX/1/1/gpx.xsd" version="1.1" creator="VisuGPX - https://www.visugpx.com">
  <metadata>
    <name>Les Chemins du Soleil Sud (1/6)</name>
    <desc><![CDATA[Les Chemins du Soleil Sud ou la traversée des préAlpes du Sud (Peipin - Digne les Bains)]]></desc>
  </metadata>
  <trk>
    <name><![CDATA[gtpas1 Peipin Digne]]></name>
    <trkseg>
      <trkpt lat="44.13808" lon="5.96793">
        <ele>480</ele>
        <time>2009-07-05T07:55:41Z</time>
      </trkpt>
      <trkpt lat="44.13808" lon="5.96793">
        <ele>476</ele>
        <time>2009-07-05T07:55:42Z</time>
      </trkpt>
      <trkpt lat="44.13768" lon="5.96788">
        <ele>476</ele>
        <time>2009-07-05T07:56:36Z</time>
      </trkpt>
      <trkpt lat="44.13777" lon="5.96787">
        <ele>476</ele>
        <time>2009-07-05T08:05:08Z</time>
      </trkpt>
      <trkpt lat="44.13783" lon="5.96787">
        <ele>475</ele>
        <time>2009-07-05T08:07:34Z</time>
      </trkpt>
      <trkpt lat="44.13783" lon="5.96783">
        <ele>475</ele>
        <time>2009-07-05T08:07:58Z</time>
      </trkpt>
      <trkpt lat="44.13783" lon="5.9678">
        <ele>476</ele>
        <time>2009-07-05T08:08:00Z</time>
      </trkpt>
      <trkpt lat="44.13807" lon="5.96752">
        <ele>476</ele>
        <time>2009-07-05T08:08:14Z</time>
      </trkpt>
      <trkpt lat="44.13822" lon="5.96713">
        <ele>476</ele>
        <time>2009-07-05T08:08:26Z</time>
      </trkpt>
      <trkpt lat="44.1384" lon="5.96672">
        <ele>476</ele>
        <time>2009-07-05T08:08:40Z</time>
      </trkpt>
      <trkpt lat="44.13867" lon="5.96627">
        <ele>475</ele>
        <time>2009-07-05T08:08:53Z</time>
      </trkpt>
      <trkpt lat="44.13908" lon="5.96592">
        <ele>475</ele>
        <time>2009-07-05T08:09:07Z</time>
      </trkpt>
      <trkpt lat="44.13912" lon="5.9656">
        <ele>475</ele>
        <time>2009-07-05T08:09:18Z</time>
      </trkpt>
      <trkpt lat="44.13883" lon="5.96505">
        <ele>477</ele>
        <time>2009-07-05T08:09:36Z</time>
      </trkpt>
      <trkpt lat="44.13867" lon="5.96463">
        <ele>478</ele>
        <time>2009-07-05T08:09:49Z</time>
      </trkpt>
      <trkpt lat="44.13848" lon="5.96405">
        <ele>480</ele>
        <time>2009-07-05T08:10:05Z</time>
      </trkpt>
      <trkpt lat="44.13825" lon="5.96332">
        <ele>481</ele>
        <time>2009-07-05T08:10:24Z</time>
      </trkpt>
      <trkpt lat="44.13813" lon="5.96258">
        <ele>482</ele>
        <time>2009-07-05T08:10:41Z</time>
      </trkpt>
      <trkpt lat="44.13807" lon="5.96183">
        <ele>483</ele>
        <time>2009-07-05T08:10:58Z</time>
      </trkpt>
      <trkpt lat="44.13803" lon="5.9613">
        <ele>484</ele>
        <time>2009-07-05T08:11:12Z</time>
      </trkpt>
      <trkpt lat="44.13802" lon="5.96128">
        <ele>484</ele>
        <time>2009-07-05T08:11:13Z</time>
      </trkpt>
      <trkpt lat="44.13798" lon="5.96128">
        <ele>484</ele>
        <time>2009-07-05T08:11:23Z</time>
      </trkpt>
      <trkpt lat="44.138" lon="5.96138">
        <ele>484</ele>
        <time>2009-07-05T08:11:36Z</time>
      </trkpt>
      <trkpt lat="44.138" lon="5.96138">
        <ele>484</ele>
        <time>2009-07-05T08:11:46Z</time>
      </trkpt>
      <trkpt lat="44.138" lon="5.96133">
        <ele>484</ele>
        <time>2009-07-05T08:11:50Z</time>
      </trkpt>
      <trkpt lat="44.13795" lon="5.96128">
        <ele>484</ele>
        <time>2009-07-05T08:12:07Z</time>
      </trkpt>
      <trkpt lat="44.13797" lon="5.9613">
        <ele>483</ele>
        <time>2009-07-05T08:16:56Z</time>
      </trkpt>
      <trkpt lat="44.13787" lon="5.96133">
        <ele>483</ele>
        <time>2009-07-05T08:17:00Z</time>
      </trkpt>
      <trkpt lat="44.13722" lon="5.96167">
        <ele>482</ele>
        <time>2009-07-05T08:17:15Z</time>
      </trkpt>
      <trkpt lat="44.13663" lon="5.96198">
        <ele>483</ele>
        <time>2009-07-05T08:17:29Z</time>
      </trkpt>
      <trkpt lat="44.13613" lon="5.96228">
        <ele>482</ele>
        <time>2009-07-05T08:17:40Z</time>
      </trkpt>
      <trkpt lat="44.13577" lon="5.9625">
        <ele>481</ele>
        <time>2009-07-05T08:17:47Z</time>
      </trkpt>
      <trkpt lat="44.13487" lon="5.96303">
        <ele>481</ele>
        <time>2009-07-05T08:18:05Z</time>
      </trkpt>
      <trkpt lat="44.13433" lon="5.96333">
        <ele>480</ele>
        <time>2009-07-05T08:18:17Z</time>
      </trkpt>
      <trkpt lat="44.13388" lon="5.96367">
        <ele>479</ele>
        <time>2009-07-05T08:18:28Z</time>
      </trkpt>
      <trkpt lat="44.13372" lon="5.96383">
        <ele>479</ele>
        <time>2009-07-05T08:18:32Z</time>
      </trkpt>
      <trkpt lat="44.13303" lon="5.96435">
        <ele>476</ele>
        <time>2009-07-05T08:18:45Z</time>
      </trkpt>
      <trkpt lat="44.13275" lon="5.96463">
        <ele>479</ele>
        <time>2009-07-05T08:18:53Z</time>
      </trkpt>
      <trkpt lat="44.13242" lon="5.96495">
        <ele>480</ele>
        <time>2009-07-05T08:19:06Z</time>
      </trkpt>
      <trkpt lat="44.13183" lon="5.96527">
        <ele>482</ele>
        <time>2009-07-05T08:19:25Z</time>
      </trkpt>
      <trkpt lat="44.13133" lon="5.9653">
        <ele>484</ele>
        <time>2009-07-05T08:19:43Z</time>
      </trkpt>
      <trkpt lat="44.13102" lon="5.96553">
        <ele>486</ele>
        <time>2009-07-05T08:19:58Z</time>
      </trkpt>
      <trkpt lat="44.13092" lon="5.96568">
        <ele>488</ele>
        <time>2009-07-05T08:20:06Z</time>
      </trkpt>
      <trkpt lat="44.13087" lon="5.96603">
        <ele>488</ele>
        <time>2009-07-05T08:20:20Z</time>
      </trkpt>
      <trkpt lat="44.13073" lon="5.96677">
        <ele>488</ele>
        <time>2009-07-05T08:20:35Z</time>
      </trkpt>
      <trkpt lat="44.13062" lon="5.96725">
        <ele>488</ele>
        <time>2009-07-05T08:20:44Z</time>
      </trkpt>
      <trkpt lat="44.13042" lon="5.96813">
        <ele>487</ele>
        <time>2009-07-05T08:21:00Z</time>
      </trkpt>
      <trkpt lat="44.13032" lon="5.96853">
        <ele>488</ele>
        <time>2009-07-05T08:21:07Z</time>
      </trkpt>
      <trkpt lat="44.13028" lon="5.96872">
        <ele>487</ele>
        <time>2009-07-05T08:21:10Z</time>
      </trkpt>
      <trkpt lat="44.1302" lon="5.96893">
        <ele>487</ele>
        <time>2009-07-05T08:21:14Z</time>
      </trkpt>
      <trkpt lat="44.1299" lon="5.9694">
        <ele>488</ele>
        <time>2009-07-05T08:21:25Z</time>
      </trkpt>
      <trkpt lat="44.12975" lon="5.96945">
        <ele>489</ele>
        <time>2009-07-05T08:21:29Z</time>
      </trkpt>
      <trkpt lat="44.12943" lon="5.9692">
        <ele>489</ele>
        <time>2009-07-05T08:21:41Z</time>
      </trkpt>
      <trkpt lat="44.1291" lon="5.96912">
        <ele>492</ele>
        <time>2009-07-05T08:21:53Z</time>
      </trkpt>
      <trkpt lat="44.12887" lon="5.96878">
        <ele>495</ele>
        <time>2009-07-05T08:22:07Z</time>
      </trkpt>
      <trkpt lat="44.12862" lon="5.96842">
        <ele>498</ele>
        <time>2009-07-05T08:22:22Z</time>
      </trkpt>
      <trkpt lat="44.12848" lon="5.96813">
        <ele>500</ele>
        <time>2009-07-05T08:22:36Z</time>
      </trkpt>
      <trkpt lat="44.1283" lon="5.968">
        <ele>502</ele>
        <time>2009-07-05T08:22:48Z</time>
      </trkpt>
      <trkpt lat="44.12822" lon="5.96795">
        <ele>503</ele>
        <time>2009-07-05T08:22:53Z</time>
      </trkpt>
      <trkpt lat="44.12802" lon="5.96783">
        <ele>506</ele>
        <time>2009-07-05T08:23:07Z</time>
      </trkpt>
      <trkpt lat="44.12785" lon="5.96785">
        <ele>508</ele>
        <time>2009-07-05T08:23:19Z</time>
      </trkpt>
      <trkpt lat="44.12773" lon="5.96808">
        <ele>511</ele>
        <time>2009-07-05T08:23:31Z</time>
      </trkpt>
      <trkpt lat="44.12763" lon="5.9683">
        <ele>513</ele>
        <time>2009-07-05T08:23:43Z</time>
      </trkpt>
      <trkpt lat="44.1276" lon="5.96843">
        <ele>514</ele>
        <time>2009-07-05T08:23:49Z</time>
      </trkpt>
      <trkpt lat="44.12747" lon="5.96877">
        <ele>516</ele>
        <time>2009-07-05T08:24:05Z</time>
      </trkpt>
      <trkpt lat="44.12743" lon="5.96892">
        <ele>517</ele>
        <time>2009-07-05T08:24:12Z</time>
      </trkpt>
      <trkpt lat="44.12742" lon="5.96903">
        <ele>518</ele>
        <time>2009-07-05T08:24:17Z</time>
      </trkpt>
      <trkpt lat="44.12743" lon="5.96912">
        <ele>518</ele>
        <time>2009-07-05T08:24:20Z</time>
      </trkpt>
      <trkpt lat="44.12752" lon="5.96937">
        <ele>520</ele>
        <time>2009-07-05T08:24:32Z</time>
      </trkpt>
      <trkpt lat="44.1275" lon="5.9695">
        <ele>522</ele>
        <time>2009-07-05T08:24:38Z</time>
      </trkpt>
      <trkpt lat="44.12745" lon="5.96958">
        <ele>522</ele>
        <time>2009-07-05T08:24:42Z</time>
      </trkpt>
      <trkpt lat="44.12738" lon="5.96965">
        <ele>523</ele>
        <time>2009-07-05T08:24:46Z</time>
      </trkpt>
      <trkpt lat="44.12705" lon="5.9698">
        <ele>526</ele>
        <time>2009-07-05T08:25:04Z</time>
      </trkpt>
      <trkpt lat="44.12675" lon="5.96987">
        <ele>528</ele>
        <time>2009-07-05T08:25:21Z</time>
      </trkpt>
      <trkpt lat="44.1265" lon="5.97002">
        <ele>529</ele>
        <time>2009-07-05T08:25:37Z</time>
      </trkpt>
      <trkpt lat="44.12622" lon="5.97017">
        <ele>529</ele>
        <time>2009-07-05T08:25:53Z</time>
      </trkpt>
      <trkpt lat="44.1259" lon="5.97022">
        <ele>530</ele>
        <time>2009-07-05T08:26:06Z</time>
      </trkpt>
      <trkpt lat="44.12558" lon="5.97018">
        <ele>531</ele>
        <time>2009-07-05T08:26:19Z</time>
      </trkpt>
      <trkpt lat="44.12517" lon="5.97018">
        <ele>532</ele>
        <time>2009-07-05T08:26:35Z</time>
      </trkpt>
      <trkpt lat="44.12483" lon="5.97022">
        <ele>533</ele>
        <time>2009-07-05T08:26:49Z</time>
      </trkpt>
      <trkpt lat="44.12452" lon="5.9702">
        <ele>535</ele>
        <time>2009-07-05T08:27:03Z</time>
      </trkpt>
      <trkpt lat="44.12442" lon="5.97032">
        <ele>537</ele>
        <time>2009-07-05T08:27:12Z</time>
      </trkpt>
      <trkpt lat="44.12438" lon="5.9704">
        <ele>536</ele>
        <time>2009-07-05T08:27:16Z</time>
      </trkpt>
      <trkpt lat="44.12427" lon="5.97075">
        <ele>538</ele>
        <time>2009-07-05T08:27:32Z</time>
      </trkpt>
      <trkpt lat="44.12425" lon="5.97112">
        <ele>538</ele>
        <time>2009-07-05T08:27:45Z</time>
      </trkpt>
      <trkpt lat="44.12412" lon="5.9715">
        <ele>539</ele>
        <time>2009-07-05T08:27:59Z</time>
      </trkpt>
      <trkpt lat="44.12405" lon="5.97203">
        <ele>539</ele>
        <time>2009-07-05T08:28:14Z</time>
      </trkpt>
      <trkpt lat="44.1239" lon="5.97252">
        <ele>538</ele>
        <time>2009-07-05T08:28:23Z</time>
      </trkpt>
      <trkpt lat="44.12375" lon="5.97277">
        <ele>538</ele>
        <time>2009-07-05T08:28:27Z</time>
      </trkpt>
      <trkpt lat="44.12363" lon="5.97337">
        <ele>538</ele>
        <time>2009-07-05T08:28:35Z</time>
      </trkpt>
      <trkpt lat="44.1236" lon="5.97348">
        <ele>538</ele>
        <time>2009-07-05T08:28:37Z</time>
      </trkpt>
      <trkpt lat="44.12335" lon="5.97397">
        <ele>539</ele>
        <time>2009-07-05T08:28:50Z</time>
      </trkpt>
      <trkpt lat="44.12323" lon="5.97462">
        <ele>537</ele>
        <time>2009-07-05T08:29:03Z</time>
      </trkpt>
      <trkpt lat="44.12322" lon="5.97467">
        <ele>537</ele>
        <time>2009-07-05T08:29:04Z</time>
      </trkpt>
      <trkpt lat="44.12317" lon="5.97493">
        <ele>536</ele>
        <time>2009-07-05T08:29:08Z</time>
      </trkpt>
      <trkpt lat="44.12312" lon="5.97503">
        <ele>535</ele>
        <time>2009-07-05T08:29:10Z</time>
      </trkpt>
      <trkpt lat="44.123" lon="5.97528">
        <ele>533</ele>
        <time>2009-07-05T08:29:15Z</time>
      </trkpt>
      <trkpt lat="44.1229" lon="5.9757">
        <ele>529</ele>
        <time>2009-07-05T08:29:21Z</time>
      </trkpt>
      <trkpt lat="44.12278" lon="5.97597">
        <ele>527</ele>
        <time>2009-07-05T08:29:25Z</time>
      </trkpt>
      <trkpt lat="44.12272" lon="5.97622">
        <ele>526</ele>
        <time>2009-07-05T08:29:28Z</time>
      </trkpt>
      <trkpt lat="44.12288" lon="5.97665">
        <ele>524</ele>
        <time>2009-07-05T08:29:35Z</time>
      </trkpt>
      <trkpt lat="44.12298" lon="5.97668">
        <ele>523</ele>
        <time>2009-07-05T08:29:37Z</time>
      </trkpt>
      <trkpt lat="44.12312" lon="5.97678">
        <ele>522</ele>
        <time>2009-07-05T08:29:40Z</time>
      </trkpt>
      <trkpt lat="44.12317" lon="5.97683">
        <ele>521</ele>
        <time>2009-07-05T08:29:41Z</time>
      </trkpt>
      <trkpt lat="44.1233" lon="5.97693">
        <ele>520</ele>
        <time>2009-07-05T08:29:44Z</time>
      </trkpt>
      <trkpt lat="44.12337" lon="5.9771">
        <ele>518</ele>
        <time>2009-07-05T08:29:47Z</time>
      </trkpt>
      <trkpt lat="44.12335" lon="5.97725">
        <ele>517</ele>
        <time>2009-07-05T08:29:49Z</time>
      </trkpt>
      <trkpt lat="44.12332" lon="5.97738">
        <ele>515</ele>
        <time>2009-07-05T08:29:51Z</time>
      </trkpt>
      <trkpt lat="44.12323" lon="5.97785">
        <ele>512</ele>
        <time>2009-07-05T08:29:57Z</time>
      </trkpt>
      <trkpt lat="44.12315" lon="5.9786">
        <ele>509</ele>
        <time>2009-07-05T08:30:05Z</time>
      </trkpt>
      <trkpt lat="44.12313" lon="5.97867">
        <ele>508</ele>
        <time>2009-07-05T08:30:06Z</time>
      </trkpt>
      <trkpt lat="44.12302" lon="5.9789">
        <ele>507</ele>
        <time>2009-07-05T08:30:10Z</time>
      </trkpt>
      <trkpt lat="44.12292" lon="5.97897">
        <ele>507</ele>
        <time>2009-07-05T08:30:12Z</time>
      </trkpt>
      <trkpt lat="44.12283" lon="5.979">
        <ele>506</ele>
        <time>2009-07-05T08:30:14Z</time>
      </trkpt>
      <trkpt lat="44.12265" lon="5.97902">
        <ele>505</ele>
        <time>2009-07-05T08:30:18Z</time>
      </trkpt>
      <trkpt lat="44.12258" lon="5.97902">
        <ele>505</ele>
        <time>2009-07-05T08:30:19Z</time>
      </trkpt>
      <trkpt lat="44.12205" lon="5.97912">
        <ele>501</ele>
        <time>2009-07-05T08:30:30Z</time>
      </trkpt>
      <trkpt lat="44.122" lon="5.97913">
        <ele>501</ele>
        <time>2009-07-05T08:30:31Z</time>
      </trkpt>
      <trkpt lat="44.1219" lon="5.97915">
        <ele>500</ele>
        <time>2009-07-05T08:30:33Z</time>
      </trkpt>
      <trkpt lat="44.12182" lon="5.97915">
        <ele>499</ele>
        <time>2009-07-05T08:30:35Z</time>
      </trkpt>
      <trkpt lat="44.12168" lon="5.97917">
        <ele>497</ele>
        <time>2009-07-05T08:30:38Z</time>
      </trkpt>
      <trkpt lat="44.12138" lon="5.9793">
        <ele>494</ele>
        <time>2009-07-05T08:30:44Z</time>
      </trkpt>
      <trkpt lat="44.12123" lon="5.97938">
        <ele>492</ele>
        <time>2009-07-05T08:30:48Z</time>
      </trkpt>
      <trkpt lat="44.12103" lon="5.97948">
        <ele>489</ele>
        <time>2009-07-05T08:30:53Z</time>
      </trkpt>
      <trkpt lat="44.12097" lon="5.9795">
        <ele>488</ele>
        <time>2009-07-05T08:30:55Z</time>
      </trkpt>
      <trkpt lat="44.1208" lon="5.97947">
        <ele>486</ele>
        <time>2009-07-05T08:30:59Z</time>
      </trkpt>
      <trkpt lat="44.12072" lon="5.97943">
        <ele>485</ele>
        <time>2009-07-05T08:31:01Z</time>
      </trkpt>
      <trkpt lat="44.12048" lon="5.97915">
        <ele>481</ele>
        <time>2009-07-05T08:31:09Z</time>
      </trkpt>
      <trkpt lat="44.12043" lon="5.97912">
        <ele>481</ele>
        <time>2009-07-05T08:31:11Z</time>
      </trkpt>
      <trkpt lat="44.12038" lon="5.9792">
        <ele>479</ele>
        <time>2009-07-05T08:31:16Z</time>
      </trkpt>
      <trkpt lat="44.12042" lon="5.97975">
        <ele>476</ele>
        <time>2009-07-05T08:31:28Z</time>
      </trkpt>
      <trkpt lat="44.12053" lon="5.98013">
        <ele>473</ele>
        <time>2009-07-05T08:31:40Z</time>
      </trkpt>
      <trkpt lat="44.12052" lon="5.98022">
        <ele>472</ele>
        <time>2009-07-05T08:31:46Z</time>
      </trkpt>
      <trkpt lat="44.12057" lon="5.98033">
        <ele>470</ele>
        <time>2009-07-05T08:31:55Z</time>
      </trkpt>
      <trkpt lat="44.12053" lon="5.98038">
        <ele>469</ele>
        <time>2009-07-05T08:31:59Z</time>
      </trkpt>
      <trkpt lat="44.12048" lon="5.98038">
        <ele>470</ele>
        <time>2009-07-05T08:32:12Z</time>
      </trkpt>
      <trkpt lat="44.12042" lon="5.98032">
        <ele>473</ele>
        <time>2009-07-05T08:32:24Z</time>
      </trkpt>
      <trkpt lat="44.1203" lon="5.9802">
        <ele>476</ele>
        <time>2009-07-05T08:32:39Z</time>
      </trkpt>
      <trkpt lat="44.1202" lon="5.98017">
        <ele>479</ele>
        <time>2009-07-05T08:32:55Z</time>
      </trkpt>
      <trkpt lat="44.1201" lon="5.9801">
        <ele>482</ele>
        <time>2009-07-05T08:33:10Z</time>
      </trkpt>
      <trkpt lat="44.11997" lon="5.9801">
        <ele>485</ele>
        <time>2009-07-05T08:33:28Z</time>
      </trkpt>
      <trkpt lat="44.11982" lon="5.98015">
        <ele>488</ele>
        <time>2009-07-05T08:33:52Z</time>
      </trkpt>
      <trkpt lat="44.11967" lon="5.98023">
        <ele>491</ele>
        <time>2009-07-05T08:34:13Z</time>
      </trkpt>
      <trkpt lat="44.11958" lon="5.98028">
        <ele>493</ele>
        <time>2009-07-05T08:34:31Z</time>
      </trkpt>
      <trkpt lat="44.11945" lon="5.98035">
        <ele>495</ele>
        <time>2009-07-05T08:34:44Z</time>
      </trkpt>
      <trkpt lat="44.11937" lon="5.9804">
        <ele>496</ele>
        <time>2009-07-05T08:34:51Z</time>
      </trkpt>
      <trkpt lat="44.11933" lon="5.9805">
        <ele>496</ele>
        <time>2009-07-05T08:34:57Z</time>
      </trkpt>
      <trkpt lat="44.1193" lon="5.98057">
        <ele>496</ele>
        <time>2009-07-05T08:35:01Z</time>
      </trkpt>
      <trkpt lat="44.11927" lon="5.98072">
        <ele>497</ele>
        <time>2009-07-05T08:35:08Z</time>
      </trkpt>
      <trkpt lat="44.1192" lon="5.98087">
        <ele>498</ele>
        <time>2009-07-05T08:35:17Z</time>
      </trkpt>
      <trkpt lat="44.11915" lon="5.98095">
        <ele>499</ele>
        <time>2009-07-05T08:35:26Z</time>
      </trkpt>
      <trkpt lat="44.11905" lon="5.98107">
        <ele>501</ele>
        <time>2009-07-05T08:35:36Z</time>
      </trkpt>
      <trkpt lat="44.11898" lon="5.98115">
        <ele>503</ele>
        <time>2009-07-05T08:35:43Z</time>
      </trkpt>
      <trkpt lat="44.11892" lon="5.98123">
        <ele>503</ele>
        <time>2009-07-05T08:35:48Z</time>
      </trkpt>
      <trkpt lat="44.11877" lon="5.98148">
        <ele>506</ele>
        <time>2009-07-05T08:36:00Z</time>
      </trkpt>
      <trkpt lat="44.11857" lon="5.98143">
        <ele>508</ele>
        <time>2009-07-05T08:36:12Z</time>
      </trkpt>
      <trkpt lat="44.11853" lon="5.98145">
        <ele>509</ele>
        <time>2009-07-05T08:36:15Z</time>
      </trkpt>
      <trkpt lat="44.11847" lon="5.98145">
        <ele>509</ele>
        <time>2009-07-05T08:36:19Z</time>
      </trkpt>
      <trkpt lat="44.11835" lon="5.98148">
        <ele>511</ele>
        <time>2009-07-05T08:36:28Z</time>
      </trkpt>
      <trkpt lat="44.11818" lon="5.98162">
        <ele>513</ele>
        <time>2009-07-05T08:36:42Z</time>
      </trkpt>
      <trkpt lat="44.11817" lon="5.98163">
        <ele>513</ele>
        <time>2009-07-05T08:36:43Z</time>
      </trkpt>
      <trkpt lat="44.11813" lon="5.9817">
        <ele>514</ele>
        <time>2009-07-05T08:36:47Z</time>
      </trkpt>
      <trkpt lat="44.11802" lon="5.9818">
        <ele>515</ele>
        <time>2009-07-05T08:36:54Z</time>
      </trkpt>
      <trkpt lat="44.1178" lon="5.98202">
        <ele>518</ele>
        <time>2009-07-05T08:37:09Z</time>
      </trkpt>
      <trkpt lat="44.11767" lon="5.9821">
        <ele>521</ele>
        <time>2009-07-05T08:37:18Z</time>
      </trkpt>
      <trkpt lat="44.11748" lon="5.98225">
        <ele>524</ele>
        <time>2009-07-05T08:37:28Z</time>
      </trkpt>
      <trkpt lat="44.11745" lon="5.98228">
        <ele>525</ele>
        <time>2009-07-05T08:37:29Z</time>
      </trkpt>
      <trkpt lat="44.1174" lon="5.9823">
        <ele>525</ele>
        <time>2009-07-05T08:37:32Z</time>
      </trkpt>
      <trkpt lat="44.11737" lon="5.98235">
        <ele>526</ele>
        <time>2009-07-05T08:37:36Z</time>
      </trkpt>
      <trkpt lat="44.11728" lon="5.9825">
        <ele>527</ele>
        <time>2009-07-05T08:37:52Z</time>
      </trkpt>
      <trkpt lat="44.11728" lon="5.98255">
        <ele>526</ele>
        <time>2009-07-05T08:40:33Z</time>
      </trkpt>
      <trkpt lat="44.11723" lon="5.98265">
        <ele>526</ele>
        <time>2009-07-05T08:40:38Z</time>
      </trkpt>
      <trkpt lat="44.11712" lon="5.98285">
        <ele>527</ele>
        <time>2009-07-05T08:40:49Z</time>
      </trkpt>
      <trkpt lat="44.11698" lon="5.98307">
        <ele>527</ele>
        <time>2009-07-05T08:40:57Z</time>
      </trkpt>
      <trkpt lat="44.11698" lon="5.98337">
        <ele>525</ele>
        <time>2009-07-05T08:41:05Z</time>
      </trkpt>
      <trkpt lat="44.11693" lon="5.98368">
        <ele>523</ele>
        <time>2009-07-05T08:41:10Z</time>
      </trkpt>
      <trkpt lat="44.11687" lon="5.98378">
        <ele>524</ele>
        <time>2009-07-05T08:41:13Z</time>
      </trkpt>
      <trkpt lat="44.1166" lon="5.98385">
        <ele>525</ele>
        <time>2009-07-05T08:41:25Z</time>
      </trkpt>
      <trkpt lat="44.11638" lon="5.98413">
        <ele>526</ele>
        <time>2009-07-05T08:41:38Z</time>
      </trkpt>
      <trkpt lat="44.11603" lon="5.98457">
        <ele>527</ele>
        <time>2009-07-05T08:41:52Z</time>
      </trkpt>
      <trkpt lat="44.11558" lon="5.98452">
        <ele>527</ele>
        <time>2009-07-05T08:42:05Z</time>
      </trkpt>
      <trkpt lat="44.11532" lon="5.98447">
        <ele>527</ele>
        <time>2009-07-05T08:42:12Z</time>
      </trkpt>
      <trkpt lat="44.11532" lon="5.9846">
        <ele>527</ele>
        <time>2009-07-05T08:42:16Z</time>
      </trkpt>
      <trkpt lat="44.11525" lon="5.9851">
        <ele>531</ele>
        <time>2009-07-05T08:42:29Z</time>
      </trkpt>
      <trkpt lat="44.11522" lon="5.98513">
        <ele>531</ele>
        <time>2009-07-05T08:42:30Z</time>
      </trkpt>
      <trkpt lat="44.11508" lon="5.98522">
        <ele>533</ele>
        <time>2009-07-05T08:42:34Z</time>
      </trkpt>
      <trkpt lat="44.11475" lon="5.98535">
        <ele>536</ele>
        <time>2009-07-05T08:42:44Z</time>
      </trkpt>
      <trkpt lat="44.11443" lon="5.98548">
        <ele>539</ele>
        <time>2009-07-05T08:42:51Z</time>
      </trkpt>
      <trkpt lat="44.11428" lon="5.98555">
        <ele>541</ele>
        <time>2009-07-05T08:42:54Z</time>
      </trkpt>
      <trkpt lat="44.11415" lon="5.98562">
        <ele>541</ele>
        <time>2009-07-05T08:43:03Z</time>
      </trkpt>
      <trkpt lat="44.11413" lon="5.9856">
        <ele>542</ele>
        <time>2009-07-05T08:44:31Z</time>
      </trkpt>
      <trkpt lat="44.11395" lon="5.9856">
        <ele>543</ele>
        <time>2009-07-05T08:44:41Z</time>
      </trkpt>
      <trkpt lat="44.11377" lon="5.98563">
        <ele>543</ele>
        <time>2009-07-05T08:44:47Z</time>
      </trkpt>
      <trkpt lat="44.11363" lon="5.98563">
        <ele>544</ele>
        <time>2009-07-05T08:44:51Z</time>
      </trkpt>
      <trkpt lat="44.11325" lon="5.98563">
        <ele>546</ele>
        <time>2009-07-05T08:45:04Z</time>
      </trkpt>
      <trkpt lat="44.11295" lon="5.98567">
        <ele>549</ele>
        <time>2009-07-05T08:45:18Z</time>
      </trkpt>
      <trkpt lat="44.11267" lon="5.98572">
        <ele>550</ele>
        <time>2009-07-05T08:45:30Z</time>
      </trkpt>
      <trkpt lat="44.11228" lon="5.98583">
        <ele>550</ele>
        <time>2009-07-05T08:45:42Z</time>
      </trkpt>
      <trkpt lat="44.11193" lon="5.98605">
        <ele>550</ele>
        <time>2009-07-05T08:45:53Z</time>
      </trkpt>
      <trkpt lat="44.11152" lon="5.9863">
        <ele>550</ele>
        <time>2009-07-05T08:46:05Z</time>
      </trkpt>
      <trkpt lat="44.11107" lon="5.98643">
        <ele>552</ele>
        <time>2009-07-05T08:46:18Z</time>
      </trkpt>
      <trkpt lat="44.11068" lon="5.9864">
        <ele>553</ele>
        <time>2009-07-05T08:46:30Z</time>
      </trkpt>
      <trkpt lat="44.11023" lon="5.98645">
        <ele>555</ele>
        <time>2009-07-05T08:46:43Z</time>
      </trkpt>
      <trkpt lat="44.10995" lon="5.98652">
        <ele>555</ele>
        <time>2009-07-05T08:46:53Z</time>
      </trkpt>
      <trkpt lat="44.10967" lon="5.98672">
        <ele>554</ele>
        <time>2009-07-05T08:47:02Z</time>
      </trkpt>
      <trkpt lat="44.10943" lon="5.98682">
        <ele>555</ele>
        <time>2009-07-05T08:47:09Z</time>
      </trkpt>
      <trkpt lat="44.10912" lon="5.98653">
        <ele>556</ele>
        <time>2009-07-05T08:47:21Z</time>
      </trkpt>
      <trkpt lat="44.10895" lon="5.98615">
        <ele>556</ele>
        <time>2009-07-05T08:47:32Z</time>
      </trkpt>
      <trkpt lat="44.10882" lon="5.9857">
        <ele>556</ele>
        <time>2009-07-05T08:47:41Z</time>
      </trkpt>
      <trkpt lat="44.10872" lon="5.98537">
        <ele>553</ele>
        <time>2009-07-05T08:47:51Z</time>
      </trkpt>
      <trkpt lat="44.10868" lon="5.98528">
        <ele>553</ele>
        <time>2009-07-05T08:48:18Z</time>
      </trkpt>
      <trkpt lat="44.10867" lon="5.98525">
        <ele>551</ele>
        <time>2009-07-05T08:48:47Z</time>
      </trkpt>
      <trkpt lat="44.10852" lon="5.98515">
        <ele>554</ele>
        <time>2009-07-05T08:49:04Z</time>
      </trkpt>
      <trkpt lat="44.10848" lon="5.98515">
        <ele>554</ele>
        <time>2009-07-05T08:49:09Z</time>
      </trkpt>
      <trkpt lat="44.10832" lon="5.98537">
        <ele>556</ele>
        <time>2009-07-05T08:49:24Z</time>
      </trkpt>
      <trkpt lat="44.10835" lon="5.98548">
        <ele>556</ele>
        <time>2009-07-05T08:49:28Z</time>
      </trkpt>
      <trkpt lat="44.10838" lon="5.98593">
        <ele>554</ele>
        <time>2009-07-05T08:49:38Z</time>
      </trkpt>
      <trkpt lat="44.10832" lon="5.98625">
        <ele>556</ele>
        <time>2009-07-05T08:49:45Z</time>
      </trkpt>
      <trkpt lat="44.1082" lon="5.98638">
        <ele>558</ele>
        <time>2009-07-05T08:49:52Z</time>
      </trkpt>
      <trkpt lat="44.10802" lon="5.98655">
        <ele>560</ele>
        <time>2009-07-05T08:50:06Z</time>
      </trkpt>
      <trkpt lat="44.10778" lon="5.98672">
        <ele>560</ele>
        <time>2009-07-05T08:50:19Z</time>
      </trkpt>
      <trkpt lat="44.10763" lon="5.98677">
        <ele>559</ele>
        <time>2009-07-05T08:50:29Z</time>
      </trkpt>
      <trkpt lat="44.10755" lon="5.98687">
        <ele>557</ele>
        <time>2009-07-05T08:50:33Z</time>
      </trkpt>
      <trkpt lat="44.1075" lon="5.98695">
        <ele>557</ele>
        <time>2009-07-05T08:50:35Z</time>
      </trkpt>
      <trkpt lat="44.10737" lon="5.98702">
        <ele>555</ele>
        <time>2009-07-05T08:50:38Z</time>
      </trkpt>
      <trkpt lat="44.10732" lon="5.98702">
        <ele>555</ele>
        <time>2009-07-05T08:50:39Z</time>
      </trkpt>
      <trkpt lat="44.10722" lon="5.98707">
        <ele>555</ele>
        <time>2009-07-05T08:50:41Z</time>
      </trkpt>
      <trkpt lat="44.107" lon="5.98717">
        <ele>552</ele>
        <time>2009-07-05T08:50:47Z</time>
      </trkpt>
      <trkpt lat="44.10685" lon="5.9875">
        <ele>550</ele>
        <time>2009-07-05T08:50:53Z</time>
      </trkpt>
      <trkpt lat="44.10678" lon="5.98768">
        <ele>548</ele>
        <time>2009-07-05T08:50:56Z</time>
      </trkpt>
      <trkpt lat="44.10682" lon="5.98807">
        <ele>544</ele>
        <time>2009-07-05T08:51:04Z</time>
      </trkpt>
      <trkpt lat="44.10663" lon="5.98813">
        <ele>540</ele>
        <time>2009-07-05T08:51:10Z</time>
      </trkpt>
      <trkpt lat="44.10645" lon="5.98805">
        <ele>538</ele>
        <time>2009-07-05T08:51:17Z</time>
      </trkpt>
      <trkpt lat="44.10643" lon="5.98822">
        <ele>538</ele>
        <time>2009-07-05T08:51:21Z</time>
      </trkpt>
      <trkpt lat="44.1066" lon="5.98862">
        <ele>540</ele>
        <time>2009-07-05T08:51:33Z</time>
      </trkpt>
      <trkpt lat="44.10668" lon="5.98868">
        <ele>541</ele>
        <time>2009-07-05T08:51:45Z</time>
      </trkpt>
      <trkpt lat="44.10683" lon="5.98887">
        <ele>541</ele>
        <time>2009-07-05T08:52:01Z</time>
      </trkpt>
      <trkpt lat="44.10693" lon="5.98907">
        <ele>542</ele>
        <time>2009-07-05T08:52:10Z</time>
      </trkpt>
      <trkpt lat="44.10693" lon="5.98915">
        <ele>544</ele>
        <time>2009-07-05T08:52:15Z</time>
      </trkpt>
      <trkpt lat="44.1069" lon="5.98922">
        <ele>546</ele>
        <time>2009-07-05T08:52:20Z</time>
      </trkpt>
      <trkpt lat="44.10695" lon="5.9894">
        <ele>549</ele>
        <time>2009-07-05T08:52:30Z</time>
      </trkpt>
      <trkpt lat="44.10693" lon="5.9894">
        <ele>550</ele>
        <time>2009-07-05T08:52:31Z</time>
      </trkpt>
      <trkpt lat="44.10678" lon="5.98955">
        <ele>553</ele>
        <time>2009-07-05T08:52:41Z</time>
      </trkpt>
      <trkpt lat="44.10672" lon="5.98962">
        <ele>554</ele>
        <time>2009-07-05T08:52:46Z</time>
      </trkpt>
      <trkpt lat="44.1067" lon="5.98967">
        <ele>554</ele>
        <time>2009-07-05T08:53:05Z</time>
      </trkpt>
      <trkpt lat="44.10668" lon="5.98968">
        <ele>554</ele>
        <time>2009-07-05T08:55:08Z</time>
      </trkpt>
      <trkpt lat="44.10645" lon="5.98983">
        <ele>556</ele>
        <time>2009-07-05T08:55:23Z</time>
      </trkpt>
      <trkpt lat="44.1062" lon="5.99007">
        <ele>559</ele>
        <time>2009-07-05T08:55:41Z</time>
      </trkpt>
      <trkpt lat="44.10605" lon="5.99035">
        <ele>562</ele>
        <time>2009-07-05T08:55:59Z</time>
      </trkpt>
      <trkpt lat="44.10593" lon="5.99058">
        <ele>565</ele>
        <time>2009-07-05T08:56:11Z</time>
      </trkpt>
      <trkpt lat="44.10583" lon="5.9905">
        <ele>566</ele>
        <time>2009-07-05T08:56:20Z</time>
      </trkpt>
      <trkpt lat="44.10568" lon="5.99062">
        <ele>568</ele>
        <time>2009-07-05T08:56:30Z</time>
      </trkpt>
      <trkpt lat="44.1056" lon="5.99073">
        <ele>570</ele>
        <time>2009-07-05T08:56:38Z</time>
      </trkpt>
      <trkpt lat="44.10553" lon="5.99075">
        <ele>570</ele>
        <time>2009-07-05T08:56:42Z</time>
      </trkpt>
      <trkpt lat="44.10548" lon="5.99072">
        <ele>571</ele>
        <time>2009-07-05T08:56:47Z</time>
      </trkpt>
      <trkpt lat="44.10542" lon="5.99065">
        <ele>572</ele>
        <time>2009-07-05T08:56:52Z</time>
      </trkpt>
      <trkpt lat="44.10535" lon="5.99058">
        <ele>573</ele>
        <time>2009-07-05T08:56:57Z</time>
      </trkpt>
      <trkpt lat="44.10527" lon="5.99052">
        <ele>574</ele>
        <time>2009-07-05T08:57:03Z</time>
      </trkpt>
      <trkpt lat="44.10505" lon="5.99027">
        <ele>576</ele>
        <time>2009-07-05T08:57:19Z</time>
      </trkpt>
      <trkpt lat="44.10487" lon="5.99005">
        <ele>578</ele>
        <time>2009-07-05T08:57:33Z</time>
      </trkpt>
      <trkpt lat="44.10457" lon="5.98982">
        <ele>579</ele>
        <time>2009-07-05T08:57:50Z</time>
      </trkpt>
      <trkpt lat="44.10437" lon="5.9896">
        <ele>582</ele>
        <time>2009-07-05T08:58:04Z</time>
      </trkpt>
      <trkpt lat="44.10415" lon="5.98937">
        <ele>584</ele>
        <time>2009-07-05T08:58:20Z</time>
      </trkpt>
      <trkpt lat="44.10398" lon="5.98918">
        <ele>587</ele>
        <time>2009-07-05T08:58:35Z</time>
      </trkpt>
      <trkpt lat="44.10397" lon="5.98915">
        <ele>587</ele>
        <time>2009-07-05T08:58:37Z</time>
      </trkpt>
      <trkpt lat="44.10378" lon="5.98897">
        <ele>589</ele>
        <time>2009-07-05T08:58:51Z</time>
      </trkpt>
      <trkpt lat="44.10365" lon="5.98875">
        <ele>591</ele>
        <time>2009-07-05T08:59:04Z</time>
      </trkpt>
      <trkpt lat="44.10355" lon="5.98848">
        <ele>592</ele>
        <time>2009-07-05T08:59:16Z</time>
      </trkpt>
      <trkpt lat="44.10357" lon="5.98817">
        <ele>592</ele>
        <time>2009-07-05T08:59:30Z</time>
      </trkpt>
      <trkpt lat="44.10353" lon="5.98793">
        <ele>593</ele>
        <time>2009-07-05T08:59:43Z</time>
      </trkpt>
      <trkpt lat="44.10348" lon="5.98778">
        <ele>593</ele>
        <time>2009-07-05T08:59:51Z</time>
      </trkpt>
      <trkpt lat="44.10333" lon="5.98757">
        <ele>595</ele>
        <time>2009-07-05T09:00:06Z</time>
      </trkpt>
      <trkpt lat="44.10328" lon="5.98753">
        <ele>595</ele>
        <time>2009-07-05T09:00:10Z</time>
      </trkpt>
      <trkpt lat="44.10325" lon="5.98752">
        <ele>596</ele>
        <time>2009-07-05T09:00:12Z</time>
      </trkpt>
      <trkpt lat="44.1031" lon="5.98737">
        <ele>597</ele>
        <time>2009-07-05T09:00:26Z</time>
      </trkpt>
      <trkpt lat="44.10308" lon="5.98735">
        <ele>598</ele>
        <time>2009-07-05T09:00:28Z</time>
      </trkpt>
      <trkpt lat="44.10288" lon="5.98718">
        <ele>600</ele>
        <time>2009-07-05T09:00:43Z</time>
      </trkpt>
      <trkpt lat="44.10287" lon="5.98717">
        <ele>600</ele>
        <time>2009-07-05T09:00:44Z</time>
      </trkpt>
      <trkpt lat="44.1028" lon="5.98712">
        <ele>601</ele>
        <time>2009-07-05T09:00:49Z</time>
      </trkpt>
      <trkpt lat="44.10275" lon="5.98703">
        <ele>602</ele>
        <time>2009-07-05T09:00:55Z</time>
      </trkpt>
      <trkpt lat="44.10252" lon="5.98678">
        <ele>605</ele>
        <time>2009-07-05T09:01:12Z</time>
      </trkpt>
      <trkpt lat="44.10233" lon="5.98665">
        <ele>607</ele>
        <time>2009-07-05T09:01:26Z</time>
      </trkpt>
      <trkpt lat="44.10213" lon="5.98662">
        <ele>609</ele>
        <time>2009-07-05T09:01:40Z</time>
      </trkpt>
      <trkpt lat="44.1019" lon="5.9865">
        <ele>611</ele>
        <time>2009-07-05T09:01:56Z</time>
      </trkpt>
      <trkpt lat="44.1017" lon="5.98648">
        <ele>613</ele>
        <time>2009-07-05T09:02:10Z</time>
      </trkpt>
      <trkpt lat="44.10145" lon="5.9865">
        <ele>615</ele>
        <time>2009-07-05T09:02:26Z</time>
      </trkpt>
      <trkpt lat="44.10142" lon="5.9865">
        <ele>615</ele>
        <time>2009-07-05T09:02:28Z</time>
      </trkpt>
      <trkpt lat="44.1012" lon="5.98655">
        <ele>617</ele>
        <time>2009-07-05T09:02:42Z</time>
      </trkpt>
      <trkpt lat="44.101" lon="5.98657">
        <ele>619</ele>
        <time>2009-07-05T09:02:55Z</time>
      </trkpt>
      <trkpt lat="44.10073" lon="5.98653">
        <ele>621</ele>
        <time>2009-07-05T09:03:11Z</time>
      </trkpt>
      <trkpt lat="44.10052" lon="5.98643">
        <ele>623</ele>
        <time>2009-07-05T09:03:23Z</time>
      </trkpt>
      <trkpt lat="44.10043" lon="5.98638">
        <ele>624</ele>
        <time>2009-07-05T09:03:28Z</time>
      </trkpt>
      <trkpt lat="44.10042" lon="5.98633">
        <ele>625</ele>
        <time>2009-07-05T09:03:33Z</time>
      </trkpt>
      <trkpt lat="44.10058" lon="5.98612">
        <ele>625</ele>
        <time>2009-07-05T09:03:47Z</time>
      </trkpt>
      <trkpt lat="44.10078" lon="5.98597">
        <ele>626</ele>
        <time>2009-07-05T09:04:00Z</time>
      </trkpt>
      <trkpt lat="44.10107" lon="5.9858">
        <ele>627</ele>
        <time>2009-07-05T09:04:15Z</time>
      </trkpt>
      <trkpt lat="44.10138" lon="5.98558">
        <ele>628</ele>
        <time>2009-07-05T09:04:30Z</time>
      </trkpt>
      <trkpt lat="44.10162" lon="5.9853">
        <ele>628</ele>
        <time>2009-07-05T09:04:44Z</time>
      </trkpt>
      <trkpt lat="44.10167" lon="5.98522">
        <ele>628</ele>
        <time>2009-07-05T09:04:57Z</time>
      </trkpt>
      <trkpt lat="44.10175" lon="5.98505">
        <ele>628</ele>
        <time>2009-07-05T09:08:48Z</time>
      </trkpt>
      <trkpt lat="44.10197" lon="5.98477">
        <ele>627</ele>
        <time>2009-07-05T09:08:56Z</time>
      </trkpt>
      <trkpt lat="44.10223" lon="5.98432">
        <ele>625</ele>
        <time>2009-07-05T09:09:04Z</time>
      </trkpt>
      <trkpt lat="44.10235" lon="5.98398">
        <ele>624</ele>
        <time>2009-07-05T09:09:09Z</time>
      </trkpt>
      <trkpt lat="44.1024" lon="5.98375">
        <ele>623</ele>
        <time>2009-07-05T09:09:12Z</time>
      </trkpt>
      <trkpt lat="44.1025" lon="5.9834">
        <ele>623</ele>
        <time>2009-07-05T09:09:16Z</time>
      </trkpt>
      <trkpt lat="44.10267" lon="5.98282">
        <ele>623</ele>
        <time>2009-07-05T09:09:28Z</time>
      </trkpt>
      <trkpt lat="44.10243" lon="5.98252">
        <ele>623</ele>
        <time>2009-07-05T09:09:36Z</time>
      </trkpt>
      <trkpt lat="44.10233" lon="5.98228">
        <ele>622</ele>
        <time>2009-07-05T09:09:40Z</time>
      </trkpt>
      <trkpt lat="44.10222" lon="5.9818">
        <ele>620</ele>
        <time>2009-07-05T09:09:48Z</time>
      </trkpt>
      <trkpt lat="44.10202" lon="5.98162">
        <ele>620</ele>
        <time>2009-07-05T09:09:56Z</time>
      </trkpt>
      <trkpt lat="44.10175" lon="5.98182">
        <ele>621</ele>
        <time>2009-07-05T09:10:09Z</time>
      </trkpt>
      <trkpt lat="44.10168" lon="5.98185">
        <ele>620</ele>
        <time>2009-07-05T09:10:11Z</time>
      </trkpt>
      <trkpt lat="44.10148" lon="5.98205">
        <ele>617</ele>
        <time>2009-07-05T09:10:16Z</time>
      </trkpt>
      <trkpt lat="44.10142" lon="5.98217">
        <ele>616</ele>
        <time>2009-07-05T09:10:18Z</time>
      </trkpt>
      <trkpt lat="44.1013" lon="5.98247">
        <ele>613</ele>
        <time>2009-07-05T09:10:23Z</time>
      </trkpt>
      <trkpt lat="44.1011" lon="5.98277">
        <ele>609</ele>
        <time>2009-07-05T09:10:29Z</time>
      </trkpt>
      <trkpt lat="44.10097" lon="5.98282">
        <ele>607</ele>
        <time>2009-07-05T09:10:31Z</time>
      </trkpt>
      <trkpt lat="44.10048" lon="5.983">
        <ele>603</ele>
        <time>2009-07-05T09:10:38Z</time>
      </trkpt>
      <trkpt lat="44.09997" lon="5.98313">
        <ele>600</ele>
        <time>2009-07-05T09:10:45Z</time>
      </trkpt>
      <trkpt lat="44.09945" lon="5.98333">
        <ele>597</ele>
        <time>2009-07-05T09:10:52Z</time>
      </trkpt>
      <trkpt lat="44.0989" lon="5.98352">
        <ele>594</ele>
        <time>2009-07-05T09:10:59Z</time>
      </trkpt>
      <trkpt lat="44.09847" lon="5.98375">
        <ele>590</ele>
        <time>2009-07-05T09:11:05Z</time>
      </trkpt>
      <trkpt lat="44.0984" lon="5.98378">
        <ele>590</ele>
        <time>2009-07-05T09:11:06Z</time>
      </trkpt>
      <trkpt lat="44.09813" lon="5.98395">
        <ele>588</ele>
        <time>2009-07-05T09:11:10Z</time>
      </trkpt>
      <trkpt lat="44.09777" lon="5.98425">
        <ele>585</ele>
        <time>2009-07-05T09:11:16Z</time>
      </trkpt>
      <trkpt lat="44.09745" lon="5.98452">
        <ele>582</ele>
        <time>2009-07-05T09:11:21Z</time>
      </trkpt>
      <trkpt lat="44.09738" lon="5.98458">
        <ele>582</ele>
        <time>2009-07-05T09:11:22Z</time>
      </trkpt>
      <trkpt lat="44.09713" lon="5.98482">
        <ele>580</ele>
        <time>2009-07-05T09:11:26Z</time>
      </trkpt>
      <trkpt lat="44.09682" lon="5.98507">
        <ele>576</ele>
        <time>2009-07-05T09:11:31Z</time>
      </trkpt>
      <trkpt lat="44.09657" lon="5.98525">
        <ele>573</ele>
        <time>2009-07-05T09:11:35Z</time>
      </trkpt>
      <trkpt lat="44.09642" lon="5.98537">
        <ele>570</ele>
        <time>2009-07-05T09:11:38Z</time>
      </trkpt>
      <trkpt lat="44.0963" lon="5.98545">
        <ele>569</ele>
        <time>2009-07-05T09:11:40Z</time>
      </trkpt>
      <trkpt lat="44.09605" lon="5.98582">
        <ele>566</ele>
        <time>2009-07-05T09:11:45Z</time>
      </trkpt>
      <trkpt lat="44.09597" lon="5.98597">
        <ele>566</ele>
        <time>2009-07-05T09:11:47Z</time>
      </trkpt>
      <trkpt lat="44.09577" lon="5.9863">
        <ele>566</ele>
        <time>2009-07-05T09:11:52Z</time>
      </trkpt>
      <trkpt lat="44.09537" lon="5.98675">
        <ele>565</ele>
        <time>2009-07-05T09:12:02Z</time>
      </trkpt>
      <trkpt lat="44.095" lon="5.98773">
        <ele>561</ele>
        <time>2009-07-05T09:12:15Z</time>
      </trkpt>
      <trkpt lat="44.0949" lon="5.9879">
        <ele>560</ele>
        <time>2009-07-05T09:12:17Z</time>
      </trkpt>
      <trkpt lat="44.09485" lon="5.98797">
        <ele>560</ele>
        <time>2009-07-05T09:12:18Z</time>
      </trkpt>
      <trkpt lat="44.0947" lon="5.98815">
        <ele>560</ele>
        <time>2009-07-05T09:12:21Z</time>
      </trkpt>
      <trkpt lat="44.09443" lon="5.9884">
        <ele>558</ele>
        <time>2009-07-05T09:12:26Z</time>
      </trkpt>
      <trkpt lat="44.09408" lon="5.98872">
        <ele>555</ele>
        <time>2009-07-05T09:12:32Z</time>
      </trkpt>
      <trkpt lat="44.09385" lon="5.98898">
        <ele>553</ele>
        <time>2009-07-05T09:12:36Z</time>
      </trkpt>
      <trkpt lat="44.09375" lon="5.9891">
        <ele>552</ele>
        <time>2009-07-05T09:12:38Z</time>
      </trkpt>
      <trkpt lat="44.09372" lon="5.98915">
        <ele>552</ele>
        <time>2009-07-05T09:12:39Z</time>
      </trkpt>
      <trkpt lat="44.09365" lon="5.98918">
        <ele>551</ele>
        <time>2009-07-05T09:12:40Z</time>
      </trkpt>
      <trkpt lat="44.0936" lon="5.9892">
        <ele>551</ele>
        <time>2009-07-05T09:12:41Z</time>
      </trkpt>
      <trkpt lat="44.09353" lon="5.98922">
        <ele>550</ele>
        <time>2009-07-05T09:12:42Z</time>
      </trkpt>
      <trkpt lat="44.09337" lon="5.98927">
        <ele>550</ele>
        <time>2009-07-05T09:12:44Z</time>
      </trkpt>
      <trkpt lat="44.0933" lon="5.9893">
        <ele>549</ele>
        <time>2009-07-05T09:12:45Z</time>
      </trkpt>
      <trkpt lat="44.0932" lon="5.98937">
        <ele>548</ele>
        <time>2009-07-05T09:12:47Z</time>
      </trkpt>
      <trkpt lat="44.09315" lon="5.98938">
        <ele>548</ele>
        <time>2009-07-05T09:12:48Z</time>
      </trkpt>
      <trkpt lat="44.09312" lon="5.98942">
        <ele>547</ele>
        <time>2009-07-05T09:12:49Z</time>
      </trkpt>
      <trkpt lat="44.09308" lon="5.98943">
        <ele>547</ele>
        <time>2009-07-05T09:12:50Z</time>
      </trkpt>
      <trkpt lat="44.09303" lon="5.98945">
        <ele>546</ele>
        <time>2009-07-05T09:12:51Z</time>
      </trkpt>
      <trkpt lat="44.09298" lon="5.98947">
        <ele>545</ele>
        <time>2009-07-05T09:12:52Z</time>
      </trkpt>
      <trkpt lat="44.09295" lon="5.98948">
        <ele>545</ele>
        <time>2009-07-05T09:12:53Z</time>
      </trkpt>
      <trkpt lat="44.09283" lon="5.98947">
        <ele>543</ele>
        <time>2009-07-05T09:12:56Z</time>
      </trkpt>
      <trkpt lat="44.09277" lon="5.98942">
        <ele>542</ele>
        <time>2009-07-05T09:13:00Z</time>
      </trkpt>
      <trkpt lat="44.09275" lon="5.98942">
        <ele>542</ele>
        <time>2009-07-05T09:13:01Z</time>
      </trkpt>
      <trkpt lat="44.09275" lon="5.98962">
        <ele>541</ele>
        <time>2009-07-05T09:13:11Z</time>
      </trkpt>
      <trkpt lat="44.09273" lon="5.98967">
        <ele>541</ele>
        <time>2009-07-05T09:13:20Z</time>
      </trkpt>
      <trkpt lat="44.09275" lon="5.98957">
        <ele>541</ele>
        <time>2009-07-05T09:13:25Z</time>
      </trkpt>
      <trkpt lat="44.09277" lon="5.98952">
        <ele>541</ele>
        <time>2009-07-05T09:13:28Z</time>
      </trkpt>
      <trkpt lat="44.09272" lon="5.98948">
        <ele>541</ele>
        <time>2009-07-05T09:13:32Z</time>
      </trkpt>
      <trkpt lat="44.09267" lon="5.98985">
        <ele>542</ele>
        <time>2009-07-05T09:13:48Z</time>
      </trkpt>
      <trkpt lat="44.09265" lon="5.99033">
        <ele>543</ele>
        <time>2009-07-05T09:14:01Z</time>
      </trkpt>
      <trkpt lat="44.09263" lon="5.99102">
        <ele>543</ele>
        <time>2009-07-05T09:14:17Z</time>
      </trkpt>
      <trkpt lat="44.09263" lon="5.99185">
        <ele>541</ele>
        <time>2009-07-05T09:14:32Z</time>
      </trkpt>
      <trkpt lat="44.09267" lon="5.99272">
        <ele>539</ele>
        <time>2009-07-05T09:14:46Z</time>
      </trkpt>
      <trkpt lat="44.093" lon="5.99343">
        <ele>539</ele>
        <time>2009-07-05T09:15:01Z</time>
      </trkpt>
      <trkpt lat="44.0934" lon="5.99413">
        <ele>538</ele>
        <time>2009-07-05T09:15:17Z</time>
      </trkpt>
      <trkpt lat="44.09377" lon="5.99462">
        <ele>538</ele>
        <time>2009-07-05T09:15:28Z</time>
      </trkpt>
      <trkpt lat="44.09413" lon="5.9954">
        <ele>537</ele>
        <time>2009-07-05T09:15:46Z</time>
      </trkpt>
      <trkpt lat="44.09428" lon="5.99578">
        <ele>536</ele>
        <time>2009-07-05T09:15:55Z</time>
      </trkpt>
      <trkpt lat="44.09448" lon="5.9961">
        <ele>534</ele>
        <time>2009-07-05T09:16:01Z</time>
      </trkpt>
      <trkpt lat="44.09457" lon="5.99623">
        <ele>533</ele>
        <time>2009-07-05T09:16:03Z</time>
      </trkpt>
      <trkpt lat="44.0947" lon="5.99663">
        <ele>529</ele>
        <time>2009-07-05T09:16:07Z</time>
      </trkpt>
      <trkpt lat="44.09478" lon="5.99725">
        <ele>526</ele>
        <time>2009-07-05T09:16:12Z</time>
      </trkpt>
      <trkpt lat="44.09483" lon="5.99785">
        <ele>523</ele>
        <time>2009-07-05T09:16:17Z</time>
      </trkpt>
      <trkpt lat="44.09487" lon="5.99843">
        <ele>519</ele>
        <time>2009-07-05T09:16:22Z</time>
      </trkpt>
      <trkpt lat="44.09488" lon="5.99863">
        <ele>518</ele>
        <time>2009-07-05T09:16:24Z</time>
      </trkpt>
      <trkpt lat="44.09498" lon="5.99898">
        <ele>514</ele>
        <time>2009-07-05T09:16:28Z</time>
      </trkpt>
      <trkpt lat="44.09517" lon="5.99933">
        <ele>511</ele>
        <time>2009-07-05T09:16:32Z</time>
      </trkpt>
      <trkpt lat="44.09522" lon="5.99978">
        <ele>510</ele>
        <time>2009-07-05T09:16:36Z</time>
      </trkpt>
      <trkpt lat="44.09522" lon="6">
        <ele>508</ele>
        <time>2009-07-05T09:16:38Z</time>
      </trkpt>
      <trkpt lat="44.0952" lon="6.0005">
        <ele>506</ele>
        <time>2009-07-05T09:16:43Z</time>
      </trkpt>
      <trkpt lat="44.09518" lon="6.00115">
        <ele>503</ele>
        <time>2009-07-05T09:16:50Z</time>
      </trkpt>
      <trkpt lat="44.09525" lon="6.0021">
        <ele>500</ele>
        <time>2009-07-05T09:17:01Z</time>
      </trkpt>
      <trkpt lat="44.09528" lon="6.0024">
        <ele>499</ele>
        <time>2009-07-05T09:17:04Z</time>
      </trkpt>
      <trkpt lat="44.09545" lon="6.00277">
        <ele>496</ele>
        <time>2009-07-05T09:17:09Z</time>
      </trkpt>
      <trkpt lat="44.09563" lon="6.00298">
        <ele>494</ele>
        <time>2009-07-05T09:17:12Z</time>
      </trkpt>
      <trkpt lat="44.09592" lon="6.00322">
        <ele>492</ele>
        <time>2009-07-05T09:17:16Z</time>
      </trkpt>
      <trkpt lat="44.09605" lon="6.00335">
        <ele>491</ele>
        <time>2009-07-05T09:17:18Z</time>
      </trkpt>
      <trkpt lat="44.09617" lon="6.00352">
        <ele>490</ele>
        <time>2009-07-05T09:17:20Z</time>
      </trkpt>
      <trkpt lat="44.09622" lon="6.0036">
        <ele>489</ele>
        <time>2009-07-05T09:17:21Z</time>
      </trkpt>
      <trkpt lat="44.0963" lon="6.00378">
        <ele>488</ele>
        <time>2009-07-05T09:17:23Z</time>
      </trkpt>
      <trkpt lat="44.09658" lon="6.00475">
        <ele>486</ele>
        <time>2009-07-05T09:17:34Z</time>
      </trkpt>
      <trkpt lat="44.0968" lon="6.00485">
        <ele>486</ele>
        <time>2009-07-05T09:17:40Z</time>
      </trkpt>
      <trkpt lat="44.09722" lon="6.00448">
        <ele>487</ele>
        <time>2009-07-05T09:17:53Z</time>
      </trkpt>
      <trkpt lat="44.09757" lon="6.0042">
        <ele>488</ele>
        <time>2009-07-05T09:18:05Z</time>
      </trkpt>
      <trkpt lat="44.09763" lon="6.00438">
        <ele>488</ele>
        <time>2009-07-05T09:18:10Z</time>
      </trkpt>
      <trkpt lat="44.09787" lon="6.0051">
        <ele>489</ele>
        <time>2009-07-05T09:18:28Z</time>
      </trkpt>
      <trkpt lat="44.09805" lon="6.0056">
        <ele>489</ele>
        <time>2009-07-05T09:18:42Z</time>
      </trkpt>
      <trkpt lat="44.09833" lon="6.00617">
        <ele>490</ele>
        <time>2009-07-05T09:18:57Z</time>
      </trkpt>
      <trkpt lat="44.09868" lon="6.00677">
        <ele>488</ele>
        <time>2009-07-05T09:19:13Z</time>
      </trkpt>
      <trkpt lat="44.09885" lon="6.00695">
        <ele>488</ele>
        <time>2009-07-05T09:19:19Z</time>
      </trkpt>
      <trkpt lat="44.09915" lon="6.00687">
        <ele>484</ele>
        <time>2009-07-05T09:19:25Z</time>
      </trkpt>
      <trkpt lat="44.09918" lon="6.00685">
        <ele>483</ele>
        <time>2009-07-05T09:19:26Z</time>
      </trkpt>
      <trkpt lat="44.09933" lon="6.00677">
        <ele>481</ele>
        <time>2009-07-05T09:19:29Z</time>
      </trkpt>
      <trkpt lat="44.09945" lon="6.00673">
        <ele>479</ele>
        <time>2009-07-05T09:19:31Z</time>
      </trkpt>
      <trkpt lat="44.09975" lon="6.0068">
        <ele>475</ele>
        <time>2009-07-05T09:19:37Z</time>
      </trkpt>
      <trkpt lat="44.09993" lon="6.00683">
        <ele>471</ele>
        <time>2009-07-05T09:19:41Z</time>
      </trkpt>
      <trkpt lat="44.10013" lon="6.00687">
        <ele>469</ele>
        <time>2009-07-05T09:19:45Z</time>
      </trkpt>
      <trkpt lat="44.10012" lon="6.00697">
        <ele>467</ele>
        <time>2009-07-05T09:19:51Z</time>
      </trkpt>
      <trkpt lat="44.09973" lon="6.00722">
        <ele>464</ele>
        <time>2009-07-05T09:20:01Z</time>
      </trkpt>
      <trkpt lat="44.09912" lon="6.00787">
        <ele>462</ele>
        <time>2009-07-05T09:20:11Z</time>
      </trkpt>
      <trkpt lat="44.09902" lon="6.00797">
        <ele>461</ele>
        <time>2009-07-05T09:20:14Z</time>
      </trkpt>
      <trkpt lat="44.09878" lon="6.0083">
        <ele>458</ele>
        <time>2009-07-05T09:20:20Z</time>
      </trkpt>
      <trkpt lat="44.09863" lon="6.00858">
        <ele>455</ele>
        <time>2009-07-05T09:20:26Z</time>
      </trkpt>
      <trkpt lat="44.09867" lon="6.00862">
        <ele>455</ele>
        <time>2009-07-05T09:20:27Z</time>
      </trkpt>
      <trkpt lat="44.09885" lon="6.00915">
        <ele>451</ele>
        <time>2009-07-05T09:20:34Z</time>
      </trkpt>
      <trkpt lat="44.09883" lon="6.00935">
        <ele>450</ele>
        <time>2009-07-05T09:20:36Z</time>
      </trkpt>
      <trkpt lat="44.09875" lon="6.0096">
        <ele>448</ele>
        <time>2009-07-05T09:20:39Z</time>
      </trkpt>
      <trkpt lat="44.09867" lon="6.00975">
        <ele>448</ele>
        <time>2009-07-05T09:20:41Z</time>
      </trkpt>
      <trkpt lat="44.09867" lon="6.01022">
        <ele>447</ele>
        <time>2009-07-05T09:20:49Z</time>
      </trkpt>
      <trkpt lat="44.0987" lon="6.01025">
        <ele>447</ele>
        <time>2009-07-05T09:20:52Z</time>
      </trkpt>
      <trkpt lat="44.09902" lon="6.01022">
        <ele>447</ele>
        <time>2009-07-05T09:21:08Z</time>
      </trkpt>
      <trkpt lat="44.0993" lon="6.01012">
        <ele>447</ele>
        <time>2009-07-05T09:21:21Z</time>
      </trkpt>
      <trkpt lat="44.0997" lon="6.00997">
        <ele>448</ele>
        <time>2009-07-05T09:21:33Z</time>
      </trkpt>
      <trkpt lat="44.1003" lon="6.00965">
        <ele>448</ele>
        <time>2009-07-05T09:21:50Z</time>
      </trkpt>
      <trkpt lat="44.10078" lon="6.00932">
        <ele>448</ele>
        <time>2009-07-05T09:22:04Z</time>
      </trkpt>
      <trkpt lat="44.10138" lon="6.00888">
        <ele>448</ele>
        <time>2009-07-05T09:22:20Z</time>
      </trkpt>
      <trkpt lat="44.10155" lon="6.0088">
        <ele>448</ele>
        <time>2009-07-05T09:22:25Z</time>
      </trkpt>
      <trkpt lat="44.1016" lon="6.00902">
        <ele>448</ele>
        <time>2009-07-05T09:22:34Z</time>
      </trkpt>
      <trkpt lat="44.1016" lon="6.00905">
        <ele>448</ele>
        <time>2009-07-05T09:22:41Z</time>
      </trkpt>
      <trkpt lat="44.10155" lon="6.00908">
        <ele>448</ele>
        <time>2009-07-05T09:22:45Z</time>
      </trkpt>
      <trkpt lat="44.10152" lon="6.00912">
        <ele>448</ele>
        <time>2009-07-05T09:22:55Z</time>
      </trkpt>
      <trkpt lat="44.10152" lon="6.00917">
        <ele>448</ele>
        <time>2009-07-05T09:22:57Z</time>
      </trkpt>
      <trkpt lat="44.10172" lon="6.00935">
        <ele>448</ele>
        <time>2009-07-05T09:23:06Z</time>
      </trkpt>
      <trkpt lat="44.10162" lon="6.00972">
        <ele>447</ele>
        <time>2009-07-05T09:23:15Z</time>
      </trkpt>
      <trkpt lat="44.10158" lon="6.00975">
        <ele>447</ele>
        <time>2009-07-05T09:23:16Z</time>
      </trkpt>
      <trkpt lat="44.10097" lon="6.01033">
        <ele>447</ele>
        <time>2009-07-05T09:23:33Z</time>
      </trkpt>
      <trkpt lat="44.10053" lon="6.01075">
        <ele>447</ele>
        <time>2009-07-05T09:23:46Z</time>
      </trkpt>
      <trkpt lat="44.10055" lon="6.01093">
        <ele>447</ele>
        <time>2009-07-05T09:23:50Z</time>
      </trkpt>
      <trkpt lat="44.10077" lon="6.01127">
        <ele>447</ele>
        <time>2009-07-05T09:23:58Z</time>
      </trkpt>
      <trkpt lat="44.1009" lon="6.0114">
        <ele>447</ele>
        <time>2009-07-05T09:24:02Z</time>
      </trkpt>
      <trkpt lat="44.10117" lon="6.01133">
        <ele>447</ele>
        <time>2009-07-05T09:24:08Z</time>
      </trkpt>
      <trkpt lat="44.10175" lon="6.01082">
        <ele>447</ele>
        <time>2009-07-05T09:24:22Z</time>
      </trkpt>
      <trkpt lat="44.1022" lon="6.01042">
        <ele>447</ele>
        <time>2009-07-05T09:24:33Z</time>
      </trkpt>
      <trkpt lat="44.10238" lon="6.01035">
        <ele>447</ele>
        <time>2009-07-05T09:24:38Z</time>
      </trkpt>
      <trkpt lat="44.10278" lon="6.01005">
        <ele>444</ele>
        <time>2009-07-05T09:24:50Z</time>
      </trkpt>
      <trkpt lat="44.10292" lon="6.01">
        <ele>441</ele>
        <time>2009-07-05T09:24:53Z</time>
      </trkpt>
      <trkpt lat="44.10315" lon="6.0096">
        <ele>441</ele>
        <time>2009-07-05T09:25:00Z</time>
      </trkpt>
      <trkpt lat="44.10348" lon="6.00895">
        <ele>441</ele>
        <time>2009-07-05T09:25:12Z</time>
      </trkpt>
      <trkpt lat="44.10397" lon="6.00838">
        <ele>441</ele>
        <time>2009-07-05T09:25:26Z</time>
      </trkpt>
      <trkpt lat="44.1042" lon="6.00818">
        <ele>441</ele>
        <time>2009-07-05T09:25:32Z</time>
      </trkpt>
      <trkpt lat="44.10432" lon="6.00808">
        <ele>441</ele>
        <time>2009-07-05T09:25:35Z</time>
      </trkpt>
      <trkpt lat="44.10477" lon="6.00785">
        <ele>441</ele>
        <time>2009-07-05T09:25:46Z</time>
      </trkpt>
      <trkpt lat="44.10523" lon="6.00762">
        <ele>441</ele>
        <time>2009-07-05T09:25:58Z</time>
      </trkpt>
      <trkpt lat="44.10578" lon="6.00737">
        <ele>441</ele>
        <time>2009-07-05T09:26:09Z</time>
      </trkpt>
      <trkpt lat="44.10622" lon="6.00718">
        <ele>441</ele>
        <time>2009-07-05T09:26:18Z</time>
      </trkpt>
      <trkpt lat="44.10692" lon="6.0068">
        <ele>441</ele>
        <time>2009-07-05T09:26:34Z</time>
      </trkpt>
      <trkpt lat="44.10757" lon="6.00653">
        <ele>442</ele>
        <time>2009-07-05T09:26:49Z</time>
      </trkpt>
      <trkpt lat="44.10777" lon="6.00637">
        <ele>443</ele>
        <time>2009-07-05T09:26:57Z</time>
      </trkpt>
      <trkpt lat="44.10787" lon="6.00647">
        <ele>443</ele>
        <time>2009-07-05T09:27:01Z</time>
      </trkpt>
      <trkpt lat="44.10813" lon="6.00702">
        <ele>443</ele>
        <time>2009-07-05T09:27:15Z</time>
      </trkpt>
      <trkpt lat="44.10817" lon="6.00707">
        <ele>443</ele>
        <time>2009-07-05T09:27:17Z</time>
      </trkpt>
      <trkpt lat="44.1082" lon="6.00712">
        <ele>444</ele>
        <time>2009-07-05T09:27:37Z</time>
      </trkpt>
      <trkpt lat="44.10828" lon="6.00728">
        <ele>444</ele>
        <time>2009-07-05T09:27:52Z</time>
      </trkpt>
      <trkpt lat="44.1084" lon="6.00755">
        <ele>445</ele>
        <time>2009-07-05T09:28:50Z</time>
      </trkpt>
      <trkpt lat="44.10872" lon="6.00808">
        <ele>446</ele>
        <time>2009-07-05T09:29:04Z</time>
      </trkpt>
      <trkpt lat="44.109" lon="6.00853">
        <ele>444</ele>
        <time>2009-07-05T09:29:16Z</time>
      </trkpt>
      <trkpt lat="44.1091" lon="6.00872">
        <ele>444</ele>
        <time>2009-07-05T09:29:20Z</time>
      </trkpt>
      <trkpt lat="44.10967" lon="6.00972">
        <ele>441</ele>
        <time>2009-07-05T09:29:37Z</time>
      </trkpt>
      <trkpt lat="44.10977" lon="6.00993">
        <ele>441</ele>
        <time>2009-07-05T09:29:42Z</time>
      </trkpt>
      <trkpt lat="44.10972" lon="6.01">
        <ele>441</ele>
        <time>2009-07-05T09:29:55Z</time>
      </trkpt>
      <trkpt lat="44.10952" lon="6.01025">
        <ele>441</ele>
        <time>2009-07-05T09:31:11Z</time>
      </trkpt>
      <trkpt lat="44.10927" lon="6.01058">
        <ele>441</ele>
        <time>2009-07-05T09:31:20Z</time>
      </trkpt>
      <trkpt lat="44.10903" lon="6.01053">
        <ele>440</ele>
        <time>2009-07-05T09:31:29Z</time>
      </trkpt>
      <trkpt lat="44.1087" lon="6.00992">
        <ele>440</ele>
        <time>2009-07-05T09:31:43Z</time>
      </trkpt>
      <trkpt lat="44.10835" lon="6.00988">
        <ele>440</ele>
        <time>2009-07-05T09:31:54Z</time>
      </trkpt>
      <trkpt lat="44.108" lon="6.01045">
        <ele>440</ele>
        <time>2009-07-05T09:32:08Z</time>
      </trkpt>
      <trkpt lat="44.10777" lon="6.01113">
        <ele>440</ele>
        <time>2009-07-05T09:32:23Z</time>
      </trkpt>
      <trkpt lat="44.10735" lon="6.01153">
        <ele>440</ele>
        <time>2009-07-05T09:32:37Z</time>
      </trkpt>
      <trkpt lat="44.1072" lon="6.0116">
        <ele>440</ele>
        <time>2009-07-05T09:32:41Z</time>
      </trkpt>
      <trkpt lat="44.10698" lon="6.01175">
        <ele>440</ele>
        <time>2009-07-05T09:32:47Z</time>
      </trkpt>
      <trkpt lat="44.10687" lon="6.01183">
        <ele>440</ele>
        <time>2009-07-05T09:32:50Z</time>
      </trkpt>
      <trkpt lat="44.10653" lon="6.01207">
        <ele>440</ele>
        <time>2009-07-05T09:33:02Z</time>
      </trkpt>
      <trkpt lat="44.10648" lon="6.0121">
        <ele>440</ele>
        <time>2009-07-05T09:33:04Z</time>
      </trkpt>
      <trkpt lat="44.10637" lon="6.01213">
        <ele>440</ele>
        <time>2009-07-05T09:33:07Z</time>
      </trkpt>
      <trkpt lat="44.1062" lon="6.01225">
        <ele>440</ele>
        <time>2009-07-05T09:33:11Z</time>
      </trkpt>
      <trkpt lat="44.10615" lon="6.01247">
        <ele>440</ele>
        <time>2009-07-05T09:33:15Z</time>
      </trkpt>
      <trkpt lat="44.10617" lon="6.01275">
        <ele>441</ele>
        <time>2009-07-05T09:33:21Z</time>
      </trkpt>
      <trkpt lat="44.10605" lon="6.01278">
        <ele>441</ele>
        <time>2009-07-05T09:33:25Z</time>
      </trkpt>
      <trkpt lat="44.1056" lon="6.01295">
        <ele>440</ele>
        <time>2009-07-05T09:33:36Z</time>
      </trkpt>
      <trkpt lat="44.10548" lon="6.01297">
        <ele>441</ele>
        <time>2009-07-05T09:33:40Z</time>
      </trkpt>
      <trkpt lat="44.10538" lon="6.01293">
        <ele>441</ele>
        <time>2009-07-05T09:33:44Z</time>
      </trkpt>
      <trkpt lat="44.1053" lon="6.01297">
        <ele>441</ele>
        <time>2009-07-05T09:33:53Z</time>
      </trkpt>
      <trkpt lat="44.10512" lon="6.0131">
        <ele>440</ele>
        <time>2009-07-05T09:34:01Z</time>
      </trkpt>
      <trkpt lat="44.10473" lon="6.01352">
        <ele>440</ele>
        <time>2009-07-05T09:34:11Z</time>
      </trkpt>
      <trkpt lat="44.10447" lon="6.01378">
        <ele>440</ele>
        <time>2009-07-05T09:34:18Z</time>
      </trkpt>
      <trkpt lat="44.10388" lon="6.01445">
        <ele>440</ele>
        <time>2009-07-05T09:34:33Z</time>
      </trkpt>
      <trkpt lat="44.10355" lon="6.015">
        <ele>440</ele>
        <time>2009-07-05T09:34:43Z</time>
      </trkpt>
      <trkpt lat="44.1034" lon="6.01523">
        <ele>440</ele>
        <time>2009-07-05T09:34:47Z</time>
      </trkpt>
      <trkpt lat="44.10333" lon="6.01542">
        <ele>440</ele>
        <time>2009-07-05T09:34:50Z</time>
      </trkpt>
      <trkpt lat="44.10303" lon="6.01618">
        <ele>440</ele>
        <time>2009-07-05T09:35:04Z</time>
      </trkpt>
      <trkpt lat="44.10275" lon="6.01678">
        <ele>440</ele>
        <time>2009-07-05T09:35:18Z</time>
      </trkpt>
      <trkpt lat="44.10278" lon="6.01712">
        <ele>441</ele>
        <time>2009-07-05T09:35:24Z</time>
      </trkpt>
      <trkpt lat="44.10287" lon="6.01748">
        <ele>441</ele>
        <time>2009-07-05T09:35:31Z</time>
      </trkpt>
      <trkpt lat="44.1029" lon="6.01767">
        <ele>441</ele>
        <time>2009-07-05T09:35:36Z</time>
      </trkpt>
      <trkpt lat="44.10288" lon="6.018">
        <ele>440</ele>
        <time>2009-07-05T09:35:50Z</time>
      </trkpt>
      <trkpt lat="44.10287" lon="6.01805">
        <ele>440</ele>
        <time>2009-07-05T09:36:03Z</time>
      </trkpt>
      <trkpt lat="44.10292" lon="6.01865">
        <ele>440</ele>
        <time>2009-07-05T09:36:16Z</time>
      </trkpt>
      <trkpt lat="44.10297" lon="6.01892">
        <ele>440</ele>
        <time>2009-07-05T09:36:21Z</time>
      </trkpt>
      <trkpt lat="44.10305" lon="6.0193">
        <ele>440</ele>
        <time>2009-07-05T09:36:28Z</time>
      </trkpt>
      <trkpt lat="44.10297" lon="6.01952">
        <ele>440</ele>
        <time>2009-07-05T09:36:31Z</time>
      </trkpt>
      <trkpt lat="44.10288" lon="6.01977">
        <ele>440</ele>
        <time>2009-07-05T09:36:34Z</time>
      </trkpt>
      <trkpt lat="44.10272" lon="6.02017">
        <ele>440</ele>
        <time>2009-07-05T09:36:39Z</time>
      </trkpt>
      <trkpt lat="44.10265" lon="6.02038">
        <ele>440</ele>
        <time>2009-07-05T09:36:42Z</time>
      </trkpt>
      <trkpt lat="44.10255" lon="6.0208">
        <ele>440</ele>
        <time>2009-07-05T09:36:47Z</time>
      </trkpt>
      <trkpt lat="44.1025" lon="6.02145">
        <ele>440</ele>
        <time>2009-07-05T09:36:54Z</time>
      </trkpt>
      <trkpt lat="44.10242" lon="6.02182">
        <ele>440</ele>
        <time>2009-07-05T09:36:59Z</time>
      </trkpt>
      <trkpt lat="44.1023" lon="6.0221">
        <ele>440</ele>
        <time>2009-07-05T09:37:03Z</time>
      </trkpt>
      <trkpt lat="44.10217" lon="6.02255">
        <ele>440</ele>
        <time>2009-07-05T09:37:09Z</time>
      </trkpt>
      <trkpt lat="44.10198" lon="6.02297">
        <ele>440</ele>
        <time>2009-07-05T09:37:15Z</time>
      </trkpt>
      <trkpt lat="44.10175" lon="6.02307">
        <ele>439</ele>
        <time>2009-07-05T09:37:21Z</time>
      </trkpt>
      <trkpt lat="44.10133" lon="6.02282">
        <ele>439</ele>
        <time>2009-07-05T09:37:30Z</time>
      </trkpt>
      <trkpt lat="44.10118" lon="6.02283">
        <ele>440</ele>
        <time>2009-07-05T09:37:34Z</time>
      </trkpt>
      <trkpt lat="44.10117" lon="6.02292">
        <ele>439</ele>
        <time>2009-07-05T09:37:38Z</time>
      </trkpt>
      <trkpt lat="44.10115" lon="6.02298">
        <ele>439</ele>
        <time>2009-07-05T09:37:49Z</time>
      </trkpt>
      <trkpt lat="44.10122" lon="6.0231">
        <ele>439</ele>
        <time>2009-07-05T09:37:53Z</time>
      </trkpt>
      <trkpt lat="44.10132" lon="6.02345">
        <ele>439</ele>
        <time>2009-07-05T09:38:00Z</time>
      </trkpt>
      <trkpt lat="44.10147" lon="6.02357">
        <ele>439</ele>
        <time>2009-07-05T09:38:04Z</time>
      </trkpt>
      <trkpt lat="44.10155" lon="6.02365">
        <ele>439</ele>
        <time>2009-07-05T09:38:06Z</time>
      </trkpt>
      <trkpt lat="44.10175" lon="6.02392">
        <ele>440</ele>
        <time>2009-07-05T09:38:12Z</time>
      </trkpt>
      <trkpt lat="44.10183" lon="6.02398">
        <ele>440</ele>
        <time>2009-07-05T09:38:14Z</time>
      </trkpt>
      <trkpt lat="44.10215" lon="6.02435">
        <ele>443</ele>
        <time>2009-07-05T09:38:25Z</time>
      </trkpt>
      <trkpt lat="44.10217" lon="6.02438">
        <ele>443</ele>
        <time>2009-07-05T09:38:26Z</time>
      </trkpt>
      <trkpt lat="44.10213" lon="6.02447">
        <ele>445</ele>
        <time>2009-07-05T09:38:33Z</time>
      </trkpt>
      <trkpt lat="44.1021" lon="6.02443">
        <ele>445</ele>
        <time>2009-07-05T09:38:34Z</time>
      </trkpt>
      <trkpt lat="44.10203" lon="6.02435">
        <ele>446</ele>
        <time>2009-07-05T09:38:36Z</time>
      </trkpt>
      <trkpt lat="44.10183" lon="6.02428">
        <ele>446</ele>
        <time>2009-07-05T09:38:40Z</time>
      </trkpt>
      <trkpt lat="44.10162" lon="6.02417">
        <ele>445</ele>
        <time>2009-07-05T09:38:45Z</time>
      </trkpt>
      <trkpt lat="44.1011" lon="6.02378">
        <ele>445</ele>
        <time>2009-07-05T09:38:55Z</time>
      </trkpt>
      <trkpt lat="44.10067" lon="6.02338">
        <ele>445</ele>
        <time>2009-07-05T09:39:04Z</time>
      </trkpt>
      <trkpt lat="44.10033" lon="6.02337">
        <ele>446</ele>
        <time>2009-07-05T09:39:11Z</time>
      </trkpt>
      <trkpt lat="44.10013" lon="6.02353">
        <ele>445</ele>
        <time>2009-07-05T09:39:15Z</time>
      </trkpt>
      <trkpt lat="44.09987" lon="6.02383">
        <ele>443</ele>
        <time>2009-07-05T09:39:20Z</time>
      </trkpt>
      <trkpt lat="44.09968" lon="6.02395">
        <ele>443</ele>
        <time>2009-07-05T09:39:23Z</time>
      </trkpt>
      <trkpt lat="44.09927" lon="6.02412">
        <ele>441</ele>
        <time>2009-07-05T09:39:29Z</time>
      </trkpt>
      <trkpt lat="44.09892" lon="6.02415">
        <ele>441</ele>
        <time>2009-07-05T09:39:34Z</time>
      </trkpt>
      <trkpt lat="44.09872" lon="6.0241">
        <ele>441</ele>
        <time>2009-07-05T09:39:37Z</time>
      </trkpt>
      <trkpt lat="44.09858" lon="6.02408">
        <ele>440</ele>
        <time>2009-07-05T09:39:39Z</time>
      </trkpt>
      <trkpt lat="44.09815" lon="6.02417">
        <ele>440</ele>
        <time>2009-07-05T09:39:45Z</time>
      </trkpt>
      <trkpt lat="44.09787" lon="6.02418">
        <ele>440</ele>
        <time>2009-07-05T09:39:49Z</time>
      </trkpt>
      <trkpt lat="44.09775" lon="6.02417">
        <ele>441</ele>
        <time>2009-07-05T09:39:51Z</time>
      </trkpt>
      <trkpt lat="44.09733" lon="6.02403">
        <ele>441</ele>
        <time>2009-07-05T09:39:59Z</time>
      </trkpt>
      <trkpt lat="44.09717" lon="6.02403">
        <ele>441</ele>
        <time>2009-07-05T09:40:02Z</time>
      </trkpt>
      <trkpt lat="44.09698" lon="6.0241">
        <ele>440</ele>
        <time>2009-07-05T09:40:05Z</time>
      </trkpt>
      <trkpt lat="44.09675" lon="6.02408">
        <ele>440</ele>
        <time>2009-07-05T09:40:09Z</time>
      </trkpt>
      <trkpt lat="44.09575" lon="6.02345">
        <ele>442</ele>
        <time>2009-07-05T09:40:25Z</time>
      </trkpt>
      <trkpt lat="44.09512" lon="6.02318">
        <ele>442</ele>
        <time>2009-07-05T09:40:35Z</time>
      </trkpt>
      <trkpt lat="44.09488" lon="6.02315">
        <ele>442</ele>
        <time>2009-07-05T09:40:39Z</time>
      </trkpt>
      <trkpt lat="44.09437" lon="6.02303">
        <ele>442</ele>
        <time>2009-07-05T09:40:49Z</time>
      </trkpt>
      <trkpt lat="44.09358" lon="6.02238">
        <ele>443</ele>
        <time>2009-07-05T09:41:04Z</time>
      </trkpt>
      <trkpt lat="44.09335" lon="6.0223">
        <ele>441</ele>
        <time>2009-07-05T09:41:09Z</time>
      </trkpt>
      <trkpt lat="44.09325" lon="6.02223">
        <ele>440</ele>
        <time>2009-07-05T09:41:11Z</time>
      </trkpt>
      <trkpt lat="44.0931" lon="6.02195">
        <ele>439</ele>
        <time>2009-07-05T09:41:15Z</time>
      </trkpt>
      <trkpt lat="44.09305" lon="6.0218">
        <ele>439</ele>
        <time>2009-07-05T09:41:17Z</time>
      </trkpt>
      <trkpt lat="44.0925" lon="6.0215">
        <ele>439</ele>
        <time>2009-07-05T09:41:27Z</time>
      </trkpt>
      <trkpt lat="44.09245" lon="6.02148">
        <ele>439</ele>
        <time>2009-07-05T09:41:28Z</time>
      </trkpt>
      <trkpt lat="44.09225" lon="6.02165">
        <ele>440</ele>
        <time>2009-07-05T09:41:33Z</time>
      </trkpt>
      <trkpt lat="44.0919" lon="6.0219">
        <ele>441</ele>
        <time>2009-07-05T09:41:44Z</time>
      </trkpt>
      <trkpt lat="44.09148" lon="6.02188">
        <ele>440</ele>
        <time>2009-07-05T09:41:55Z</time>
      </trkpt>
      <trkpt lat="44.09065" lon="6.02178">
        <ele>439</ele>
        <time>2009-07-05T09:42:11Z</time>
      </trkpt>
      <trkpt lat="44.08997" lon="6.0215">
        <ele>439</ele>
        <time>2009-07-05T09:42:26Z</time>
      </trkpt>
      <trkpt lat="44.0894" lon="6.02127">
        <ele>439</ele>
        <time>2009-07-05T09:42:39Z</time>
      </trkpt>
      <trkpt lat="44.08872" lon="6.02112">
        <ele>439</ele>
        <time>2009-07-05T09:42:54Z</time>
      </trkpt>
      <trkpt lat="44.08833" lon="6.02113">
        <ele>440</ele>
        <time>2009-07-05T09:43:07Z</time>
      </trkpt>
      <trkpt lat="44.08818" lon="6.02122">
        <ele>440</ele>
        <time>2009-07-05T09:43:22Z</time>
      </trkpt>
      <trkpt lat="44.08817" lon="6.02122">
        <ele>441</ele>
        <time>2009-07-05T09:47:54Z</time>
      </trkpt>
      <trkpt lat="44.08805" lon="6.02123">
        <ele>442</ele>
        <time>2009-07-05T09:47:59Z</time>
      </trkpt>
      <trkpt lat="44.08747" lon="6.02127">
        <ele>445</ele>
        <time>2009-07-05T09:48:16Z</time>
      </trkpt>
      <trkpt lat="44.08697" lon="6.02128">
        <ele>447</ele>
        <time>2009-07-05T09:48:29Z</time>
      </trkpt>
      <trkpt lat="44.08628" lon="6.02132">
        <ele>447</ele>
        <time>2009-07-05T09:48:45Z</time>
      </trkpt>
      <trkpt lat="44.0856" lon="6.02137">
        <ele>446</ele>
        <time>2009-07-05T09:48:58Z</time>
      </trkpt>
      <trkpt lat="44.08555" lon="6.02137">
        <ele>446</ele>
        <time>2009-07-05T09:48:59Z</time>
      </trkpt>
      <trkpt lat="44.08523" lon="6.02133">
        <ele>446</ele>
        <time>2009-07-05T09:49:11Z</time>
      </trkpt>
      <trkpt lat="44.08517" lon="6.02133">
        <ele>447</ele>
        <time>2009-07-05T09:49:14Z</time>
      </trkpt>
      <trkpt lat="44.08493" lon="6.0213">
        <ele>447</ele>
        <time>2009-07-05T09:49:19Z</time>
      </trkpt>
      <trkpt lat="44.0848" lon="6.02128">
        <ele>447</ele>
        <time>2009-07-05T09:49:22Z</time>
      </trkpt>
      <trkpt lat="44.08443" lon="6.0214">
        <ele>446</ele>
        <time>2009-07-05T09:49:29Z</time>
      </trkpt>
      <trkpt lat="44.08382" lon="6.02153">
        <ele>445</ele>
        <time>2009-07-05T09:49:39Z</time>
      </trkpt>
      <trkpt lat="44.08323" lon="6.02155">
        <ele>446</ele>
        <time>2009-07-05T09:49:49Z</time>
      </trkpt>
      <trkpt lat="44.08298" lon="6.02153">
        <ele>447</ele>
        <time>2009-07-05T09:49:54Z</time>
      </trkpt>
      <trkpt lat="44.08277" lon="6.02147">
        <ele>448</ele>
        <time>2009-07-05T09:49:59Z</time>
      </trkpt>
      <trkpt lat="44.08205" lon="6.02135">
        <ele>448</ele>
        <time>2009-07-05T09:50:12Z</time>
      </trkpt>
      <trkpt lat="44.08148" lon="6.02142">
        <ele>451</ele>
        <time>2009-07-05T09:50:24Z</time>
      </trkpt>
      <trkpt lat="44.08095" lon="6.02148">
        <ele>454</ele>
        <time>2009-07-05T09:50:37Z</time>
      </trkpt>
      <trkpt lat="44.08055" lon="6.02175">
        <ele>456</ele>
        <time>2009-07-05T09:50:49Z</time>
      </trkpt>
      <trkpt lat="44.08025" lon="6.02228">
        <ele>459</ele>
        <time>2009-07-05T09:51:03Z</time>
      </trkpt>
      <trkpt lat="44.08002" lon="6.02272">
        <ele>461</ele>
        <time>2009-07-05T09:51:16Z</time>
      </trkpt>
      <trkpt lat="44.07982" lon="6.02308">
        <ele>463</ele>
        <time>2009-07-05T09:51:29Z</time>
      </trkpt>
      <trkpt lat="44.07962" lon="6.02345">
        <ele>466</ele>
        <time>2009-07-05T09:51:43Z</time>
      </trkpt>
      <trkpt lat="44.07945" lon="6.02375">
        <ele>468</ele>
        <time>2009-07-05T09:51:57Z</time>
      </trkpt>
      <trkpt lat="44.07928" lon="6.0242">
        <ele>470</ele>
        <time>2009-07-05T09:52:10Z</time>
      </trkpt>
      <trkpt lat="44.07912" lon="6.02462">
        <ele>472</ele>
        <time>2009-07-05T09:52:24Z</time>
      </trkpt>
      <trkpt lat="44.07883" lon="6.02512">
        <ele>473</ele>
        <time>2009-07-05T09:52:40Z</time>
      </trkpt>
      <trkpt lat="44.07852" lon="6.0257">
        <ele>475</ele>
        <time>2009-07-05T09:52:57Z</time>
      </trkpt>
      <trkpt lat="44.0784" lon="6.02615">
        <ele>476</ele>
        <time>2009-07-05T09:53:10Z</time>
      </trkpt>
      <trkpt lat="44.07853" lon="6.02658">
        <ele>478</ele>
        <time>2009-07-05T09:53:24Z</time>
      </trkpt>
      <trkpt lat="44.07858" lon="6.02673">
        <ele>479</ele>
        <time>2009-07-05T09:53:36Z</time>
      </trkpt>
      <trkpt lat="44.07873" lon="6.02728">
        <ele>481</ele>
        <time>2009-07-05T09:53:50Z</time>
      </trkpt>
      <trkpt lat="44.07883" lon="6.02767">
        <ele>483</ele>
        <time>2009-07-05T09:54:02Z</time>
      </trkpt>
      <trkpt lat="44.07885" lon="6.02792">
        <ele>484</ele>
        <time>2009-07-05T09:54:10Z</time>
      </trkpt>
      <trkpt lat="44.07887" lon="6.02835">
        <ele>488</ele>
        <time>2009-07-05T09:54:24Z</time>
      </trkpt>
      <trkpt lat="44.07903" lon="6.02872">
        <ele>488</ele>
        <time>2009-07-05T09:54:37Z</time>
      </trkpt>
      <trkpt lat="44.07898" lon="6.02883">
        <ele>489</ele>
        <time>2009-07-05T09:54:41Z</time>
      </trkpt>
      <trkpt lat="44.07892" lon="6.0291">
        <ele>491</ele>
        <time>2009-07-05T09:54:52Z</time>
      </trkpt>
      <trkpt lat="44.07887" lon="6.02925">
        <ele>492</ele>
        <time>2009-07-05T09:54:58Z</time>
      </trkpt>
      <trkpt lat="44.07868" lon="6.02957">
        <ele>495</ele>
        <time>2009-07-05T09:55:12Z</time>
      </trkpt>
      <trkpt lat="44.07867" lon="6.02967">
        <ele>495</ele>
        <time>2009-07-05T09:55:16Z</time>
      </trkpt>
      <trkpt lat="44.07855" lon="6.02988">
        <ele>497</ele>
        <time>2009-07-05T09:55:26Z</time>
      </trkpt>
      <trkpt lat="44.07858" lon="6.02998">
        <ele>498</ele>
        <time>2009-07-05T09:55:31Z</time>
      </trkpt>
      <trkpt lat="44.07858" lon="6.03003">
        <ele>498</ele>
        <time>2009-07-05T09:55:33Z</time>
      </trkpt>
      <trkpt lat="44.07857" lon="6.0301">
        <ele>499</ele>
        <time>2009-07-05T09:55:35Z</time>
      </trkpt>
      <trkpt lat="44.07848" lon="6.03045">
        <ele>500</ele>
        <time>2009-07-05T09:55:45Z</time>
      </trkpt>
      <trkpt lat="44.07847" lon="6.03082">
        <ele>502</ele>
        <time>2009-07-05T09:56:03Z</time>
      </trkpt>
      <trkpt lat="44.07843" lon="6.03113">
        <ele>504</ele>
        <time>2009-07-05T09:56:16Z</time>
      </trkpt>
      <trkpt lat="44.07842" lon="6.03117">
        <ele>504</ele>
        <time>2009-07-05T09:56:18Z</time>
      </trkpt>
      <trkpt lat="44.0784" lon="6.03133">
        <ele>505</ele>
        <time>2009-07-05T09:56:26Z</time>
      </trkpt>
      <trkpt lat="44.07838" lon="6.03158">
        <ele>507</ele>
        <time>2009-07-05T09:56:35Z</time>
      </trkpt>
      <trkpt lat="44.07837" lon="6.03168">
        <ele>508</ele>
        <time>2009-07-05T09:56:39Z</time>
      </trkpt>
      <trkpt lat="44.07812" lon="6.03213">
        <ele>510</ele>
        <time>2009-07-05T09:56:55Z</time>
      </trkpt>
      <trkpt lat="44.0779" lon="6.0324">
        <ele>512</ele>
        <time>2009-07-05T09:57:10Z</time>
      </trkpt>
      <trkpt lat="44.0777" lon="6.03255">
        <ele>514</ele>
        <time>2009-07-05T09:57:24Z</time>
      </trkpt>
      <trkpt lat="44.07745" lon="6.03277">
        <ele>516</ele>
        <time>2009-07-05T09:57:40Z</time>
      </trkpt>
      <trkpt lat="44.07727" lon="6.03288">
        <ele>519</ele>
        <time>2009-07-05T09:57:54Z</time>
      </trkpt>
      <trkpt lat="44.07702" lon="6.03303">
        <ele>521</ele>
        <time>2009-07-05T09:58:09Z</time>
      </trkpt>
      <trkpt lat="44.07677" lon="6.03318">
        <ele>524</ele>
        <time>2009-07-05T09:58:24Z</time>
      </trkpt>
      <trkpt lat="44.07653" lon="6.03323">
        <ele>526</ele>
        <time>2009-07-05T09:58:38Z</time>
      </trkpt>
      <trkpt lat="44.07628" lon="6.03323">
        <ele>528</ele>
        <time>2009-07-05T09:58:53Z</time>
      </trkpt>
      <trkpt lat="44.07607" lon="6.03323">
        <ele>531</ele>
        <time>2009-07-05T09:59:07Z</time>
      </trkpt>
      <trkpt lat="44.07585" lon="6.03327">
        <ele>534</ele>
        <time>2009-07-05T09:59:20Z</time>
      </trkpt>
      <trkpt lat="44.07573" lon="6.03325">
        <ele>535</ele>
        <time>2009-07-05T09:59:29Z</time>
      </trkpt>
      <trkpt lat="44.07567" lon="6.03328">
        <ele>536</ele>
        <time>2009-07-05T09:59:33Z</time>
      </trkpt>
      <trkpt lat="44.07547" lon="6.03347">
        <ele>538</ele>
        <time>2009-07-05T09:59:46Z</time>
      </trkpt>
      <trkpt lat="44.07538" lon="6.0336">
        <ele>540</ele>
        <time>2009-07-05T09:59:55Z</time>
      </trkpt>
      <trkpt lat="44.07532" lon="6.03382">
        <ele>542</ele>
        <time>2009-07-05T10:00:07Z</time>
      </trkpt>
      <trkpt lat="44.07515" lon="6.03398">
        <ele>544</ele>
        <time>2009-07-05T10:00:21Z</time>
      </trkpt>
      <trkpt lat="44.07513" lon="6.03398">
        <ele>544</ele>
        <time>2009-07-05T10:00:22Z</time>
      </trkpt>
      <trkpt lat="44.07495" lon="6.0342">
        <ele>547</ele>
        <time>2009-07-05T10:00:35Z</time>
      </trkpt>
      <trkpt lat="44.0748" lon="6.03457">
        <ele>550</ele>
        <time>2009-07-05T10:00:49Z</time>
      </trkpt>
      <trkpt lat="44.07473" lon="6.03497">
        <ele>553</ele>
        <time>2009-07-05T10:01:04Z</time>
      </trkpt>
      <trkpt lat="44.07472" lon="6.03508">
        <ele>554</ele>
        <time>2009-07-05T10:01:09Z</time>
      </trkpt>
      <trkpt lat="44.07463" lon="6.03532">
        <ele>556</ele>
        <time>2009-07-05T10:01:20Z</time>
      </trkpt>
      <trkpt lat="44.07458" lon="6.03543">
        <ele>558</ele>
        <time>2009-07-05T10:01:28Z</time>
      </trkpt>
      <trkpt lat="44.07455" lon="6.0355">
        <ele>559</ele>
        <time>2009-07-05T10:01:32Z</time>
      </trkpt>
      <trkpt lat="44.07452" lon="6.03567">
        <ele>560</ele>
        <time>2009-07-05T10:01:41Z</time>
      </trkpt>
      <trkpt lat="44.07447" lon="6.03593">
        <ele>563</ele>
        <time>2009-07-05T10:01:55Z</time>
      </trkpt>
      <trkpt lat="44.07443" lon="6.03607">
        <ele>564</ele>
        <time>2009-07-05T10:02:02Z</time>
      </trkpt>
      <trkpt lat="44.07442" lon="6.03612">
        <ele>565</ele>
        <time>2009-07-05T10:02:05Z</time>
      </trkpt>
      <trkpt lat="44.07435" lon="6.03625">
        <ele>567</ele>
        <time>2009-07-05T10:02:13Z</time>
      </trkpt>
      <trkpt lat="44.07448" lon="6.0363">
        <ele>568</ele>
        <time>2009-07-05T10:02:25Z</time>
      </trkpt>
      <trkpt lat="44.07468" lon="6.03612">
        <ele>571</ele>
        <time>2009-07-05T10:02:39Z</time>
      </trkpt>
      <trkpt lat="44.07488" lon="6.03587">
        <ele>573</ele>
        <time>2009-07-05T10:02:54Z</time>
      </trkpt>
      <trkpt lat="44.07507" lon="6.03567">
        <ele>576</ele>
        <time>2009-07-05T10:03:08Z</time>
      </trkpt>
      <trkpt lat="44.0753" lon="6.03533">
        <ele>578</ele>
        <time>2009-07-05T10:03:24Z</time>
      </trkpt>
      <trkpt lat="44.07557" lon="6.03505">
        <ele>580</ele>
        <time>2009-07-05T10:03:40Z</time>
      </trkpt>
      <trkpt lat="44.07577" lon="6.03495">
        <ele>582</ele>
        <time>2009-07-05T10:03:52Z</time>
      </trkpt>
      <trkpt lat="44.07602" lon="6.03488">
        <ele>584</ele>
        <time>2009-07-05T10:04:07Z</time>
      </trkpt>
      <trkpt lat="44.07615" lon="6.03495">
        <ele>586</ele>
        <time>2009-07-05T10:04:15Z</time>
      </trkpt>
      <trkpt lat="44.07618" lon="6.03502">
        <ele>586</ele>
        <time>2009-07-05T10:04:19Z</time>
      </trkpt>
      <trkpt lat="44.07623" lon="6.0351">
        <ele>587</ele>
        <time>2009-07-05T10:04:23Z</time>
      </trkpt>
      <trkpt lat="44.07615" lon="6.03537">
        <ele>588</ele>
        <time>2009-07-05T10:04:35Z</time>
      </trkpt>
      <trkpt lat="44.07593" lon="6.03572">
        <ele>591</ele>
        <time>2009-07-05T10:04:52Z</time>
      </trkpt>
      <trkpt lat="44.07573" lon="6.0359">
        <ele>593</ele>
        <time>2009-07-05T10:05:05Z</time>
      </trkpt>
      <trkpt lat="44.07548" lon="6.03612">
        <ele>595</ele>
        <time>2009-07-05T10:05:21Z</time>
      </trkpt>
      <trkpt lat="44.07522" lon="6.03645">
        <ele>596</ele>
        <time>2009-07-05T10:05:36Z</time>
      </trkpt>
      <trkpt lat="44.07507" lon="6.03657">
        <ele>597</ele>
        <time>2009-07-05T10:05:47Z</time>
      </trkpt>
      <trkpt lat="44.07498" lon="6.03668">
        <ele>598</ele>
        <time>2009-07-05T10:05:53Z</time>
      </trkpt>
      <trkpt lat="44.07482" lon="6.03695">
        <ele>600</ele>
        <time>2009-07-05T10:06:05Z</time>
      </trkpt>
      <trkpt lat="44.07465" lon="6.03717">
        <ele>601</ele>
        <time>2009-07-05T10:06:17Z</time>
      </trkpt>
      <trkpt lat="44.07462" lon="6.03723">
        <ele>602</ele>
        <time>2009-07-05T10:06:22Z</time>
      </trkpt>
      <trkpt lat="44.0746" lon="6.03727">
        <ele>603</ele>
        <time>2009-07-05T10:06:24Z</time>
      </trkpt>
      <trkpt lat="44.0745" lon="6.0376">
        <ele>606</ele>
        <time>2009-07-05T10:06:39Z</time>
      </trkpt>
      <trkpt lat="44.07455" lon="6.03785">
        <ele>608</ele>
        <time>2009-07-05T10:06:50Z</time>
      </trkpt>
      <trkpt lat="44.07453" lon="6.03797">
        <ele>609</ele>
        <time>2009-07-05T10:06:56Z</time>
      </trkpt>
      <trkpt lat="44.0745" lon="6.03795">
        <ele>610</ele>
        <time>2009-07-05T10:07:00Z</time>
      </trkpt>
      <trkpt lat="44.0744" lon="6.0379">
        <ele>611</ele>
        <time>2009-07-05T10:07:07Z</time>
      </trkpt>
      <trkpt lat="44.07425" lon="6.03773">
        <ele>613</ele>
        <time>2009-07-05T10:07:21Z</time>
      </trkpt>
      <trkpt lat="44.07415" lon="6.03777">
        <ele>613</ele>
        <time>2009-07-05T10:07:28Z</time>
      </trkpt>
      <trkpt lat="44.07412" lon="6.0378">
        <ele>614</ele>
        <time>2009-07-05T10:07:32Z</time>
      </trkpt>
      <trkpt lat="44.07408" lon="6.03783">
        <ele>614</ele>
        <time>2009-07-05T10:07:34Z</time>
      </trkpt>
      <trkpt lat="44.0739" lon="6.03802">
        <ele>617</ele>
        <time>2009-07-05T10:07:50Z</time>
      </trkpt>
      <trkpt lat="44.0738" lon="6.03815">
        <ele>619</ele>
        <time>2009-07-05T10:07:59Z</time>
      </trkpt>
      <trkpt lat="44.07372" lon="6.03827">
        <ele>620</ele>
        <time>2009-07-05T10:08:07Z</time>
      </trkpt>
      <trkpt lat="44.0736" lon="6.03848">
        <ele>623</ele>
        <time>2009-07-05T10:08:21Z</time>
      </trkpt>
      <trkpt lat="44.07358" lon="6.03852">
        <ele>623</ele>
        <time>2009-07-05T10:08:24Z</time>
      </trkpt>
      <trkpt lat="44.07338" lon="6.03873">
        <ele>625</ele>
        <time>2009-07-05T10:08:39Z</time>
      </trkpt>
      <trkpt lat="44.07318" lon="6.0388">
        <ele>627</ele>
        <time>2009-07-05T10:08:54Z</time>
      </trkpt>
      <trkpt lat="44.07293" lon="6.03897">
        <ele>629</ele>
        <time>2009-07-05T10:09:09Z</time>
      </trkpt>
      <trkpt lat="44.07282" lon="6.03912">
        <ele>630</ele>
        <time>2009-07-05T10:09:22Z</time>
      </trkpt>
      <trkpt lat="44.07263" lon="6.03935">
        <ele>632</ele>
        <time>2009-07-05T10:09:37Z</time>
      </trkpt>
      <trkpt lat="44.07252" lon="6.0396">
        <ele>633</ele>
        <time>2009-07-05T10:09:52Z</time>
      </trkpt>
      <trkpt lat="44.07245" lon="6.03983">
        <ele>635</ele>
        <time>2009-07-05T10:10:06Z</time>
      </trkpt>
      <trkpt lat="44.0723" lon="6.0401">
        <ele>636</ele>
        <time>2009-07-05T10:10:20Z</time>
      </trkpt>
      <trkpt lat="44.0722" lon="6.04012">
        <ele>636</ele>
        <time>2009-07-05T10:10:26Z</time>
      </trkpt>
      <trkpt lat="44.07215" lon="6.04018">
        <ele>637</ele>
        <time>2009-07-05T10:10:30Z</time>
      </trkpt>
      <trkpt lat="44.0721" lon="6.04035">
        <ele>637</ele>
        <time>2009-07-05T10:10:35Z</time>
      </trkpt>
      <trkpt lat="44.07208" lon="6.04045">
        <ele>637</ele>
        <time>2009-07-05T10:10:38Z</time>
      </trkpt>
      <trkpt lat="44.07223" lon="6.04068">
        <ele>638</ele>
        <time>2009-07-05T10:10:51Z</time>
      </trkpt>
      <trkpt lat="44.07218" lon="6.04103">
        <ele>639</ele>
        <time>2009-07-05T10:11:04Z</time>
      </trkpt>
      <trkpt lat="44.07197" lon="6.04135">
        <ele>640</ele>
        <time>2009-07-05T10:11:19Z</time>
      </trkpt>
      <trkpt lat="44.07183" lon="6.04188">
        <ele>640</ele>
        <time>2009-07-05T10:11:33Z</time>
      </trkpt>
      <trkpt lat="44.07172" lon="6.04243">
        <ele>640</ele>
        <time>2009-07-05T10:11:46Z</time>
      </trkpt>
      <trkpt lat="44.07192" lon="6.04265">
        <ele>640</ele>
        <time>2009-07-05T10:11:54Z</time>
      </trkpt>
      <trkpt lat="44.07203" lon="6.04258">
        <ele>639</ele>
        <time>2009-07-05T10:11:57Z</time>
      </trkpt>
      <trkpt lat="44.07212" lon="6.04252">
        <ele>639</ele>
        <time>2009-07-05T10:11:59Z</time>
      </trkpt>
      <trkpt lat="44.07247" lon="6.04223">
        <ele>641</ele>
        <time>2009-07-05T10:12:10Z</time>
      </trkpt>
      <trkpt lat="44.07292" lon="6.04195">
        <ele>641</ele>
        <time>2009-07-05T10:12:23Z</time>
      </trkpt>
      <trkpt lat="44.07332" lon="6.04165">
        <ele>640</ele>
        <time>2009-07-05T10:12:32Z</time>
      </trkpt>
      <trkpt lat="44.07357" lon="6.04157">
        <ele>640</ele>
        <time>2009-07-05T10:12:37Z</time>
      </trkpt>
      <trkpt lat="44.07378" lon="6.04168">
        <ele>641</ele>
        <time>2009-07-05T10:12:43Z</time>
      </trkpt>
      <trkpt lat="44.07403" lon="6.04227">
        <ele>644</ele>
        <time>2009-07-05T10:12:55Z</time>
      </trkpt>
      <trkpt lat="44.0741" lon="6.04262">
        <ele>646</ele>
        <time>2009-07-05T10:13:05Z</time>
      </trkpt>
      <trkpt lat="44.0742" lon="6.04282">
        <ele>648</ele>
        <time>2009-07-05T10:13:13Z</time>
      </trkpt>
      <trkpt lat="44.0741" lon="6.043">
        <ele>650</ele>
        <time>2009-07-05T10:13:23Z</time>
      </trkpt>
      <trkpt lat="44.07405" lon="6.043">
        <ele>650</ele>
        <time>2009-07-05T10:13:26Z</time>
      </trkpt>
      <trkpt lat="44.07395" lon="6.04293">
        <ele>651</ele>
        <time>2009-07-05T10:13:31Z</time>
      </trkpt>
      <trkpt lat="44.07377" lon="6.04278">
        <ele>652</ele>
        <time>2009-07-05T10:13:44Z</time>
      </trkpt>
      <trkpt lat="44.0734" lon="6.04265">
        <ele>652</ele>
        <time>2009-07-05T10:14:01Z</time>
      </trkpt>
      <trkpt lat="44.0731" lon="6.04223">
        <ele>651</ele>
        <time>2009-07-05T10:14:15Z</time>
      </trkpt>
      <trkpt lat="44.073" lon="6.04217">
        <ele>651</ele>
        <time>2009-07-05T10:14:18Z</time>
      </trkpt>
      <trkpt lat="44.0728" lon="6.04218">
        <ele>650</ele>
        <time>2009-07-05T10:14:23Z</time>
      </trkpt>
      <trkpt lat="44.07265" lon="6.04228">
        <ele>650</ele>
        <time>2009-07-05T10:14:27Z</time>
      </trkpt>
      <trkpt lat="44.07237" lon="6.04257">
        <ele>650</ele>
        <time>2009-07-05T10:14:35Z</time>
      </trkpt>
      <trkpt lat="44.07225" lon="6.0427">
        <ele>650</ele>
        <time>2009-07-05T10:14:38Z</time>
      </trkpt>
      <trkpt lat="44.07208" lon="6.04282">
        <ele>650</ele>
        <time>2009-07-05T10:14:42Z</time>
      </trkpt>
      <trkpt lat="44.07163" lon="6.0431">
        <ele>652</ele>
        <time>2009-07-05T10:14:56Z</time>
      </trkpt>
      <trkpt lat="44.07135" lon="6.04322">
        <ele>655</ele>
        <time>2009-07-05T10:15:07Z</time>
      </trkpt>
      <trkpt lat="44.07115" lon="6.04328">
        <ele>656</ele>
        <time>2009-07-05T10:15:16Z</time>
      </trkpt>
      <trkpt lat="44.071" lon="6.04307">
        <ele>658</ele>
        <time>2009-07-05T10:15:27Z</time>
      </trkpt>
      <trkpt lat="44.07102" lon="6.04305">
        <ele>658</ele>
        <time>2009-07-05T10:15:28Z</time>
      </trkpt>
      <trkpt lat="44.07105" lon="6.04293">
        <ele>659</ele>
        <time>2009-07-05T10:15:34Z</time>
      </trkpt>
      <trkpt lat="44.07123" lon="6.04273">
        <ele>662</ele>
        <time>2009-07-05T10:15:47Z</time>
      </trkpt>
      <trkpt lat="44.0713" lon="6.04263">
        <ele>662</ele>
        <time>2009-07-05T10:15:52Z</time>
      </trkpt>
      <trkpt lat="44.07132" lon="6.0424">
        <ele>663</ele>
        <time>2009-07-05T10:16:02Z</time>
      </trkpt>
      <trkpt lat="44.07133" lon="6.0423">
        <ele>664</ele>
        <time>2009-07-05T10:16:06Z</time>
      </trkpt>
      <trkpt lat="44.07137" lon="6.0422">
        <ele>665</ele>
        <time>2009-07-05T10:16:11Z</time>
      </trkpt>
      <trkpt lat="44.07143" lon="6.04188">
        <ele>667</ele>
        <time>2009-07-05T10:16:25Z</time>
      </trkpt>
      <trkpt lat="44.07142" lon="6.0416">
        <ele>669</ele>
        <time>2009-07-05T10:16:38Z</time>
      </trkpt>
      <trkpt lat="44.07137" lon="6.04125">
        <ele>672</ele>
        <time>2009-07-05T10:16:53Z</time>
      </trkpt>
      <trkpt lat="44.0714" lon="6.04092">
        <ele>673</ele>
        <time>2009-07-05T10:17:05Z</time>
      </trkpt>
      <trkpt lat="44.0714" lon="6.04038">
        <ele>674</ele>
        <time>2009-07-05T10:17:20Z</time>
      </trkpt>
      <trkpt lat="44.07147" lon="6.03975">
        <ele>675</ele>
        <time>2009-07-05T10:17:36Z</time>
      </trkpt>
      <trkpt lat="44.07142" lon="6.03937">
        <ele>677</ele>
        <time>2009-07-05T10:17:48Z</time>
      </trkpt>
      <trkpt lat="44.07113" lon="6.03927">
        <ele>680</ele>
        <time>2009-07-05T10:18:03Z</time>
      </trkpt>
      <trkpt lat="44.07095" lon="6.03902">
        <ele>681</ele>
        <time>2009-07-05T10:18:17Z</time>
      </trkpt>
      <trkpt lat="44.07077" lon="6.0388">
        <ele>683</ele>
        <time>2009-07-05T10:18:31Z</time>
      </trkpt>
      <trkpt lat="44.07075" lon="6.03883">
        <ele>683</ele>
        <time>2009-07-05T10:18:32Z</time>
      </trkpt>
      <trkpt lat="44.07078" lon="6.03923">
        <ele>685</ele>
        <time>2009-07-05T10:18:45Z</time>
      </trkpt>
      <trkpt lat="44.07092" lon="6.03945">
        <ele>686</ele>
        <time>2009-07-05T10:18:58Z</time>
      </trkpt>
      <trkpt lat="44.071" lon="6.03952">
        <ele>687</ele>
        <time>2009-07-05T10:19:17Z</time>
      </trkpt>
      <trkpt lat="44.07105" lon="6.03953">
        <ele>688</ele>
        <time>2009-07-05T10:21:25Z</time>
      </trkpt>
      <trkpt lat="44.07115" lon="6.03983">
        <ele>689</ele>
        <time>2009-07-05T10:21:40Z</time>
      </trkpt>
      <trkpt lat="44.07115" lon="6.03987">
        <ele>690</ele>
        <time>2009-07-05T10:21:42Z</time>
      </trkpt>
      <trkpt lat="44.07112" lon="6.03993">
        <ele>691</ele>
        <time>2009-07-05T10:21:46Z</time>
      </trkpt>
      <trkpt lat="44.071" lon="6.04023">
        <ele>694</ele>
        <time>2009-07-05T10:22:00Z</time>
      </trkpt>
      <trkpt lat="44.07087" lon="6.04053">
        <ele>697</ele>
        <time>2009-07-05T10:22:16Z</time>
      </trkpt>
      <trkpt lat="44.07078" lon="6.04088">
        <ele>699</ele>
        <time>2009-07-05T10:22:32Z</time>
      </trkpt>
      <trkpt lat="44.07075" lon="6.04117">
        <ele>701</ele>
        <time>2009-07-05T10:22:46Z</time>
      </trkpt>
      <trkpt lat="44.07067" lon="6.04157">
        <ele>704</ele>
        <time>2009-07-05T10:23:03Z</time>
      </trkpt>
      <trkpt lat="44.07057" lon="6.04183">
        <ele>707</ele>
        <time>2009-07-05T10:23:19Z</time>
      </trkpt>
      <trkpt lat="44.07047" lon="6.042">
        <ele>709</ele>
        <time>2009-07-05T10:23:29Z</time>
      </trkpt>
      <trkpt lat="44.07028" lon="6.04212">
        <ele>711</ele>
        <time>2009-07-05T10:23:45Z</time>
      </trkpt>
      <trkpt lat="44.07012" lon="6.04218">
        <ele>713</ele>
        <time>2009-07-05T10:23:58Z</time>
      </trkpt>
      <trkpt lat="44.06988" lon="6.04227">
        <ele>716</ele>
        <time>2009-07-05T10:24:13Z</time>
      </trkpt>
      <trkpt lat="44.06972" lon="6.0424">
        <ele>719</ele>
        <time>2009-07-05T10:24:26Z</time>
      </trkpt>
      <trkpt lat="44.0696" lon="6.04265">
        <ele>721</ele>
        <time>2009-07-05T10:24:38Z</time>
      </trkpt>
      <trkpt lat="44.06963" lon="6.04297">
        <ele>723</ele>
        <time>2009-07-05T10:24:52Z</time>
      </trkpt>
      <trkpt lat="44.06965" lon="6.04307">
        <ele>724</ele>
        <time>2009-07-05T10:24:57Z</time>
      </trkpt>
      <trkpt lat="44.06967" lon="6.04318">
        <ele>724</ele>
        <time>2009-07-05T10:25:03Z</time>
      </trkpt>
      <trkpt lat="44.06968" lon="6.04348">
        <ele>727</ele>
        <time>2009-07-05T10:25:17Z</time>
      </trkpt>
      <trkpt lat="44.06973" lon="6.04372">
        <ele>729</ele>
        <time>2009-07-05T10:25:28Z</time>
      </trkpt>
      <trkpt lat="44.06973" lon="6.0438">
        <ele>729</ele>
        <time>2009-07-05T10:25:31Z</time>
      </trkpt>
      <trkpt lat="44.06973" lon="6.04393">
        <ele>731</ele>
        <time>2009-07-05T10:25:37Z</time>
      </trkpt>
      <trkpt lat="44.06965" lon="6.04408">
        <ele>733</ele>
        <time>2009-07-05T10:25:45Z</time>
      </trkpt>
      <trkpt lat="44.06938" lon="6.04442">
        <ele>735</ele>
        <time>2009-07-05T10:26:02Z</time>
      </trkpt>
      <trkpt lat="44.06915" lon="6.04473">
        <ele>736</ele>
        <time>2009-07-05T10:26:15Z</time>
      </trkpt>
      <trkpt lat="44.06923" lon="6.04532">
        <ele>736</ele>
        <time>2009-07-05T10:26:28Z</time>
      </trkpt>
      <trkpt lat="44.06937" lon="6.04602">
        <ele>734</ele>
        <time>2009-07-05T10:26:41Z</time>
      </trkpt>
      <trkpt lat="44.0695" lon="6.0467">
        <ele>732</ele>
        <time>2009-07-05T10:26:49Z</time>
      </trkpt>
      <trkpt lat="44.06972" lon="6.04707">
        <ele>730</ele>
        <time>2009-07-05T10:26:55Z</time>
      </trkpt>
      <trkpt lat="44.06973" lon="6.0471">
        <ele>729</ele>
        <time>2009-07-05T10:26:56Z</time>
      </trkpt>
      <trkpt lat="44.06975" lon="6.04717">
        <ele>730</ele>
        <time>2009-07-05T10:27:13Z</time>
      </trkpt>
      <trkpt lat="44.06978" lon="6.04715">
        <ele>729</ele>
        <time>2009-07-05T10:38:15Z</time>
      </trkpt>
      <trkpt lat="44.06983" lon="6.04718">
        <ele>729</ele>
        <time>2009-07-05T10:38:19Z</time>
      </trkpt>
      <trkpt lat="44.06993" lon="6.04727">
        <ele>730</ele>
        <time>2009-07-05T10:38:24Z</time>
      </trkpt>
      <trkpt lat="44.06997" lon="6.04738">
        <ele>731</ele>
        <time>2009-07-05T10:38:31Z</time>
      </trkpt>
      <trkpt lat="44.06997" lon="6.04743">
        <ele>731</ele>
        <time>2009-07-05T10:38:34Z</time>
      </trkpt>
      <trkpt lat="44.07" lon="6.0477">
        <ele>731</ele>
        <time>2009-07-05T10:38:48Z</time>
      </trkpt>
      <trkpt lat="44.07005" lon="6.04785">
        <ele>731</ele>
        <time>2009-07-05T10:38:54Z</time>
      </trkpt>
      <trkpt lat="44.0701" lon="6.0482">
        <ele>729</ele>
        <time>2009-07-05T10:39:03Z</time>
      </trkpt>
      <trkpt lat="44.07015" lon="6.04845">
        <ele>728</ele>
        <time>2009-07-05T10:39:07Z</time>
      </trkpt>
      <trkpt lat="44.0702" lon="6.04882">
        <ele>726</ele>
        <time>2009-07-05T10:39:12Z</time>
      </trkpt>
      <trkpt lat="44.0702" lon="6.0489">
        <ele>725</ele>
        <time>2009-07-05T10:39:13Z</time>
      </trkpt>
      <trkpt lat="44.07038" lon="6.0494">
        <ele>722</ele>
        <time>2009-07-05T10:39:20Z</time>
      </trkpt>
      <trkpt lat="44.0706" lon="6.04975">
        <ele>720</ele>
        <time>2009-07-05T10:39:26Z</time>
      </trkpt>
      <trkpt lat="44.07075" lon="6.05017">
        <ele>718</ele>
        <time>2009-07-05T10:39:32Z</time>
      </trkpt>
      <trkpt lat="44.07078" lon="6.0505">
        <ele>716</ele>
        <time>2009-07-05T10:39:36Z</time>
      </trkpt>
      <trkpt lat="44.07092" lon="6.05078">
        <ele>714</ele>
        <time>2009-07-05T10:39:40Z</time>
      </trkpt>
      <trkpt lat="44.07122" lon="6.0512">
        <ele>711</ele>
        <time>2009-07-05T10:39:47Z</time>
      </trkpt>
      <trkpt lat="44.07145" lon="6.05143">
        <ele>709</ele>
        <time>2009-07-05T10:39:52Z</time>
      </trkpt>
      <trkpt lat="44.07152" lon="6.0518">
        <ele>706</ele>
        <time>2009-07-05T10:39:57Z</time>
      </trkpt>
      <trkpt lat="44.07145" lon="6.05193">
        <ele>705</ele>
        <time>2009-07-05T10:39:59Z</time>
      </trkpt>
      <trkpt lat="44.0713" lon="6.05228">
        <ele>702</ele>
        <time>2009-07-05T10:40:04Z</time>
      </trkpt>
      <trkpt lat="44.07127" lon="6.05255">
        <ele>701</ele>
        <time>2009-07-05T10:40:07Z</time>
      </trkpt>
      <trkpt lat="44.07117" lon="6.053">
        <ele>699</ele>
        <time>2009-07-05T10:40:12Z</time>
      </trkpt>
      <trkpt lat="44.071" lon="6.05342">
        <ele>696</ele>
        <time>2009-07-05T10:40:17Z</time>
      </trkpt>
      <trkpt lat="44.07098" lon="6.05357">
        <ele>695</ele>
        <time>2009-07-05T10:40:19Z</time>
      </trkpt>
      <trkpt lat="44.07103" lon="6.0539">
        <ele>693</ele>
        <time>2009-07-05T10:40:23Z</time>
      </trkpt>
      <trkpt lat="44.07112" lon="6.05407">
        <ele>692</ele>
        <time>2009-07-05T10:40:25Z</time>
      </trkpt>
      <trkpt lat="44.07137" lon="6.0545">
        <ele>691</ele>
        <time>2009-07-05T10:40:31Z</time>
      </trkpt>
      <trkpt lat="44.07152" lon="6.05483">
        <ele>690</ele>
        <time>2009-07-05T10:40:36Z</time>
      </trkpt>
      <trkpt lat="44.07142" lon="6.05498">
        <ele>691</ele>
        <time>2009-07-05T10:40:41Z</time>
      </trkpt>
      <trkpt lat="44.0712" lon="6.05508">
        <ele>692</ele>
        <time>2009-07-05T10:40:50Z</time>
      </trkpt>
      <trkpt lat="44.07107" lon="6.05523">
        <ele>693</ele>
        <time>2009-07-05T10:41:00Z</time>
      </trkpt>
      <trkpt lat="44.0709" lon="6.05555">
        <ele>693</ele>
        <time>2009-07-05T10:41:14Z</time>
      </trkpt>
      <trkpt lat="44.07085" lon="6.05607">
        <ele>693</ele>
        <time>2009-07-05T10:41:28Z</time>
      </trkpt>
      <trkpt lat="44.07078" lon="6.05645">
        <ele>694</ele>
        <time>2009-07-05T10:41:40Z</time>
      </trkpt>
      <trkpt lat="44.07053" lon="6.05677">
        <ele>694</ele>
        <time>2009-07-05T10:41:54Z</time>
      </trkpt>
      <trkpt lat="44.07043" lon="6.05702">
        <ele>692</ele>
        <time>2009-07-05T10:42:04Z</time>
      </trkpt>
      <trkpt lat="44.07043" lon="6.05753">
        <ele>692</ele>
        <time>2009-07-05T10:42:16Z</time>
      </trkpt>
      <trkpt lat="44.07043" lon="6.05783">
        <ele>691</ele>
        <time>2009-07-05T10:42:27Z</time>
      </trkpt>
      <trkpt lat="44.07047" lon="6.0581">
        <ele>691</ele>
        <time>2009-07-05T10:42:34Z</time>
      </trkpt>
      <trkpt lat="44.07042" lon="6.05853">
        <ele>689</ele>
        <time>2009-07-05T10:42:44Z</time>
      </trkpt>
      <trkpt lat="44.07037" lon="6.05858">
        <ele>688</ele>
        <time>2009-07-05T10:42:47Z</time>
      </trkpt>
      <trkpt lat="44.07035" lon="6.05883">
        <ele>687</ele>
        <time>2009-07-05T10:42:52Z</time>
      </trkpt>
      <trkpt lat="44.07035" lon="6.05902">
        <ele>686</ele>
        <time>2009-07-05T10:42:55Z</time>
      </trkpt>
      <trkpt lat="44.0704" lon="6.05937">
        <ele>683</ele>
        <time>2009-07-05T10:43:00Z</time>
      </trkpt>
      <trkpt lat="44.07043" lon="6.05978">
        <ele>680</ele>
        <time>2009-07-05T10:43:05Z</time>
      </trkpt>
      <trkpt lat="44.0704" lon="6.05998">
        <ele>678</ele>
        <time>2009-07-05T10:43:07Z</time>
      </trkpt>
      <trkpt lat="44.0704" lon="6.06038">
        <ele>675</ele>
        <time>2009-07-05T10:43:11Z</time>
      </trkpt>
      <trkpt lat="44.07042" lon="6.0607">
        <ele>673</ele>
        <time>2009-07-05T10:43:14Z</time>
      </trkpt>
      <trkpt lat="44.07033" lon="6.06093">
        <ele>669</ele>
        <time>2009-07-05T10:43:18Z</time>
      </trkpt>
      <trkpt lat="44.07028" lon="6.06093">
        <ele>669</ele>
        <time>2009-07-05T10:43:19Z</time>
      </trkpt>
      <trkpt lat="44.06993" lon="6.06117">
        <ele>664</ele>
        <time>2009-07-05T10:43:25Z</time>
      </trkpt>
      <trkpt lat="44.06988" lon="6.06123">
        <ele>663</ele>
        <time>2009-07-05T10:43:26Z</time>
      </trkpt>
      <trkpt lat="44.0696" lon="6.06128">
        <ele>661</ele>
        <time>2009-07-05T10:43:31Z</time>
      </trkpt>
      <trkpt lat="44.06948" lon="6.06122">
        <ele>659</ele>
        <time>2009-07-05T10:43:33Z</time>
      </trkpt>
      <trkpt lat="44.06912" lon="6.06122">
        <ele>655</ele>
        <time>2009-07-05T10:43:38Z</time>
      </trkpt>
      <trkpt lat="44.0687" lon="6.06172">
        <ele>653</ele>
        <time>2009-07-05T10:43:46Z</time>
      </trkpt>
      <trkpt lat="44.06863" lon="6.06205">
        <ele>650</ele>
        <time>2009-07-05T10:43:50Z</time>
      </trkpt>
      <trkpt lat="44.06847" lon="6.06248">
        <ele>647</ele>
        <time>2009-07-05T10:43:55Z</time>
      </trkpt>
      <trkpt lat="44.06842" lon="6.06257">
        <ele>646</ele>
        <time>2009-07-05T10:43:56Z</time>
      </trkpt>
      <trkpt lat="44.0683" lon="6.0628">
        <ele>643</ele>
        <time>2009-07-05T10:43:59Z</time>
      </trkpt>
      <trkpt lat="44.0683" lon="6.0632">
        <ele>639</ele>
        <time>2009-07-05T10:44:05Z</time>
      </trkpt>
      <trkpt lat="44.06858" lon="6.06333">
        <ele>637</ele>
        <time>2009-07-05T10:44:10Z</time>
      </trkpt>
      <trkpt lat="44.06878" lon="6.06332">
        <ele>636</ele>
        <time>2009-07-05T10:44:13Z</time>
      </trkpt>
      <trkpt lat="44.06892" lon="6.06323">
        <ele>636</ele>
        <time>2009-07-05T10:44:16Z</time>
      </trkpt>
      <trkpt lat="44.06898" lon="6.06347">
        <ele>634</ele>
        <time>2009-07-05T10:44:22Z</time>
      </trkpt>
      <trkpt lat="44.06888" lon="6.0636">
        <ele>635</ele>
        <time>2009-07-05T10:44:25Z</time>
      </trkpt>
      <trkpt lat="44.06875" lon="6.06372">
        <ele>634</ele>
        <time>2009-07-05T10:44:28Z</time>
      </trkpt>
      <trkpt lat="44.0686" lon="6.06383">
        <ele>634</ele>
        <time>2009-07-05T10:44:31Z</time>
      </trkpt>
      <trkpt lat="44.06845" lon="6.06403">
        <ele>634</ele>
        <time>2009-07-05T10:44:34Z</time>
      </trkpt>
      <trkpt lat="44.06835" lon="6.06413">
        <ele>634</ele>
        <time>2009-07-05T10:44:36Z</time>
      </trkpt>
      <trkpt lat="44.06833" lon="6.06455">
        <ele>634</ele>
        <time>2009-07-05T10:44:42Z</time>
      </trkpt>
      <trkpt lat="44.06843" lon="6.06478">
        <ele>634</ele>
        <time>2009-07-05T10:44:45Z</time>
      </trkpt>
      <trkpt lat="44.06835" lon="6.06512">
        <ele>636</ele>
        <time>2009-07-05T10:44:50Z</time>
      </trkpt>
      <trkpt lat="44.06832" lon="6.06517">
        <ele>637</ele>
        <time>2009-07-05T10:44:51Z</time>
      </trkpt>
      <trkpt lat="44.06822" lon="6.06523">
        <ele>637</ele>
        <time>2009-07-05T10:44:53Z</time>
      </trkpt>
      <trkpt lat="44.06803" lon="6.06538">
        <ele>638</ele>
        <time>2009-07-05T10:44:57Z</time>
      </trkpt>
      <trkpt lat="44.06793" lon="6.06568">
        <ele>638</ele>
        <time>2009-07-05T10:45:03Z</time>
      </trkpt>
      <trkpt lat="44.06785" lon="6.06592">
        <ele>637</ele>
        <time>2009-07-05T10:45:07Z</time>
      </trkpt>
      <trkpt lat="44.0677" lon="6.06617">
        <ele>635</ele>
        <time>2009-07-05T10:45:11Z</time>
      </trkpt>
      <trkpt lat="44.06758" lon="6.06622">
        <ele>635</ele>
        <time>2009-07-05T10:45:13Z</time>
      </trkpt>
      <trkpt lat="44.06747" lon="6.06625">
        <ele>635</ele>
        <time>2009-07-05T10:45:15Z</time>
      </trkpt>
      <trkpt lat="44.06727" lon="6.06642">
        <ele>635</ele>
        <time>2009-07-05T10:45:19Z</time>
      </trkpt>
      <trkpt lat="44.06682" lon="6.0667">
        <ele>636</ele>
        <time>2009-07-05T10:45:32Z</time>
      </trkpt>
      <trkpt lat="44.06633" lon="6.06683">
        <ele>637</ele>
        <time>2009-07-05T10:45:46Z</time>
      </trkpt>
      <trkpt lat="44.0661" lon="6.06708">
        <ele>640</ele>
        <time>2009-07-05T10:45:58Z</time>
      </trkpt>
      <trkpt lat="44.06592" lon="6.06738">
        <ele>644</ele>
        <time>2009-07-05T10:46:11Z</time>
      </trkpt>
      <trkpt lat="44.0657" lon="6.06782">
        <ele>645</ele>
        <time>2009-07-05T10:46:25Z</time>
      </trkpt>
      <trkpt lat="44.0656" lon="6.06805">
        <ele>644</ele>
        <time>2009-07-05T10:46:35Z</time>
      </trkpt>
      <trkpt lat="44.0656" lon="6.06808">
        <ele>644</ele>
        <time>2009-07-05T10:46:56Z</time>
      </trkpt>
      <trkpt lat="44.06555" lon="6.06843">
        <ele>642</ele>
        <time>2009-07-05T10:47:03Z</time>
      </trkpt>
      <trkpt lat="44.06552" lon="6.06872">
        <ele>641</ele>
        <time>2009-07-05T10:47:06Z</time>
      </trkpt>
      <trkpt lat="44.06545" lon="6.0692">
        <ele>640</ele>
        <time>2009-07-05T10:47:11Z</time>
      </trkpt>
      <trkpt lat="44.06557" lon="6.06947">
        <ele>637</ele>
        <time>2009-07-05T10:47:15Z</time>
      </trkpt>
      <trkpt lat="44.06567" lon="6.06967">
        <ele>636</ele>
        <time>2009-07-05T10:47:18Z</time>
      </trkpt>
      <trkpt lat="44.0656" lon="6.06988">
        <ele>636</ele>
        <time>2009-07-05T10:47:23Z</time>
      </trkpt>
      <trkpt lat="44.06555" lon="6.0701">
        <ele>636</ele>
        <time>2009-07-05T10:47:26Z</time>
      </trkpt>
      <trkpt lat="44.06548" lon="6.0704">
        <ele>638</ele>
        <time>2009-07-05T10:47:31Z</time>
      </trkpt>
      <trkpt lat="44.06545" lon="6.07127">
        <ele>635</ele>
        <time>2009-07-05T10:47:40Z</time>
      </trkpt>
      <trkpt lat="44.06553" lon="6.07183">
        <ele>630</ele>
        <time>2009-07-05T10:47:45Z</time>
      </trkpt>
      <trkpt lat="44.06558" lon="6.07205">
        <ele>629</ele>
        <time>2009-07-05T10:47:47Z</time>
      </trkpt>
      <trkpt lat="44.06573" lon="6.0723">
        <ele>627</ele>
        <time>2009-07-05T10:47:51Z</time>
      </trkpt>
      <trkpt lat="44.06572" lon="6.07247">
        <ele>628</ele>
        <time>2009-07-05T10:47:58Z</time>
      </trkpt>
      <trkpt lat="44.06527" lon="6.07263">
        <ele>632</ele>
        <time>2009-07-05T10:48:10Z</time>
      </trkpt>
      <trkpt lat="44.06508" lon="6.07298">
        <ele>632</ele>
        <time>2009-07-05T10:48:20Z</time>
      </trkpt>
      <trkpt lat="44.06512" lon="6.07313">
        <ele>631</ele>
        <time>2009-07-05T10:48:23Z</time>
      </trkpt>
      <trkpt lat="44.0652" lon="6.07335">
        <ele>630</ele>
        <time>2009-07-05T10:48:27Z</time>
      </trkpt>
      <trkpt lat="44.06537" lon="6.07372">
        <ele>627</ele>
        <time>2009-07-05T10:48:35Z</time>
      </trkpt>
      <trkpt lat="44.06527" lon="6.07383">
        <ele>626</ele>
        <time>2009-07-05T10:48:43Z</time>
      </trkpt>
      <trkpt lat="44.0648" lon="6.07363">
        <ele>626</ele>
        <time>2009-07-05T10:48:56Z</time>
      </trkpt>
      <trkpt lat="44.06453" lon="6.07377">
        <ele>625</ele>
        <time>2009-07-05T10:49:08Z</time>
      </trkpt>
      <trkpt lat="44.06448" lon="6.07392">
        <ele>625</ele>
        <time>2009-07-05T10:49:13Z</time>
      </trkpt>
      <trkpt lat="44.06443" lon="6.07415">
        <ele>625</ele>
        <time>2009-07-05T10:49:28Z</time>
      </trkpt>
      <trkpt lat="44.06437" lon="6.07443">
        <ele>627</ele>
        <time>2009-07-05T10:49:41Z</time>
      </trkpt>
      <trkpt lat="44.06428" lon="6.0748">
        <ele>629</ele>
        <time>2009-07-05T10:49:55Z</time>
      </trkpt>
      <trkpt lat="44.06427" lon="6.07492">
        <ele>629</ele>
        <time>2009-07-05T10:49:59Z</time>
      </trkpt>
      <trkpt lat="44.06427" lon="6.07507">
        <ele>630</ele>
        <time>2009-07-05T10:50:05Z</time>
      </trkpt>
      <trkpt lat="44.0642" lon="6.07545">
        <ele>631</ele>
        <time>2009-07-05T10:50:19Z</time>
      </trkpt>
      <trkpt lat="44.06415" lon="6.07595">
        <ele>634</ele>
        <time>2009-07-05T10:50:34Z</time>
      </trkpt>
      <trkpt lat="44.06413" lon="6.07607">
        <ele>634</ele>
        <time>2009-07-05T10:50:39Z</time>
      </trkpt>
      <trkpt lat="44.06412" lon="6.07643">
        <ele>635</ele>
        <time>2009-07-05T10:50:57Z</time>
      </trkpt>
      <trkpt lat="44.06413" lon="6.07667">
        <ele>635</ele>
        <time>2009-07-05T10:51:12Z</time>
      </trkpt>
      <trkpt lat="44.06407" lon="6.07697">
        <ele>635</ele>
        <time>2009-07-05T10:51:55Z</time>
      </trkpt>
      <trkpt lat="44.06405" lon="6.07705">
        <ele>635</ele>
        <time>2009-07-05T10:52:05Z</time>
      </trkpt>
      <trkpt lat="44.0639" lon="6.07753">
        <ele>636</ele>
        <time>2009-07-05T10:52:17Z</time>
      </trkpt>
      <trkpt lat="44.06382" lon="6.0783">
        <ele>637</ele>
        <time>2009-07-05T10:52:32Z</time>
      </trkpt>
      <trkpt lat="44.06382" lon="6.07915">
        <ele>638</ele>
        <time>2009-07-05T10:52:49Z</time>
      </trkpt>
      <trkpt lat="44.0638" lon="6.07977">
        <ele>641</ele>
        <time>2009-07-05T10:53:05Z</time>
      </trkpt>
      <trkpt lat="44.06372" lon="6.08027">
        <ele>644</ele>
        <time>2009-07-05T10:53:19Z</time>
      </trkpt>
      <trkpt lat="44.06362" lon="6.0807">
        <ele>648</ele>
        <time>2009-07-05T10:53:32Z</time>
      </trkpt>
      <trkpt lat="44.06363" lon="6.0812">
        <ele>650</ele>
        <time>2009-07-05T10:53:48Z</time>
      </trkpt>
      <trkpt lat="44.0637" lon="6.08162">
        <ele>652</ele>
        <time>2009-07-05T10:54:01Z</time>
      </trkpt>
      <trkpt lat="44.0637" lon="6.08163">
        <ele>652</ele>
        <time>2009-07-05T10:54:02Z</time>
      </trkpt>
      <trkpt lat="44.06367" lon="6.0817">
        <ele>653</ele>
        <time>2009-07-05T10:54:20Z</time>
      </trkpt>
      <trkpt lat="44.06367" lon="6.0817">
        <ele>653</ele>
        <time>2009-07-05T10:54:52Z</time>
      </trkpt>
      <trkpt lat="44.06368" lon="6.08173">
        <ele>652</ele>
        <time>2009-07-05T10:54:54Z</time>
      </trkpt>
      <trkpt lat="44.06367" lon="6.08197">
        <ele>650</ele>
        <time>2009-07-05T10:54:58Z</time>
      </trkpt>
      <trkpt lat="44.06362" lon="6.08275">
        <ele>647</ele>
        <time>2009-07-05T10:55:05Z</time>
      </trkpt>
      <trkpt lat="44.06357" lon="6.08323">
        <ele>644</ele>
        <time>2009-07-05T10:55:09Z</time>
      </trkpt>
      <trkpt lat="44.06387" lon="6.08357">
        <ele>641</ele>
        <time>2009-07-05T10:55:15Z</time>
      </trkpt>
      <trkpt lat="44.06428" lon="6.08362">
        <ele>637</ele>
        <time>2009-07-05T10:55:20Z</time>
      </trkpt>
      <trkpt lat="44.06443" lon="6.08393">
        <ele>636</ele>
        <time>2009-07-05T10:55:23Z</time>
      </trkpt>
      <trkpt lat="44.0645" lon="6.08415">
        <ele>635</ele>
        <time>2009-07-05T10:55:25Z</time>
      </trkpt>
      <trkpt lat="44.06452" lon="6.08423">
        <ele>635</ele>
        <time>2009-07-05T10:55:26Z</time>
      </trkpt>
      <trkpt lat="44.06442" lon="6.08455">
        <ele>634</ele>
        <time>2009-07-05T10:55:31Z</time>
      </trkpt>
      <trkpt lat="44.06432" lon="6.08465">
        <ele>633</ele>
        <time>2009-07-05T10:55:33Z</time>
      </trkpt>
      <trkpt lat="44.06412" lon="6.08505">
        <ele>631</ele>
        <time>2009-07-05T10:55:38Z</time>
      </trkpt>
      <trkpt lat="44.06395" lon="6.08657">
        <ele>630</ele>
        <time>2009-07-05T10:55:53Z</time>
      </trkpt>
      <trkpt lat="44.06385" lon="6.08752">
        <ele>629</ele>
        <time>2009-07-05T10:56:04Z</time>
      </trkpt>
      <trkpt lat="44.06348" lon="6.08838">
        <ele>628</ele>
        <time>2009-07-05T10:56:18Z</time>
      </trkpt>
      <trkpt lat="44.06328" lon="6.08877">
        <ele>627</ele>
        <time>2009-07-05T10:56:24Z</time>
      </trkpt>
      <trkpt lat="44.06313" lon="6.08905">
        <ele>626</ele>
        <time>2009-07-05T10:56:29Z</time>
      </trkpt>
      <trkpt lat="44.06293" lon="6.08942">
        <ele>625</ele>
        <time>2009-07-05T10:56:35Z</time>
      </trkpt>
      <trkpt lat="44.06285" lon="6.0896">
        <ele>625</ele>
        <time>2009-07-05T10:56:39Z</time>
      </trkpt>
      <trkpt lat="44.06272" lon="6.08955">
        <ele>622</ele>
        <time>2009-07-05T10:56:43Z</time>
      </trkpt>
      <trkpt lat="44.06262" lon="6.08943">
        <ele>620</ele>
        <time>2009-07-05T10:56:46Z</time>
      </trkpt>
      <trkpt lat="44.0625" lon="6.08925">
        <ele>619</ele>
        <time>2009-07-05T10:56:51Z</time>
      </trkpt>
      <trkpt lat="44.06247" lon="6.08915">
        <ele>619</ele>
        <time>2009-07-05T10:56:53Z</time>
      </trkpt>
      <trkpt lat="44.0624" lon="6.08893">
        <ele>617</ele>
        <time>2009-07-05T10:56:56Z</time>
      </trkpt>
      <trkpt lat="44.0621" lon="6.0881">
        <ele>617</ele>
        <time>2009-07-05T10:57:09Z</time>
      </trkpt>
      <trkpt lat="44.06207" lon="6.088">
        <ele>617</ele>
        <time>2009-07-05T10:57:11Z</time>
      </trkpt>
      <trkpt lat="44.06193" lon="6.08813">
        <ele>617</ele>
        <time>2009-07-05T10:57:19Z</time>
      </trkpt>
      <trkpt lat="44.06188" lon="6.08823">
        <ele>617</ele>
        <time>2009-07-05T10:57:21Z</time>
      </trkpt>
      <trkpt lat="44.06178" lon="6.08848">
        <ele>615</ele>
        <time>2009-07-05T10:57:25Z</time>
      </trkpt>
      <trkpt lat="44.0614" lon="6.08967">
        <ele>613</ele>
        <time>2009-07-05T10:57:39Z</time>
      </trkpt>
      <trkpt lat="44.0613" lon="6.09028">
        <ele>610</ele>
        <time>2009-07-05T10:57:46Z</time>
      </trkpt>
      <trkpt lat="44.0612" lon="6.09063">
        <ele>609</ele>
        <time>2009-07-05T10:57:50Z</time>
      </trkpt>
      <trkpt lat="44.06098" lon="6.0912">
        <ele>606</ele>
        <time>2009-07-05T10:57:57Z</time>
      </trkpt>
      <trkpt lat="44.0607" lon="6.09183">
        <ele>603</ele>
        <time>2009-07-05T10:58:04Z</time>
      </trkpt>
      <trkpt lat="44.06043" lon="6.09262">
        <ele>600</ele>
        <time>2009-07-05T10:58:12Z</time>
      </trkpt>
      <trkpt lat="44.0602" lon="6.09318">
        <ele>598</ele>
        <time>2009-07-05T10:58:19Z</time>
      </trkpt>
      <trkpt lat="44.06015" lon="6.09402">
        <ele>593</ele>
        <time>2009-07-05T10:59:32Z</time>
      </trkpt>
      <trkpt lat="44.0601" lon="6.0943">
        <ele>592</ele>
        <time>2009-07-05T10:59:44Z</time>
      </trkpt>
      <trkpt lat="44.0601" lon="6.09427">
        <ele>592</ele>
        <time>2009-07-05T10:59:50Z</time>
      </trkpt>
      <trkpt lat="44.06008" lon="6.09358">
        <ele>595</ele>
        <time>2009-07-05T11:00:03Z</time>
      </trkpt>
      <trkpt lat="44.06007" lon="6.09352">
        <ele>596</ele>
        <time>2009-07-05T11:00:04Z</time>
      </trkpt>
      <trkpt lat="44.06008" lon="6.0935">
        <ele>596</ele>
        <time>2009-07-05T11:00:09Z</time>
      </trkpt>
      <trkpt lat="44.0601" lon="6.09378">
        <ele>594</ele>
        <time>2009-07-05T11:00:16Z</time>
      </trkpt>
      <trkpt lat="44.06012" lon="6.09398">
        <ele>593</ele>
        <time>2009-07-05T11:00:19Z</time>
      </trkpt>
      <trkpt lat="44.06005" lon="6.0947">
        <ele>590</ele>
        <time>2009-07-05T11:00:30Z</time>
      </trkpt>
      <trkpt lat="44.05998" lon="6.09548">
        <ele>587</ele>
        <time>2009-07-05T11:00:41Z</time>
      </trkpt>
      <trkpt lat="44.05985" lon="6.09632">
        <ele>584</ele>
        <time>2009-07-05T11:00:51Z</time>
      </trkpt>
      <trkpt lat="44.05972" lon="6.09722">
        <ele>581</ele>
        <time>2009-07-05T11:01:01Z</time>
      </trkpt>
      <trkpt lat="44.05977" lon="6.09805">
        <ele>577</ele>
        <time>2009-07-05T11:01:10Z</time>
      </trkpt>
      <trkpt lat="44.0598" lon="6.09882">
        <ele>574</ele>
        <time>2009-07-05T11:01:18Z</time>
      </trkpt>
      <trkpt lat="44.05968" lon="6.09923">
        <ele>573</ele>
        <time>2009-07-05T11:01:27Z</time>
      </trkpt>
      <trkpt lat="44.05965" lon="6.0995">
        <ele>572</ele>
        <time>2009-07-05T11:01:50Z</time>
      </trkpt>
      <trkpt lat="44.05958" lon="6.09982">
        <ele>570</ele>
        <time>2009-07-05T11:02:00Z</time>
      </trkpt>
      <trkpt lat="44.05953" lon="6.10002">
        <ele>569</ele>
        <time>2009-07-05T11:02:11Z</time>
      </trkpt>
      <trkpt lat="44.05942" lon="6.10038">
        <ele>567</ele>
        <time>2009-07-05T11:02:26Z</time>
      </trkpt>
      <trkpt lat="44.05915" lon="6.10132">
        <ele>564</ele>
        <time>2009-07-05T11:02:37Z</time>
      </trkpt>
      <trkpt lat="44.05905" lon="6.10167">
        <ele>563</ele>
        <time>2009-07-05T11:02:41Z</time>
      </trkpt>
      <trkpt lat="44.05902" lon="6.10208">
        <ele>562</ele>
        <time>2009-07-05T11:02:46Z</time>
      </trkpt>
      <trkpt lat="44.05907" lon="6.10237">
        <ele>561</ele>
        <time>2009-07-05T11:02:50Z</time>
      </trkpt>
      <trkpt lat="44.05903" lon="6.10277">
        <ele>559</ele>
        <time>2009-07-05T11:03:00Z</time>
      </trkpt>
      <trkpt lat="44.05902" lon="6.10297">
        <ele>558</ele>
        <time>2009-07-05T11:03:11Z</time>
      </trkpt>
      <trkpt lat="44.05902" lon="6.10297">
        <ele>557</ele>
        <time>2009-07-05T11:04:44Z</time>
      </trkpt>
      <trkpt lat="44.05893" lon="6.10305">
        <ele>556</ele>
        <time>2009-07-05T11:04:48Z</time>
      </trkpt>
      <trkpt lat="44.05887" lon="6.10328">
        <ele>555</ele>
        <time>2009-07-05T11:04:52Z</time>
      </trkpt>
      <trkpt lat="44.05883" lon="6.10343">
        <ele>554</ele>
        <time>2009-07-05T11:04:54Z</time>
      </trkpt>
      <trkpt lat="44.05875" lon="6.10378">
        <ele>553</ele>
        <time>2009-07-05T11:04:59Z</time>
      </trkpt>
      <trkpt lat="44.05847" lon="6.1045">
        <ele>550</ele>
        <time>2009-07-05T11:05:09Z</time>
      </trkpt>
      <trkpt lat="44.05837" lon="6.10455">
        <ele>549</ele>
        <time>2009-07-05T11:05:12Z</time>
      </trkpt>
      <trkpt lat="44.05805" lon="6.1045">
        <ele>548</ele>
        <time>2009-07-05T11:05:18Z</time>
      </trkpt>
      <trkpt lat="44.05787" lon="6.10457">
        <ele>547</ele>
        <time>2009-07-05T11:05:22Z</time>
      </trkpt>
      <trkpt lat="44.05765" lon="6.10472">
        <ele>545</ele>
        <time>2009-07-05T11:05:27Z</time>
      </trkpt>
      <trkpt lat="44.05732" lon="6.10498">
        <ele>543</ele>
        <time>2009-07-05T11:05:34Z</time>
      </trkpt>
      <trkpt lat="44.05722" lon="6.10513">
        <ele>542</ele>
        <time>2009-07-05T11:05:36Z</time>
      </trkpt>
      <trkpt lat="44.05678" lon="6.10585">
        <ele>539</ele>
        <time>2009-07-05T11:05:45Z</time>
      </trkpt>
      <trkpt lat="44.05668" lon="6.106">
        <ele>538</ele>
        <time>2009-07-05T11:05:47Z</time>
      </trkpt>
      <trkpt lat="44.05642" lon="6.106">
        <ele>538</ele>
        <time>2009-07-05T11:05:52Z</time>
      </trkpt>
      <trkpt lat="44.056" lon="6.10577">
        <ele>537</ele>
        <time>2009-07-05T11:06:02Z</time>
      </trkpt>
      <trkpt lat="44.05592" lon="6.10573">
        <ele>537</ele>
        <time>2009-07-05T11:06:04Z</time>
      </trkpt>
      <trkpt lat="44.0557" lon="6.10563">
        <ele>536</ele>
        <time>2009-07-05T11:06:09Z</time>
      </trkpt>
      <trkpt lat="44.0552" lon="6.10537">
        <ele>535</ele>
        <time>2009-07-05T11:06:23Z</time>
      </trkpt>
      <trkpt lat="44.05503" lon="6.10528">
        <ele>534</ele>
        <time>2009-07-05T11:06:35Z</time>
      </trkpt>
      <trkpt lat="44.05502" lon="6.10527">
        <ele>534</ele>
        <time>2009-07-05T11:07:02Z</time>
      </trkpt>
      <trkpt lat="44.05478" lon="6.10515">
        <ele>533</ele>
        <time>2009-07-05T11:07:18Z</time>
      </trkpt>
      <trkpt lat="44.05417" lon="6.10478">
        <ele>530</ele>
        <time>2009-07-05T11:07:32Z</time>
      </trkpt>
      <trkpt lat="44.05392" lon="6.10467">
        <ele>530</ele>
        <time>2009-07-05T11:07:37Z</time>
      </trkpt>
      <trkpt lat="44.05342" lon="6.10478">
        <ele>528</ele>
        <time>2009-07-05T11:07:47Z</time>
      </trkpt>
      <trkpt lat="44.05293" lon="6.10495">
        <ele>526</ele>
        <time>2009-07-05T11:08:00Z</time>
      </trkpt>
      <trkpt lat="44.05292" lon="6.10495">
        <ele>526</ele>
        <time>2009-07-05T11:08:15Z</time>
      </trkpt>
      <trkpt lat="44.05292" lon="6.10483">
        <ele>526</ele>
        <time>2009-07-05T11:08:21Z</time>
      </trkpt>
      <trkpt lat="44.05302" lon="6.1044">
        <ele>527</ele>
        <time>2009-07-05T11:08:40Z</time>
      </trkpt>
      <trkpt lat="44.05308" lon="6.1041">
        <ele>527</ele>
        <time>2009-07-05T11:08:55Z</time>
      </trkpt>
      <trkpt lat="44.05315" lon="6.1038">
        <ele>528</ele>
        <time>2009-07-05T11:09:10Z</time>
      </trkpt>
      <trkpt lat="44.05315" lon="6.10375">
        <ele>528</ele>
        <time>2009-07-05T11:09:13Z</time>
      </trkpt>
      <trkpt lat="44.05312" lon="6.10362">
        <ele>528</ele>
        <time>2009-07-05T11:09:21Z</time>
      </trkpt>
      <trkpt lat="44.05308" lon="6.10342">
        <ele>529</ele>
        <time>2009-07-05T11:09:36Z</time>
      </trkpt>
      <trkpt lat="44.05307" lon="6.10325">
        <ele>532</ele>
        <time>2009-07-05T11:09:55Z</time>
      </trkpt>
      <trkpt lat="44.0531" lon="6.10312">
        <ele>535</ele>
        <time>2009-07-05T11:10:12Z</time>
      </trkpt>
      <trkpt lat="44.05313" lon="6.10302">
        <ele>538</ele>
        <time>2009-07-05T11:10:23Z</time>
      </trkpt>
      <trkpt lat="44.0532" lon="6.10293">
        <ele>539</ele>
        <time>2009-07-05T11:10:37Z</time>
      </trkpt>
      <trkpt lat="44.05313" lon="6.10288">
        <ele>539</ele>
        <time>2009-07-05T11:10:48Z</time>
      </trkpt>
      <trkpt lat="44.05312" lon="6.10292">
        <ele>539</ele>
        <time>2009-07-05T11:11:10Z</time>
      </trkpt>
      <trkpt lat="44.0531" lon="6.10292">
        <ele>539</ele>
        <time>2009-07-05T11:11:31Z</time>
      </trkpt>
      <trkpt lat="44.05303" lon="6.10292">
        <ele>539</ele>
        <time>2009-07-05T11:11:49Z</time>
      </trkpt>
      <trkpt lat="44.05277" lon="6.10287">
        <ele>538</ele>
        <time>2009-07-05T11:13:28Z</time>
      </trkpt>
      <trkpt lat="44.05203" lon="6.10272">
        <ele>536</ele>
        <time>2009-07-05T11:13:40Z</time>
      </trkpt>
      <trkpt lat="44.05163" lon="6.10248">
        <ele>535</ele>
        <time>2009-07-05T11:13:47Z</time>
      </trkpt>
      <trkpt lat="44.05135" lon="6.10222">
        <ele>533</ele>
        <time>2009-07-05T11:13:53Z</time>
      </trkpt>
      <trkpt lat="44.0513" lon="6.10218">
        <ele>533</ele>
        <time>2009-07-05T11:13:54Z</time>
      </trkpt>
      <trkpt lat="44.05122" lon="6.10228">
        <ele>532</ele>
        <time>2009-07-05T11:13:58Z</time>
      </trkpt>
      <trkpt lat="44.05105" lon="6.10275">
        <ele>529</ele>
        <time>2009-07-05T11:14:11Z</time>
      </trkpt>
      <trkpt lat="44.05105" lon="6.10277">
        <ele>529</ele>
        <time>2009-07-05T11:14:16Z</time>
      </trkpt>
      <trkpt lat="44.0509" lon="6.1033">
        <ele>527</ele>
        <time>2009-07-05T11:14:26Z</time>
      </trkpt>
      <trkpt lat="44.05072" lon="6.10382">
        <ele>523</ele>
        <time>2009-07-05T11:14:32Z</time>
      </trkpt>
      <trkpt lat="44.05055" lon="6.1043">
        <ele>520</ele>
        <time>2009-07-05T11:14:37Z</time>
      </trkpt>
      <trkpt lat="44.05032" lon="6.10515">
        <ele>519</ele>
        <time>2009-07-05T11:14:48Z</time>
      </trkpt>
      <trkpt lat="44.0503" lon="6.1052">
        <ele>520</ele>
        <time>2009-07-05T11:14:49Z</time>
      </trkpt>
      <trkpt lat="44.05027" lon="6.10602">
        <ele>521</ele>
        <time>2009-07-05T11:15:03Z</time>
      </trkpt>
      <trkpt lat="44.05035" lon="6.10677">
        <ele>522</ele>
        <time>2009-07-05T11:15:17Z</time>
      </trkpt>
      <trkpt lat="44.05063" lon="6.10737">
        <ele>522</ele>
        <time>2009-07-05T11:15:31Z</time>
      </trkpt>
      <trkpt lat="44.05105" lon="6.10792">
        <ele>523</ele>
        <time>2009-07-05T11:15:48Z</time>
      </trkpt>
      <trkpt lat="44.05147" lon="6.10812">
        <ele>524</ele>
        <time>2009-07-05T11:16:01Z</time>
      </trkpt>
      <trkpt lat="44.05195" lon="6.10837">
        <ele>525</ele>
        <time>2009-07-05T11:16:17Z</time>
      </trkpt>
      <trkpt lat="44.05237" lon="6.10872">
        <ele>526</ele>
        <time>2009-07-05T11:16:31Z</time>
      </trkpt>
      <trkpt lat="44.05295" lon="6.1095">
        <ele>527</ele>
        <time>2009-07-05T11:16:51Z</time>
      </trkpt>
      <trkpt lat="44.05327" lon="6.11007">
        <ele>528</ele>
        <time>2009-07-05T11:17:05Z</time>
      </trkpt>
      <trkpt lat="44.05367" lon="6.11042">
        <ele>529</ele>
        <time>2009-07-05T11:17:19Z</time>
      </trkpt>
      <trkpt lat="44.05393" lon="6.11013">
        <ele>530</ele>
        <time>2009-07-05T11:17:29Z</time>
      </trkpt>
      <trkpt lat="44.05452" lon="6.1099">
        <ele>531</ele>
        <time>2009-07-05T11:17:46Z</time>
      </trkpt>
      <trkpt lat="44.05467" lon="6.1099">
        <ele>532</ele>
        <time>2009-07-05T11:17:52Z</time>
      </trkpt>
      <trkpt lat="44.0546" lon="6.10998">
        <ele>532</ele>
        <time>2009-07-05T11:17:56Z</time>
      </trkpt>
      <trkpt lat="44.05435" lon="6.11005">
        <ele>532</ele>
        <time>2009-07-05T11:18:02Z</time>
      </trkpt>
      <trkpt lat="44.05422" lon="6.1101">
        <ele>532</ele>
        <time>2009-07-05T11:18:05Z</time>
      </trkpt>
      <trkpt lat="44.05385" lon="6.11038">
        <ele>531</ele>
        <time>2009-07-05T11:18:14Z</time>
      </trkpt>
      <trkpt lat="44.05367" lon="6.11073">
        <ele>532</ele>
        <time>2009-07-05T11:18:20Z</time>
      </trkpt>
      <trkpt lat="44.05338" lon="6.11185">
        <ele>534</ele>
        <time>2009-07-05T11:18:36Z</time>
      </trkpt>
      <trkpt lat="44.05332" lon="6.11203">
        <ele>534</ele>
        <time>2009-07-05T11:18:39Z</time>
      </trkpt>
      <trkpt lat="44.05312" lon="6.11275">
        <ele>536</ele>
        <time>2009-07-05T11:18:54Z</time>
      </trkpt>
      <trkpt lat="44.0529" lon="6.11313">
        <ele>538</ele>
        <time>2009-07-05T11:19:08Z</time>
      </trkpt>
      <trkpt lat="44.05263" lon="6.11358">
        <ele>541</ele>
        <time>2009-07-05T11:19:23Z</time>
      </trkpt>
      <trkpt lat="44.05233" lon="6.11418">
        <ele>543</ele>
        <time>2009-07-05T11:19:43Z</time>
      </trkpt>
      <trkpt lat="44.05208" lon="6.11463">
        <ele>545</ele>
        <time>2009-07-05T11:19:58Z</time>
      </trkpt>
      <trkpt lat="44.05183" lon="6.11507">
        <ele>546</ele>
        <time>2009-07-05T11:20:13Z</time>
      </trkpt>
      <trkpt lat="44.05162" lon="6.11548">
        <ele>547</ele>
        <time>2009-07-05T11:20:25Z</time>
      </trkpt>
      <trkpt lat="44.05137" lon="6.11602">
        <ele>550</ele>
        <time>2009-07-05T11:20:39Z</time>
      </trkpt>
      <trkpt lat="44.05112" lon="6.11645">
        <ele>550</ele>
        <time>2009-07-05T11:20:54Z</time>
      </trkpt>
      <trkpt lat="44.05088" lon="6.11687">
        <ele>551</ele>
        <time>2009-07-05T11:21:10Z</time>
      </trkpt>
      <trkpt lat="44.05058" lon="6.11737">
        <ele>552</ele>
        <time>2009-07-05T11:21:27Z</time>
      </trkpt>
      <trkpt lat="44.05037" lon="6.1178">
        <ele>553</ele>
        <time>2009-07-05T11:21:41Z</time>
      </trkpt>
      <trkpt lat="44.05007" lon="6.11832">
        <ele>555</ele>
        <time>2009-07-05T11:21:57Z</time>
      </trkpt>
      <trkpt lat="44.04985" lon="6.11878">
        <ele>555</ele>
        <time>2009-07-05T11:22:12Z</time>
      </trkpt>
      <trkpt lat="44.04977" lon="6.11923">
        <ele>555</ele>
        <time>2009-07-05T11:22:24Z</time>
      </trkpt>
      <trkpt lat="44.0497" lon="6.11963">
        <ele>555</ele>
        <time>2009-07-05T11:22:37Z</time>
      </trkpt>
      <trkpt lat="44.04965" lon="6.12">
        <ele>554</ele>
        <time>2009-07-05T11:22:52Z</time>
      </trkpt>
      <trkpt lat="44.04965" lon="6.12025">
        <ele>553</ele>
        <time>2009-07-05T11:22:57Z</time>
      </trkpt>
      <trkpt lat="44.04987" lon="6.1206">
        <ele>553</ele>
        <time>2009-07-05T11:23:05Z</time>
      </trkpt>
      <trkpt lat="44.0499" lon="6.12062">
        <ele>553</ele>
        <time>2009-07-05T11:23:06Z</time>
      </trkpt>
      <trkpt lat="44.05025" lon="6.12088">
        <ele>554</ele>
        <time>2009-07-05T11:23:18Z</time>
      </trkpt>
      <trkpt lat="44.05053" lon="6.121">
        <ele>555</ele>
        <time>2009-07-05T11:23:32Z</time>
      </trkpt>
      <trkpt lat="44.0509" lon="6.12125">
        <ele>557</ele>
        <time>2009-07-05T11:23:46Z</time>
      </trkpt>
      <trkpt lat="44.05097" lon="6.12167">
        <ele>559</ele>
        <time>2009-07-05T11:23:57Z</time>
      </trkpt>
      <trkpt lat="44.05083" lon="6.1217">
        <ele>560</ele>
        <time>2009-07-05T11:24:03Z</time>
      </trkpt>
      <trkpt lat="44.0505" lon="6.12172">
        <ele>562</ele>
        <time>2009-07-05T11:24:18Z</time>
      </trkpt>
      <trkpt lat="44.05035" lon="6.12205">
        <ele>565</ele>
        <time>2009-07-05T11:24:30Z</time>
      </trkpt>
      <trkpt lat="44.05022" lon="6.12233">
        <ele>567</ele>
        <time>2009-07-05T11:24:41Z</time>
      </trkpt>
      <trkpt lat="44.0501" lon="6.12267">
        <ele>568</ele>
        <time>2009-07-05T11:24:53Z</time>
      </trkpt>
      <trkpt lat="44.05" lon="6.1229">
        <ele>570</ele>
        <time>2009-07-05T11:25:05Z</time>
      </trkpt>
      <trkpt lat="44.04995" lon="6.123">
        <ele>569</ele>
        <time>2009-07-05T11:25:18Z</time>
      </trkpt>
      <trkpt lat="44.04982" lon="6.1231">
        <ele>567</ele>
        <time>2009-07-05T11:25:23Z</time>
      </trkpt>
      <trkpt lat="44.04968" lon="6.12352">
        <ele>568</ele>
        <time>2009-07-05T11:25:32Z</time>
      </trkpt>
      <trkpt lat="44.04965" lon="6.12367">
        <ele>568</ele>
        <time>2009-07-05T11:25:54Z</time>
      </trkpt>
      <trkpt lat="44.04957" lon="6.12383">
        <ele>568</ele>
        <time>2009-07-05T11:25:58Z</time>
      </trkpt>
      <trkpt lat="44.0495" lon="6.1241">
        <ele>567</ele>
        <time>2009-07-05T11:26:04Z</time>
      </trkpt>
      <trkpt lat="44.04938" lon="6.12447">
        <ele>568</ele>
        <time>2009-07-05T11:26:11Z</time>
      </trkpt>
      <trkpt lat="44.04933" lon="6.12463">
        <ele>566</ele>
        <time>2009-07-05T11:26:14Z</time>
      </trkpt>
      <trkpt lat="44.04922" lon="6.12532">
        <ele>562</ele>
        <time>2009-07-05T11:26:20Z</time>
      </trkpt>
      <trkpt lat="44.04907" lon="6.12595">
        <ele>560</ele>
        <time>2009-07-05T11:26:26Z</time>
      </trkpt>
      <trkpt lat="44.04883" lon="6.12642">
        <ele>562</ele>
        <time>2009-07-05T11:26:38Z</time>
      </trkpt>
      <trkpt lat="44.04867" lon="6.12678">
        <ele>564</ele>
        <time>2009-07-05T11:26:50Z</time>
      </trkpt>
      <trkpt lat="44.04853" lon="6.12722">
        <ele>567</ele>
        <time>2009-07-05T11:27:04Z</time>
      </trkpt>
      <trkpt lat="44.04838" lon="6.12772">
        <ele>567</ele>
        <time>2009-07-05T11:27:20Z</time>
      </trkpt>
      <trkpt lat="44.0483" lon="6.1281">
        <ele>568</ele>
        <time>2009-07-05T11:27:33Z</time>
      </trkpt>
      <trkpt lat="44.04828" lon="6.12832">
        <ele>566</ele>
        <time>2009-07-05T11:27:37Z</time>
      </trkpt>
      <trkpt lat="44.04828" lon="6.12838">
        <ele>566</ele>
        <time>2009-07-05T11:27:38Z</time>
      </trkpt>
      <trkpt lat="44.04825" lon="6.12845">
        <ele>565</ele>
        <time>2009-07-05T11:27:39Z</time>
      </trkpt>
      <trkpt lat="44.0482" lon="6.12857">
        <ele>565</ele>
        <time>2009-07-05T11:27:41Z</time>
      </trkpt>
      <trkpt lat="44.04795" lon="6.12905">
        <ele>564</ele>
        <time>2009-07-05T11:27:51Z</time>
      </trkpt>
      <trkpt lat="44.0476" lon="6.12965">
        <ele>561</ele>
        <time>2009-07-05T11:28:01Z</time>
      </trkpt>
      <trkpt lat="44.0474" lon="6.12995">
        <ele>559</ele>
        <time>2009-07-05T11:28:06Z</time>
      </trkpt>
      <trkpt lat="44.04692" lon="6.13035">
        <ele>555</ele>
        <time>2009-07-05T11:28:16Z</time>
      </trkpt>
      <trkpt lat="44.04667" lon="6.13053">
        <ele>553</ele>
        <time>2009-07-05T11:28:21Z</time>
      </trkpt>
      <trkpt lat="44.04647" lon="6.13068">
        <ele>550</ele>
        <time>2009-07-05T11:28:25Z</time>
      </trkpt>
      <trkpt lat="44.04632" lon="6.13083">
        <ele>549</ele>
        <time>2009-07-05T11:28:33Z</time>
      </trkpt>
      <trkpt lat="44.0463" lon="6.13085">
        <ele>548</ele>
        <time>2009-07-05T11:29:14Z</time>
      </trkpt>
      <trkpt lat="44.04625" lon="6.13112">
        <ele>545</ele>
        <time>2009-07-05T11:29:19Z</time>
      </trkpt>
      <trkpt lat="44.04623" lon="6.13118">
        <ele>543</ele>
        <time>2009-07-05T11:29:20Z</time>
      </trkpt>
      <trkpt lat="44.0462" lon="6.13145">
        <ele>539</ele>
        <time>2009-07-05T11:29:23Z</time>
      </trkpt>
      <trkpt lat="44.04617" lon="6.13187">
        <ele>535</ele>
        <time>2009-07-05T11:29:27Z</time>
      </trkpt>
      <trkpt lat="44.04615" lon="6.13195">
        <ele>533</ele>
        <time>2009-07-05T11:29:28Z</time>
      </trkpt>
      <trkpt lat="44.04602" lon="6.13225">
        <ele>529</ele>
        <time>2009-07-05T11:29:32Z</time>
      </trkpt>
      <trkpt lat="44.0459" lon="6.13237">
        <ele>528</ele>
        <time>2009-07-05T11:29:36Z</time>
      </trkpt>
      <trkpt lat="44.04567" lon="6.1325">
        <ele>526</ele>
        <time>2009-07-05T11:29:43Z</time>
      </trkpt>
      <trkpt lat="44.04553" lon="6.13272">
        <ele>526</ele>
        <time>2009-07-05T11:29:47Z</time>
      </trkpt>
      <trkpt lat="44.0453" lon="6.1332">
        <ele>524</ele>
        <time>2009-07-05T11:29:54Z</time>
      </trkpt>
      <trkpt lat="44.04485" lon="6.13365">
        <ele>521</ele>
        <time>2009-07-05T11:30:02Z</time>
      </trkpt>
      <trkpt lat="44.04422" lon="6.13415">
        <ele>517</ele>
        <time>2009-07-05T11:30:13Z</time>
      </trkpt>
      <trkpt lat="44.04348" lon="6.13462">
        <ele>515</ele>
        <time>2009-07-05T11:30:26Z</time>
      </trkpt>
      <trkpt lat="44.0428" lon="6.13507">
        <ele>513</ele>
        <time>2009-07-05T11:30:39Z</time>
      </trkpt>
      <trkpt lat="44.04272" lon="6.13533">
        <ele>512</ele>
        <time>2009-07-05T11:30:46Z</time>
      </trkpt>
      <trkpt lat="44.04252" lon="6.13542">
        <ele>511</ele>
        <time>2009-07-05T11:30:50Z</time>
      </trkpt>
      <trkpt lat="44.04228" lon="6.1355">
        <ele>510</ele>
        <time>2009-07-05T11:30:55Z</time>
      </trkpt>
      <trkpt lat="44.04167" lon="6.13583">
        <ele>509</ele>
        <time>2009-07-05T11:31:07Z</time>
      </trkpt>
      <trkpt lat="44.04108" lon="6.13607">
        <ele>508</ele>
        <time>2009-07-05T11:31:19Z</time>
      </trkpt>
      <trkpt lat="44.04058" lon="6.13628">
        <ele>509</ele>
        <time>2009-07-05T11:31:32Z</time>
      </trkpt>
      <trkpt lat="44.04053" lon="6.13618">
        <ele>508</ele>
        <time>2009-07-05T11:31:36Z</time>
      </trkpt>
      <trkpt lat="44.0403" lon="6.13593">
        <ele>507</ele>
        <time>2009-07-05T11:31:47Z</time>
      </trkpt>
      <trkpt lat="44.04007" lon="6.13613">
        <ele>507</ele>
        <time>2009-07-05T11:31:59Z</time>
      </trkpt>
      <trkpt lat="44.03968" lon="6.13643">
        <ele>507</ele>
        <time>2009-07-05T11:32:13Z</time>
      </trkpt>
      <trkpt lat="44.03958" lon="6.13648">
        <ele>507</ele>
        <time>2009-07-05T11:32:16Z</time>
      </trkpt>
      <trkpt lat="44.03967" lon="6.137">
        <ele>507</ele>
        <time>2009-07-05T11:32:25Z</time>
      </trkpt>
      <trkpt lat="44.03988" lon="6.1375">
        <ele>508</ele>
        <time>2009-07-05T11:32:35Z</time>
      </trkpt>
      <trkpt lat="44.04018" lon="6.13813">
        <ele>508</ele>
        <time>2009-07-05T11:32:48Z</time>
      </trkpt>
      <trkpt lat="44.04032" lon="6.13843">
        <ele>508</ele>
        <time>2009-07-05T11:32:54Z</time>
      </trkpt>
      <trkpt lat="44.04037" lon="6.13855">
        <ele>508</ele>
        <time>2009-07-05T11:32:56Z</time>
      </trkpt>
      <trkpt lat="44.04057" lon="6.13908">
        <ele>508</ele>
        <time>2009-07-05T11:33:08Z</time>
      </trkpt>
      <trkpt lat="44.04082" lon="6.1396">
        <ele>509</ele>
        <time>2009-07-05T11:33:19Z</time>
      </trkpt>
      <trkpt lat="44.0409" lon="6.13982">
        <ele>509</ele>
        <time>2009-07-05T11:33:25Z</time>
      </trkpt>
      <trkpt lat="44.04082" lon="6.13995">
        <ele>509</ele>
        <time>2009-07-05T11:33:30Z</time>
      </trkpt>
      <trkpt lat="44.04028" lon="6.14042">
        <ele>509</ele>
        <time>2009-07-05T11:33:46Z</time>
      </trkpt>
      <trkpt lat="44.04007" lon="6.14062">
        <ele>510</ele>
        <time>2009-07-05T11:33:54Z</time>
      </trkpt>
      <trkpt lat="44.04012" lon="6.14083">
        <ele>510</ele>
        <time>2009-07-05T11:34:00Z</time>
      </trkpt>
      <trkpt lat="44.04038" lon="6.14142">
        <ele>510</ele>
        <time>2009-07-05T11:34:16Z</time>
      </trkpt>
      <trkpt lat="44.04042" lon="6.1415">
        <ele>510</ele>
        <time>2009-07-05T11:34:19Z</time>
      </trkpt>
      <trkpt lat="44.04047" lon="6.14157">
        <ele>510</ele>
        <time>2009-07-05T11:34:24Z</time>
      </trkpt>
      <trkpt lat="44.04057" lon="6.1418">
        <ele>512</ele>
        <time>2009-07-05T11:34:39Z</time>
      </trkpt>
      <trkpt lat="44.04057" lon="6.14183">
        <ele>512</ele>
        <time>2009-07-05T11:34:41Z</time>
      </trkpt>
      <trkpt lat="44.04027" lon="6.14212">
        <ele>513</ele>
        <time>2009-07-05T11:34:52Z</time>
      </trkpt>
      <trkpt lat="44.04013" lon="6.14227">
        <ele>513</ele>
        <time>2009-07-05T11:34:56Z</time>
      </trkpt>
      <trkpt lat="44.03995" lon="6.14243">
        <ele>513</ele>
        <time>2009-07-05T11:35:01Z</time>
      </trkpt>
      <trkpt lat="44.03955" lon="6.14282">
        <ele>512</ele>
        <time>2009-07-05T11:35:13Z</time>
      </trkpt>
      <trkpt lat="44.03935" lon="6.14298">
        <ele>512</ele>
        <time>2009-07-05T11:35:20Z</time>
      </trkpt>
      <trkpt lat="44.03943" lon="6.14318">
        <ele>511</ele>
        <time>2009-07-05T11:35:30Z</time>
      </trkpt>
      <trkpt lat="44.03943" lon="6.14322">
        <ele>511</ele>
        <time>2009-07-05T11:35:31Z</time>
      </trkpt>
      <trkpt lat="44.03933" lon="6.14362">
        <ele>512</ele>
        <time>2009-07-05T11:35:46Z</time>
      </trkpt>
      <trkpt lat="44.03925" lon="6.14392">
        <ele>511</ele>
        <time>2009-07-05T11:35:57Z</time>
      </trkpt>
      <trkpt lat="44.03927" lon="6.14402">
        <ele>511</ele>
        <time>2009-07-05T11:36:01Z</time>
      </trkpt>
      <trkpt lat="44.03957" lon="6.14443">
        <ele>511</ele>
        <time>2009-07-05T11:36:16Z</time>
      </trkpt>
      <trkpt lat="44.0399" lon="6.14477">
        <ele>511</ele>
        <time>2009-07-05T11:36:30Z</time>
      </trkpt>
      <trkpt lat="44.04028" lon="6.14503">
        <ele>511</ele>
        <time>2009-07-05T11:36:44Z</time>
      </trkpt>
      <trkpt lat="44.0406" lon="6.14528">
        <ele>511</ele>
        <time>2009-07-05T11:36:56Z</time>
      </trkpt>
      <trkpt lat="44.04088" lon="6.14577">
        <ele>512</ele>
        <time>2009-07-05T11:37:09Z</time>
      </trkpt>
      <trkpt lat="44.04113" lon="6.14623">
        <ele>513</ele>
        <time>2009-07-05T11:37:21Z</time>
      </trkpt>
      <trkpt lat="44.0414" lon="6.14682">
        <ele>513</ele>
        <time>2009-07-05T11:37:35Z</time>
      </trkpt>
      <trkpt lat="44.0416" lon="6.14727">
        <ele>513</ele>
        <time>2009-07-05T11:37:46Z</time>
      </trkpt>
      <trkpt lat="44.04175" lon="6.14787">
        <ele>513</ele>
        <time>2009-07-05T11:37:59Z</time>
      </trkpt>
      <trkpt lat="44.04183" lon="6.1485">
        <ele>513</ele>
        <time>2009-07-05T11:38:13Z</time>
      </trkpt>
      <trkpt lat="44.04185" lon="6.14888">
        <ele>514</ele>
        <time>2009-07-05T11:38:23Z</time>
      </trkpt>
      <trkpt lat="44.04175" lon="6.14915">
        <ele>515</ele>
        <time>2009-07-05T11:38:32Z</time>
      </trkpt>
      <trkpt lat="44.04147" lon="6.14952">
        <ele>517</ele>
        <time>2009-07-05T11:38:46Z</time>
      </trkpt>
      <trkpt lat="44.04125" lon="6.14968">
        <ele>518</ele>
        <time>2009-07-05T11:38:59Z</time>
      </trkpt>
      <trkpt lat="44.04097" lon="6.15002">
        <ele>520</ele>
        <time>2009-07-05T11:39:13Z</time>
      </trkpt>
      <trkpt lat="44.04057" lon="6.15038">
        <ele>521</ele>
        <time>2009-07-05T11:39:28Z</time>
      </trkpt>
      <trkpt lat="44.04015" lon="6.15078">
        <ele>522</ele>
        <time>2009-07-05T11:39:45Z</time>
      </trkpt>
      <trkpt lat="44.03973" lon="6.15118">
        <ele>526</ele>
        <time>2009-07-05T11:40:02Z</time>
      </trkpt>
      <trkpt lat="44.03968" lon="6.1513">
        <ele>526</ele>
        <time>2009-07-05T11:40:10Z</time>
      </trkpt>
      <trkpt lat="44.03968" lon="6.1515">
        <ele>527</ele>
        <time>2009-07-05T11:40:17Z</time>
      </trkpt>
      <trkpt lat="44.03972" lon="6.1517">
        <ele>527</ele>
        <time>2009-07-05T11:40:22Z</time>
      </trkpt>
      <trkpt lat="44.03972" lon="6.15183">
        <ele>527</ele>
        <time>2009-07-05T11:40:33Z</time>
      </trkpt>
      <trkpt lat="44.03978" lon="6.15185">
        <ele>527</ele>
        <time>2009-07-05T11:45:58Z</time>
      </trkpt>
      <trkpt lat="44.0398" lon="6.15198">
        <ele>527</ele>
        <time>2009-07-05T11:46:02Z</time>
      </trkpt>
      <trkpt lat="44.03982" lon="6.15215">
        <ele>527</ele>
        <time>2009-07-05T11:46:05Z</time>
      </trkpt>
      <trkpt lat="44.03988" lon="6.15315">
        <ele>526</ele>
        <time>2009-07-05T11:46:17Z</time>
      </trkpt>
      <trkpt lat="44.04005" lon="6.1546">
        <ele>526</ele>
        <time>2009-07-05T11:46:33Z</time>
      </trkpt>
      <trkpt lat="44.0404" lon="6.15558">
        <ele>527</ele>
        <time>2009-07-05T11:46:47Z</time>
      </trkpt>
      <trkpt lat="44.04072" lon="6.15615">
        <ele>527</ele>
        <time>2009-07-05T11:46:59Z</time>
      </trkpt>
      <trkpt lat="44.04097" lon="6.1565">
        <ele>528</ele>
        <time>2009-07-05T11:47:07Z</time>
      </trkpt>
      <trkpt lat="44.0412" lon="6.1571">
        <ele>529</ele>
        <time>2009-07-05T11:47:21Z</time>
      </trkpt>
      <trkpt lat="44.04145" lon="6.15738">
        <ele>530</ele>
        <time>2009-07-05T11:47:33Z</time>
      </trkpt>
      <trkpt lat="44.04173" lon="6.15787">
        <ele>530</ele>
        <time>2009-07-05T11:47:47Z</time>
      </trkpt>
      <trkpt lat="44.04213" lon="6.15848">
        <ele>530</ele>
        <time>2009-07-05T11:48:02Z</time>
      </trkpt>
      <trkpt lat="44.04217" lon="6.15853">
        <ele>530</ele>
        <time>2009-07-05T11:48:03Z</time>
      </trkpt>
      <trkpt lat="44.04257" lon="6.1593">
        <ele>530</ele>
        <time>2009-07-05T11:48:21Z</time>
      </trkpt>
      <trkpt lat="44.0429" lon="6.15973">
        <ele>531</ele>
        <time>2009-07-05T11:48:34Z</time>
      </trkpt>
      <trkpt lat="44.0431" lon="6.16017">
        <ele>531</ele>
        <time>2009-07-05T11:48:45Z</time>
      </trkpt>
      <trkpt lat="44.04345" lon="6.1606">
        <ele>532</ele>
        <time>2009-07-05T11:48:59Z</time>
      </trkpt>
      <trkpt lat="44.04375" lon="6.16113">
        <ele>533</ele>
        <time>2009-07-05T11:49:16Z</time>
      </trkpt>
      <trkpt lat="44.04395" lon="6.16155">
        <ele>534</ele>
        <time>2009-07-05T11:49:29Z</time>
      </trkpt>
      <trkpt lat="44.04412" lon="6.1621">
        <ele>535</ele>
        <time>2009-07-05T11:49:44Z</time>
      </trkpt>
      <trkpt lat="44.04423" lon="6.1627">
        <ele>537</ele>
        <time>2009-07-05T11:50:00Z</time>
      </trkpt>
      <trkpt lat="44.04425" lon="6.16287">
        <ele>537</ele>
        <time>2009-07-05T11:50:05Z</time>
      </trkpt>
      <trkpt lat="44.0444" lon="6.16335">
        <ele>538</ele>
        <time>2009-07-05T11:50:20Z</time>
      </trkpt>
      <trkpt lat="44.04465" lon="6.16353">
        <ele>538</ele>
        <time>2009-07-05T11:50:30Z</time>
      </trkpt>
      <trkpt lat="44.04473" lon="6.16353">
        <ele>538</ele>
        <time>2009-07-05T11:50:33Z</time>
      </trkpt>
      <trkpt lat="44.045" lon="6.16377">
        <ele>537</ele>
        <time>2009-07-05T11:50:40Z</time>
      </trkpt>
      <trkpt lat="44.04542" lon="6.16377">
        <ele>535</ele>
        <time>2009-07-05T11:50:49Z</time>
      </trkpt>
      <trkpt lat="44.0457" lon="6.1635">
        <ele>534</ele>
        <time>2009-07-05T11:50:56Z</time>
      </trkpt>
      <trkpt lat="44.04615" lon="6.16325">
        <ele>532</ele>
        <time>2009-07-05T11:51:05Z</time>
      </trkpt>
      <trkpt lat="44.04682" lon="6.16242">
        <ele>530</ele>
        <time>2009-07-05T11:51:22Z</time>
      </trkpt>
      <trkpt lat="44.047" lon="6.16225">
        <ele>531</ele>
        <time>2009-07-05T11:51:28Z</time>
      </trkpt>
      <trkpt lat="44.04707" lon="6.1621">
        <ele>530</ele>
        <time>2009-07-05T11:51:33Z</time>
      </trkpt>
      <trkpt lat="44.0471" lon="6.16202">
        <ele>530</ele>
        <time>2009-07-05T11:51:36Z</time>
      </trkpt>
      <trkpt lat="44.04737" lon="6.16153">
        <ele>529</ele>
        <time>2009-07-05T11:51:48Z</time>
      </trkpt>
      <trkpt lat="44.04748" lon="6.1614">
        <ele>530</ele>
        <time>2009-07-05T11:51:52Z</time>
      </trkpt>
      <trkpt lat="44.04775" lon="6.16165">
        <ele>530</ele>
        <time>2009-07-05T11:52:01Z</time>
      </trkpt>
      <trkpt lat="44.04792" lon="6.16252">
        <ele>529</ele>
        <time>2009-07-05T11:52:14Z</time>
      </trkpt>
      <trkpt lat="44.04797" lon="6.16265">
        <ele>529</ele>
        <time>2009-07-05T11:52:16Z</time>
      </trkpt>
      <trkpt lat="44.04807" lon="6.16288">
        <ele>529</ele>
        <time>2009-07-05T11:52:20Z</time>
      </trkpt>
      <trkpt lat="44.04823" lon="6.16315">
        <ele>529</ele>
        <time>2009-07-05T11:52:25Z</time>
      </trkpt>
      <trkpt lat="44.04863" lon="6.16373">
        <ele>530</ele>
        <time>2009-07-05T11:52:40Z</time>
      </trkpt>
      <trkpt lat="44.04868" lon="6.16382">
        <ele>529</ele>
        <time>2009-07-05T11:52:42Z</time>
      </trkpt>
      <trkpt lat="44.04875" lon="6.16388">
        <ele>529</ele>
        <time>2009-07-05T11:52:44Z</time>
      </trkpt>
      <trkpt lat="44.04928" lon="6.16417">
        <ele>530</ele>
        <time>2009-07-05T11:52:57Z</time>
      </trkpt>
      <trkpt lat="44.04982" lon="6.16445">
        <ele>531</ele>
        <time>2009-07-05T11:53:11Z</time>
      </trkpt>
      <trkpt lat="44.04995" lon="6.16428">
        <ele>530</ele>
        <time>2009-07-05T11:53:15Z</time>
      </trkpt>
      <trkpt lat="44.05012" lon="6.1639">
        <ele>529</ele>
        <time>2009-07-05T11:53:21Z</time>
      </trkpt>
      <trkpt lat="44.05025" lon="6.1637">
        <ele>528</ele>
        <time>2009-07-05T11:53:25Z</time>
      </trkpt>
      <trkpt lat="44.05097" lon="6.163">
        <ele>526</ele>
        <time>2009-07-05T11:53:39Z</time>
      </trkpt>
      <trkpt lat="44.05105" lon="6.16292">
        <ele>526</ele>
        <time>2009-07-05T11:53:41Z</time>
      </trkpt>
      <trkpt lat="44.05128" lon="6.16287">
        <ele>526</ele>
        <time>2009-07-05T11:53:46Z</time>
      </trkpt>
      <trkpt lat="44.05182" lon="6.16278">
        <ele>527</ele>
        <time>2009-07-05T11:53:57Z</time>
      </trkpt>
      <trkpt lat="44.05197" lon="6.16283">
        <ele>527</ele>
        <time>2009-07-05T11:54:00Z</time>
      </trkpt>
      <trkpt lat="44.05222" lon="6.16313">
        <ele>527</ele>
        <time>2009-07-05T11:54:07Z</time>
      </trkpt>
      <trkpt lat="44.05277" lon="6.16397">
        <ele>528</ele>
        <time>2009-07-05T11:54:24Z</time>
      </trkpt>
      <trkpt lat="44.05322" lon="6.16452">
        <ele>528</ele>
        <time>2009-07-05T11:54:38Z</time>
      </trkpt>
      <trkpt lat="44.05368" lon="6.1651">
        <ele>529</ele>
        <time>2009-07-05T11:54:53Z</time>
      </trkpt>
      <trkpt lat="44.05423" lon="6.16565">
        <ele>530</ele>
        <time>2009-07-05T11:55:09Z</time>
      </trkpt>
      <trkpt lat="44.05433" lon="6.16573">
        <ele>530</ele>
        <time>2009-07-05T11:55:12Z</time>
      </trkpt>
      <trkpt lat="44.05497" lon="6.16648">
        <ele>531</ele>
        <time>2009-07-05T11:55:32Z</time>
      </trkpt>
      <trkpt lat="44.055" lon="6.16653">
        <ele>532</ele>
        <time>2009-07-05T11:55:33Z</time>
      </trkpt>
      <trkpt lat="44.05567" lon="6.16738">
        <ele>532</ele>
        <time>2009-07-05T11:55:53Z</time>
      </trkpt>
      <trkpt lat="44.05622" lon="6.16817">
        <ele>534</ele>
        <time>2009-07-05T11:56:10Z</time>
      </trkpt>
      <trkpt lat="44.05653" lon="6.16892">
        <ele>535</ele>
        <time>2009-07-05T11:56:25Z</time>
      </trkpt>
      <trkpt lat="44.05675" lon="6.16978">
        <ele>537</ele>
        <time>2009-07-05T11:56:44Z</time>
      </trkpt>
      <trkpt lat="44.05678" lon="6.1699">
        <ele>538</ele>
        <time>2009-07-05T11:56:48Z</time>
      </trkpt>
      <trkpt lat="44.05677" lon="6.17002">
        <ele>538</ele>
        <time>2009-07-05T11:56:53Z</time>
      </trkpt>
      <trkpt lat="44.05673" lon="6.17025">
        <ele>538</ele>
        <time>2009-07-05T11:56:58Z</time>
      </trkpt>
      <trkpt lat="44.05675" lon="6.17047">
        <ele>538</ele>
        <time>2009-07-05T11:57:03Z</time>
      </trkpt>
      <trkpt lat="44.0568" lon="6.17107">
        <ele>538</ele>
        <time>2009-07-05T11:57:15Z</time>
      </trkpt>
      <trkpt lat="44.05695" lon="6.17165">
        <ele>538</ele>
        <time>2009-07-05T11:57:26Z</time>
      </trkpt>
      <trkpt lat="44.05705" lon="6.17178">
        <ele>537</ele>
        <time>2009-07-05T11:57:29Z</time>
      </trkpt>
      <trkpt lat="44.05743" lon="6.1722">
        <ele>537</ele>
        <time>2009-07-05T11:57:40Z</time>
      </trkpt>
      <trkpt lat="44.0579" lon="6.1728">
        <ele>537</ele>
        <time>2009-07-05T11:57:55Z</time>
      </trkpt>
      <trkpt lat="44.05818" lon="6.17317">
        <ele>537</ele>
        <time>2009-07-05T11:58:04Z</time>
      </trkpt>
      <trkpt lat="44.0586" lon="6.17378">
        <ele>537</ele>
        <time>2009-07-05T11:58:18Z</time>
      </trkpt>
      <trkpt lat="44.0591" lon="6.17452">
        <ele>538</ele>
        <time>2009-07-05T11:58:35Z</time>
      </trkpt>
      <trkpt lat="44.05928" lon="6.17475">
        <ele>538</ele>
        <time>2009-07-05T11:58:41Z</time>
      </trkpt>
      <trkpt lat="44.05937" lon="6.17497">
        <ele>538</ele>
        <time>2009-07-05T11:58:46Z</time>
      </trkpt>
      <trkpt lat="44.05985" lon="6.17525">
        <ele>538</ele>
        <time>2009-07-05T11:58:59Z</time>
      </trkpt>
      <trkpt lat="44.06023" lon="6.17573">
        <ele>540</ele>
        <time>2009-07-05T11:59:13Z</time>
      </trkpt>
      <trkpt lat="44.06068" lon="6.17622">
        <ele>541</ele>
        <time>2009-07-05T11:59:28Z</time>
      </trkpt>
      <trkpt lat="44.06108" lon="6.17667">
        <ele>542</ele>
        <time>2009-07-05T11:59:42Z</time>
      </trkpt>
      <trkpt lat="44.06117" lon="6.17685">
        <ele>542</ele>
        <time>2009-07-05T11:59:47Z</time>
      </trkpt>
      <trkpt lat="44.0615" lon="6.17648">
        <ele>542</ele>
        <time>2009-07-05T11:59:59Z</time>
      </trkpt>
      <trkpt lat="44.06192" lon="6.17595">
        <ele>541</ele>
        <time>2009-07-05T12:00:13Z</time>
      </trkpt>
      <trkpt lat="44.06218" lon="6.17547">
        <ele>541</ele>
        <time>2009-07-05T12:00:26Z</time>
      </trkpt>
      <trkpt lat="44.06222" lon="6.17545">
        <ele>541</ele>
        <time>2009-07-05T12:00:38Z</time>
      </trkpt>
      <trkpt lat="44.06238" lon="6.17543">
        <ele>540</ele>
        <time>2009-07-05T12:01:00Z</time>
      </trkpt>
      <trkpt lat="44.06262" lon="6.17553">
        <ele>540</ele>
        <time>2009-07-05T12:01:10Z</time>
      </trkpt>
      <trkpt lat="44.06273" lon="6.1757">
        <ele>540</ele>
        <time>2009-07-05T12:01:18Z</time>
      </trkpt>
      <trkpt lat="44.06297" lon="6.17577">
        <ele>540</ele>
        <time>2009-07-05T12:01:30Z</time>
      </trkpt>
      <trkpt lat="44.06298" lon="6.17578">
        <ele>540</ele>
        <time>2009-07-05T12:01:57Z</time>
      </trkpt>
      <trkpt lat="44.06297" lon="6.17573">
        <ele>541</ele>
        <time>2009-07-05T12:02:37Z</time>
      </trkpt>
      <trkpt lat="44.0632" lon="6.17548">
        <ele>541</ele>
        <time>2009-07-05T12:02:49Z</time>
      </trkpt>
      <trkpt lat="44.06342" lon="6.17512">
        <ele>541</ele>
        <time>2009-07-05T12:03:02Z</time>
      </trkpt>
      <trkpt lat="44.0637" lon="6.17528">
        <ele>540</ele>
        <time>2009-07-05T12:03:12Z</time>
      </trkpt>
      <trkpt lat="44.06367" lon="6.1756">
        <ele>540</ele>
        <time>2009-07-05T12:03:19Z</time>
      </trkpt>
      <trkpt lat="44.06373" lon="6.1758">
        <ele>540</ele>
        <time>2009-07-05T12:03:23Z</time>
      </trkpt>
      <trkpt lat="44.06388" lon="6.17582">
        <ele>540</ele>
        <time>2009-07-05T12:03:28Z</time>
      </trkpt>
      <trkpt lat="44.06408" lon="6.17592">
        <ele>540</ele>
        <time>2009-07-05T12:03:38Z</time>
      </trkpt>
      <trkpt lat="44.06415" lon="6.176">
        <ele>542</ele>
        <time>2009-07-05T12:03:55Z</time>
      </trkpt>
      <trkpt lat="44.06425" lon="6.17607">
        <ele>542</ele>
        <time>2009-07-05T12:04:01Z</time>
      </trkpt>
      <trkpt lat="44.0646" lon="6.17615">
        <ele>543</ele>
        <time>2009-07-05T12:04:14Z</time>
      </trkpt>
      <trkpt lat="44.06482" lon="6.17602">
        <ele>544</ele>
        <time>2009-07-05T12:04:26Z</time>
      </trkpt>
      <trkpt lat="44.06493" lon="6.17602">
        <ele>544</ele>
        <time>2009-07-05T12:04:31Z</time>
      </trkpt>
      <trkpt lat="44.06535" lon="6.17637">
        <ele>544</ele>
        <time>2009-07-05T12:04:45Z</time>
      </trkpt>
      <trkpt lat="44.06568" lon="6.17667">
        <ele>545</ele>
        <time>2009-07-05T12:04:57Z</time>
      </trkpt>
      <trkpt lat="44.06613" lon="6.17738">
        <ele>546</ele>
        <time>2009-07-05T12:05:14Z</time>
      </trkpt>
      <trkpt lat="44.06643" lon="6.17793">
        <ele>547</ele>
        <time>2009-07-05T12:05:27Z</time>
      </trkpt>
      <trkpt lat="44.06635" lon="6.1782">
        <ele>546</ele>
        <time>2009-07-05T12:05:32Z</time>
      </trkpt>
      <trkpt lat="44.06577" lon="6.17887">
        <ele>546</ele>
        <time>2009-07-05T12:05:48Z</time>
      </trkpt>
      <trkpt lat="44.0653" lon="6.17948">
        <ele>546</ele>
        <time>2009-07-05T12:06:03Z</time>
      </trkpt>
      <trkpt lat="44.06515" lon="6.1797">
        <ele>545</ele>
        <time>2009-07-05T12:06:08Z</time>
      </trkpt>
      <trkpt lat="44.06468" lon="6.18035">
        <ele>545</ele>
        <time>2009-07-05T12:06:24Z</time>
      </trkpt>
      <trkpt lat="44.06443" lon="6.18072">
        <ele>546</ele>
        <time>2009-07-05T12:06:33Z</time>
      </trkpt>
      <trkpt lat="44.0642" lon="6.18128">
        <ele>546</ele>
        <time>2009-07-05T12:06:46Z</time>
      </trkpt>
      <trkpt lat="44.06415" lon="6.18183">
        <ele>546</ele>
        <time>2009-07-05T12:06:59Z</time>
      </trkpt>
      <trkpt lat="44.06442" lon="6.18228">
        <ele>547</ele>
        <time>2009-07-05T12:07:11Z</time>
      </trkpt>
      <trkpt lat="44.06443" lon="6.18232">
        <ele>547</ele>
        <time>2009-07-05T12:07:12Z</time>
      </trkpt>
      <trkpt lat="44.06472" lon="6.18267">
        <ele>546</ele>
        <time>2009-07-05T12:07:20Z</time>
      </trkpt>
      <trkpt lat="44.06508" lon="6.18347">
        <ele>547</ele>
        <time>2009-07-05T12:07:38Z</time>
      </trkpt>
      <trkpt lat="44.06527" lon="6.18413">
        <ele>548</ele>
        <time>2009-07-05T12:07:52Z</time>
      </trkpt>
      <trkpt lat="44.06537" lon="6.18485">
        <ele>549</ele>
        <time>2009-07-05T12:08:05Z</time>
      </trkpt>
      <trkpt lat="44.06537" lon="6.1855">
        <ele>549</ele>
        <time>2009-07-05T12:08:18Z</time>
      </trkpt>
      <trkpt lat="44.06533" lon="6.1862">
        <ele>549</ele>
        <time>2009-07-05T12:08:32Z</time>
      </trkpt>
      <trkpt lat="44.0653" lon="6.18678">
        <ele>550</ele>
        <time>2009-07-05T12:08:46Z</time>
      </trkpt>
      <trkpt lat="44.06523" lon="6.18752">
        <ele>552</ele>
        <time>2009-07-05T12:09:01Z</time>
      </trkpt>
      <trkpt lat="44.06523" lon="6.18798">
        <ele>553</ele>
        <time>2009-07-05T12:09:13Z</time>
      </trkpt>
      <trkpt lat="44.0653" lon="6.1885">
        <ele>555</ele>
        <time>2009-07-05T12:09:25Z</time>
      </trkpt>
      <trkpt lat="44.06533" lon="6.1888">
        <ele>557</ele>
        <time>2009-07-05T12:09:32Z</time>
      </trkpt>
      <trkpt lat="44.06553" lon="6.1893">
        <ele>557</ele>
        <time>2009-07-05T12:09:44Z</time>
      </trkpt>
      <trkpt lat="44.06582" lon="6.18988">
        <ele>557</ele>
        <time>2009-07-05T12:09:56Z</time>
      </trkpt>
      <trkpt lat="44.06605" lon="6.19037">
        <ele>557</ele>
        <time>2009-07-05T12:10:04Z</time>
      </trkpt>
      <trkpt lat="44.06647" lon="6.19125">
        <ele>559</ele>
        <time>2009-07-05T12:10:19Z</time>
      </trkpt>
      <trkpt lat="44.06652" lon="6.19133">
        <ele>560</ele>
        <time>2009-07-05T12:10:21Z</time>
      </trkpt>
      <trkpt lat="44.06665" lon="6.19165">
        <ele>560</ele>
        <time>2009-07-05T12:10:27Z</time>
      </trkpt>
      <trkpt lat="44.06655" lon="6.1921">
        <ele>562</ele>
        <time>2009-07-05T12:10:37Z</time>
      </trkpt>
      <trkpt lat="44.06667" lon="6.19247">
        <ele>562</ele>
        <time>2009-07-05T12:10:50Z</time>
      </trkpt>
      <trkpt lat="44.06673" lon="6.19247">
        <ele>562</ele>
        <time>2009-07-05T12:10:51Z</time>
      </trkpt>
      <trkpt lat="44.0668" lon="6.1927">
        <ele>562</ele>
        <time>2009-07-05T12:11:00Z</time>
      </trkpt>
      <trkpt lat="44.06693" lon="6.19292">
        <ele>563</ele>
        <time>2009-07-05T12:14:22Z</time>
      </trkpt>
      <trkpt lat="44.06715" lon="6.19348">
        <ele>565</ele>
        <time>2009-07-05T12:14:37Z</time>
      </trkpt>
      <trkpt lat="44.06737" lon="6.19405">
        <ele>566</ele>
        <time>2009-07-05T12:14:51Z</time>
      </trkpt>
      <trkpt lat="44.06762" lon="6.19477">
        <ele>568</ele>
        <time>2009-07-05T12:15:07Z</time>
      </trkpt>
      <trkpt lat="44.06797" lon="6.19565">
        <ele>570</ele>
        <time>2009-07-05T12:15:25Z</time>
      </trkpt>
      <trkpt lat="44.06808" lon="6.19592">
        <ele>570</ele>
        <time>2009-07-05T12:15:36Z</time>
      </trkpt>
      <trkpt lat="44.06818" lon="6.19618">
        <ele>570</ele>
        <time>2009-07-05T12:16:07Z</time>
      </trkpt>
      <trkpt lat="44.06822" lon="6.19625">
        <ele>571</ele>
        <time>2009-07-05T12:16:08Z</time>
      </trkpt>
      <trkpt lat="44.06857" lon="6.19702">
        <ele>571</ele>
        <time>2009-07-05T12:16:23Z</time>
      </trkpt>
      <trkpt lat="44.06873" lon="6.19747">
        <ele>572</ele>
        <time>2009-07-05T12:16:30Z</time>
      </trkpt>
      <trkpt lat="44.06913" lon="6.19803">
        <ele>573</ele>
        <time>2009-07-05T12:16:43Z</time>
      </trkpt>
      <trkpt lat="44.06958" lon="6.19865">
        <ele>573</ele>
        <time>2009-07-05T12:16:57Z</time>
      </trkpt>
      <trkpt lat="44.07003" lon="6.19938">
        <ele>573</ele>
        <time>2009-07-05T12:17:12Z</time>
      </trkpt>
      <trkpt lat="44.07058" lon="6.20037">
        <ele>573</ele>
        <time>2009-07-05T12:17:29Z</time>
      </trkpt>
      <trkpt lat="44.07103" lon="6.20137">
        <ele>572</ele>
        <time>2009-07-05T12:17:44Z</time>
      </trkpt>
      <trkpt lat="44.07122" lon="6.2018">
        <ele>572</ele>
        <time>2009-07-05T12:17:50Z</time>
      </trkpt>
      <trkpt lat="44.07127" lon="6.20185">
        <ele>572</ele>
        <time>2009-07-05T12:17:51Z</time>
      </trkpt>
      <trkpt lat="44.07132" lon="6.2019">
        <ele>572</ele>
        <time>2009-07-05T12:17:52Z</time>
      </trkpt>
      <trkpt lat="44.07167" lon="6.20217">
        <ele>573</ele>
        <time>2009-07-05T12:18:00Z</time>
      </trkpt>
      <trkpt lat="44.07178" lon="6.20223">
        <ele>574</ele>
        <time>2009-07-05T12:18:03Z</time>
      </trkpt>
      <trkpt lat="44.07248" lon="6.20265">
        <ele>575</ele>
        <time>2009-07-05T12:18:20Z</time>
      </trkpt>
      <trkpt lat="44.07302" lon="6.20338">
        <ele>577</ele>
        <time>2009-07-05T12:18:37Z</time>
      </trkpt>
      <trkpt lat="44.07362" lon="6.20408">
        <ele>578</ele>
        <time>2009-07-05T12:18:54Z</time>
      </trkpt>
      <trkpt lat="44.0742" lon="6.20473">
        <ele>578</ele>
        <time>2009-07-05T12:19:10Z</time>
      </trkpt>
      <trkpt lat="44.07447" lon="6.20515">
        <ele>578</ele>
        <time>2009-07-05T12:19:18Z</time>
      </trkpt>
      <trkpt lat="44.0745" lon="6.2052">
        <ele>578</ele>
        <time>2009-07-05T12:19:19Z</time>
      </trkpt>
      <trkpt lat="44.07453" lon="6.20525">
        <ele>578</ele>
        <time>2009-07-05T12:19:20Z</time>
      </trkpt>
      <trkpt lat="44.0751" lon="6.20578">
        <ele>578</ele>
        <time>2009-07-05T12:19:33Z</time>
      </trkpt>
      <trkpt lat="44.07527" lon="6.20592">
        <ele>578</ele>
        <time>2009-07-05T12:19:37Z</time>
      </trkpt>
      <trkpt lat="44.07553" lon="6.20622">
        <ele>578</ele>
        <time>2009-07-05T12:19:47Z</time>
      </trkpt>
      <trkpt lat="44.07553" lon="6.20622">
        <ele>578</ele>
        <time>2009-07-05T12:19:48Z</time>
      </trkpt>
      <trkpt lat="44.07555" lon="6.2062">
        <ele>578</ele>
        <time>2009-07-05T12:19:49Z</time>
      </trkpt>
      <trkpt lat="44.07558" lon="6.20615">
        <ele>577</ele>
        <time>2009-07-05T12:19:53Z</time>
      </trkpt>
      <trkpt lat="44.0757" lon="6.20607">
        <ele>576</ele>
        <time>2009-07-05T12:19:59Z</time>
      </trkpt>
      <trkpt lat="44.0759" lon="6.20593">
        <ele>575</ele>
        <time>2009-07-05T12:20:03Z</time>
      </trkpt>
      <trkpt lat="44.07612" lon="6.20545">
        <ele>573</ele>
        <time>2009-07-05T12:20:11Z</time>
      </trkpt>
      <trkpt lat="44.07632" lon="6.20543">
        <ele>572</ele>
        <time>2009-07-05T12:20:15Z</time>
      </trkpt>
      <trkpt lat="44.07685" lon="6.20567">
        <ele>571</ele>
        <time>2009-07-05T12:20:28Z</time>
      </trkpt>
      <trkpt lat="44.07748" lon="6.20597">
        <ele>569</ele>
        <time>2009-07-05T12:20:42Z</time>
      </trkpt>
      <trkpt lat="44.07768" lon="6.20597">
        <ele>570</ele>
        <time>2009-07-05T12:20:52Z</time>
      </trkpt>
      <trkpt lat="44.07772" lon="6.2059">
        <ele>570</ele>
        <time>2009-07-05T12:20:54Z</time>
      </trkpt>
      <trkpt lat="44.07773" lon="6.20608">
        <ele>571</ele>
        <time>2009-07-05T12:23:24Z</time>
      </trkpt>
      <trkpt lat="44.0778" lon="6.20687">
        <ele>571</ele>
        <time>2009-07-05T12:23:38Z</time>
      </trkpt>
      <trkpt lat="44.0778" lon="6.20752">
        <ele>571</ele>
        <time>2009-07-05T12:23:50Z</time>
      </trkpt>
      <trkpt lat="44.07783" lon="6.20785">
        <ele>572</ele>
        <time>2009-07-05T12:23:57Z</time>
      </trkpt>
      <trkpt lat="44.07805" lon="6.20842">
        <ele>573</ele>
        <time>2009-07-05T12:24:10Z</time>
      </trkpt>
      <trkpt lat="44.07825" lon="6.20902">
        <ele>573</ele>
        <time>2009-07-05T12:24:22Z</time>
      </trkpt>
      <trkpt lat="44.07832" lon="6.20922">
        <ele>573</ele>
        <time>2009-07-05T12:24:26Z</time>
      </trkpt>
      <trkpt lat="44.07858" lon="6.20995">
        <ele>574</ele>
        <time>2009-07-05T12:24:40Z</time>
      </trkpt>
      <trkpt lat="44.07858" lon="6.21002">
        <ele>574</ele>
        <time>2009-07-05T12:24:41Z</time>
      </trkpt>
      <trkpt lat="44.07873" lon="6.2106">
        <ele>574</ele>
        <time>2009-07-05T12:24:53Z</time>
      </trkpt>
      <trkpt lat="44.07888" lon="6.21097">
        <ele>575</ele>
        <time>2009-07-05T12:25:02Z</time>
      </trkpt>
      <trkpt lat="44.0791" lon="6.21143">
        <ele>575</ele>
        <time>2009-07-05T12:25:15Z</time>
      </trkpt>
      <trkpt lat="44.07913" lon="6.21153">
        <ele>575</ele>
        <time>2009-07-05T12:25:17Z</time>
      </trkpt>
      <trkpt lat="44.07923" lon="6.21167">
        <ele>574</ele>
        <time>2009-07-05T12:25:20Z</time>
      </trkpt>
      <trkpt lat="44.07927" lon="6.2117">
        <ele>574</ele>
        <time>2009-07-05T12:25:21Z</time>
      </trkpt>
      <trkpt lat="44.0793" lon="6.21173">
        <ele>575</ele>
        <time>2009-07-05T12:25:22Z</time>
      </trkpt>
      <trkpt lat="44.07933" lon="6.21177">
        <ele>575</ele>
        <time>2009-07-05T12:25:23Z</time>
      </trkpt>
      <trkpt lat="44.07937" lon="6.2118">
        <ele>575</ele>
        <time>2009-07-05T12:25:24Z</time>
      </trkpt>
      <trkpt lat="44.0794" lon="6.21183">
        <ele>575</ele>
        <time>2009-07-05T12:25:25Z</time>
      </trkpt>
      <trkpt lat="44.0794" lon="6.21188">
        <ele>575</ele>
        <time>2009-07-05T12:25:26Z</time>
      </trkpt>
      <trkpt lat="44.07943" lon="6.21193">
        <ele>575</ele>
        <time>2009-07-05T12:25:27Z</time>
      </trkpt>
      <trkpt lat="44.07965" lon="6.2125">
        <ele>575</ele>
        <time>2009-07-05T12:25:42Z</time>
      </trkpt>
      <trkpt lat="44.07968" lon="6.21265">
        <ele>575</ele>
        <time>2009-07-05T12:25:54Z</time>
      </trkpt>
      <trkpt lat="44.07983" lon="6.21295">
        <ele>575</ele>
        <time>2009-07-05T12:27:16Z</time>
      </trkpt>
      <trkpt lat="44.08008" lon="6.2137">
        <ele>575</ele>
        <time>2009-07-05T12:27:33Z</time>
      </trkpt>
      <trkpt lat="44.08003" lon="6.21433">
        <ele>577</ele>
        <time>2009-07-05T12:27:46Z</time>
      </trkpt>
      <trkpt lat="44.07992" lon="6.21448">
        <ele>577</ele>
        <time>2009-07-05T12:27:51Z</time>
      </trkpt>
      <trkpt lat="44.07967" lon="6.2144">
        <ele>577</ele>
        <time>2009-07-05T12:28:01Z</time>
      </trkpt>
      <trkpt lat="44.07963" lon="6.2144">
        <ele>576</ele>
        <time>2009-07-05T12:28:13Z</time>
      </trkpt>
      <trkpt lat="44.07967" lon="6.21437">
        <ele>577</ele>
        <time>2009-07-05T12:28:46Z</time>
      </trkpt>
      <trkpt lat="44.07967" lon="6.21437">
        <ele>577</ele>
        <time>2009-07-05T12:30:37Z</time>
      </trkpt>
    </trkseg>
  </trk>
</gpx>